Race Results for 2017 Vitality Liverpool Half Marathon on 02/04/2017

Race Number First Name Surname Gender Gender Position Category Category Position Club 5 Mile Stage Position 10 Mile Stage Position Gun Time Overall Position Chip Time Chip Position
4272 Dejene Gezimu Male 1 MOPEN 1 LIVERPOOL HARRIERS AC 00:25:04 1 00:49:58 1 01:05:52 1 01:05:52 1
1474 Paul Fauset Male 10 M40+ 1 DARK PEAK FELL RUNNERS CLUB 00:27:54 9 00:56:20 9 01:14:42 10 01:14:41 10
135 Rob Downs Male 12 M50+ 1 WILMSLOW RC 00:28:01 13 00:56:42 14 01:15:09 12 01:15:08 12
5 David Watson Male 16 M45+ 1 HOLMFIRTH HARRIERS AC 00:27:43 7 00:56:26 10 01:15:41 16 01:15:40 16
13 Michelle Nolan Female 1 F35+ 1 GATESHEAD HARRIERS AC 00:30:16 54 01:00:29 47 01:19:38 41 01:19:36 43
4586 Diane Mcvey Female 2 F40+ 1 WILMSLOW RC 00:29:51 43 01:00:13 42 01:19:40 42 01:19:37 44
10330 Elissa Morris Female 3 FOPEN 1 MANX HARRIERS 00:30:41 69 01:02:11 69 01:22:55 76 01:22:49 82
12 Treena Johnson Female 4 F55+ 1 DEWSBURY ROAD RUNNERS 00:31:33 109 01:03:00 95 01:22:58 78 01:22:51 83
4486 David Gill Male 112 M55+ 1 WARRINGTON AC 00:32:01 138 01:04:23 133 01:24:50 116 01:24:47 128
2399 Christine Murphy Female 17 F45+ 1 LIVERPOOL HARRIERS AC 00:34:03 267 01:08:33 267 01:31:24 261 01:31:13 279
133 Brian Beecroft Male 247 M60+ 1 WIRRAL AC 00:34:59 343 01:09:42 310 01:31:37 265 01:31:27 291
377 Rudolf Maciejkowicz Male 395 M65+ 1 HORWICH RMI HARRIERS 00:35:00 348 01:12:18 439 01:36:23 431 01:36:11 474
547 Shirley Staveley Female 81 F50+ 1 BURNDEN ROAD RUNNERS 00:37:45 773 01:17:22 868 01:42:24 737 01:42:10 839
86 Rosemary Rogers Female 185 F65+ 1 WEST CHESHIRE AC 00:41:34 1584 01:23:22 1508 01:51:24 1305 01:50:34 1491
131 Ray Smith Male 1273 M70+ 1 NORTHERN VETERANS AC 00:41:56 1661 01:23:23 1510 01:53:54 1496 01:52:00 1622
4383 Pat Helsby Female 315 F60+ 1 KIRKBY MILERS 00:42:23 1764 01:25:20 1717 01:58:10 1804 01:53:30 1734
495 Sue Nicholls Female 608 F70+ 1 BURNHAM-ON-SEA HARRIERS 00:46:19 2707 01:34:32 2765 02:09:03 2628 02:05:18 2706
2496 Dave Onion Male 2271 M75+ 1 REDHILL ROAD RUNNERS 00:50:07 3379 01:43:19 3387 02:18:33 3137 02:18:01 3365
1 Andrew Davies Male 2 MOPEN 2 STOCKPORT HARRIERS AC 00:25:32 2 00:50:52 2 01:07:15 2 01:07:14 2
1791 Will Kerr Male 13 M40+ 2 SALTAIRE STRIDERS 00:28:19 16 00:56:54 15 01:15:13 13 01:15:11 13
3875 Michael Garrett Male 17 M45+ 2 MANX HARRIERS 00:28:41 23 00:57:02 18 01:15:48 17 01:15:47 17
4545 Sammy Rahid Male 36 M50+ 2 LIVERPOOL PEMBROKE SEFTON HARR 00:29:06 25 00:59:06 32 01:19:20 36 01:19:18 37
4778 Jennifer Clague Female 5 F40+ 2 LIVERPOOL HARRIERS AC 00:31:56 133 01:04:17 128 01:25:05 121 01:25:03 132
4916 Jenny Watt Female 6 FOPEN 2 VALE ROYAL AC 00:31:46 125 01:04:24 134 01:25:32 131 01:25:21 138
3224 Keith Scovell Male 137 M55+ 2 ARROWE PARK AMBLERS 00:32:37 172 01:05:28 160 01:26:26 145 01:26:10 150
15 Carmel Triggs Female 9 F35+ 2 00:33:04 197 01:05:48 166 01:26:56 153 01:26:38 158
4054 David Nalder Male 348 M60+ 2 ELLESMERE PORT RC 00:36:16 494 01:11:58 420 01:35:09 378 01:34:01 373
4817 Justine Moore Female 40 F45+ 2 KNOWSLEY HARRIERS 00:36:28 533 01:12:53 490 01:37:12 472 01:36:36 501
223 Karen Tempest Female 68 F55+ 2 00:37:50 788 01:15:41 728 01:40:56 663 01:39:41 705
262 Eurwyn Edwards Male 607 M65+ 2 ERYRI HARRIERS 00:37:26 724 01:16:10 766 01:41:08 677 01:40:47 760
1363 Claire Ross Female 82 F50+ 2 00:38:57 995 01:16:40 800 01:42:34 749 01:40:38 752
159 Patricia Vernazza Female 192 F65+ 2 00:41:10 1486 01:22:35 1421 01:51:51 1343 01:49:26 1403
3338 Frantisek Kubicek Male 1427 M70+ 2 00:43:11 1944 01:27:54 2018 01:56:59 1727 01:56:40 1996
1193 Anne Acton Female 365 F60+ 2 00:44:34 2251 01:28:38 2097 02:00:19 1966 01:56:48 2008
2586 Margaret Ellams Female 741 F70+ 2 00:48:37 3156 01:38:14 3083 02:13:14 2873 02:10:54 3049
4686 John Courtney Male 2499 M75+ 2 00:56:12 3818 01:53:14 3769 02:35:53 3694 02:26:57 3657
3764 Ben Johnson Male 3 MOPEN 3 SOUTHPORT WATERLOO AC 00:25:51 3 00:51:28 3 01:08:27 3 01:08:26 3
4180 Marc Penn Male 15 M40+ 3 KESWICK AC 00:28:09 15 00:56:54 16 01:15:25 15 01:15:23 14
10337 Paul Sankey Male 22 M45+ 3 LIVERPOOL HARRIERS AC 00:28:37 22 00:58:12 21 01:17:11 22 01:17:11 24
2962 Peter Rogers Male 43 M50+ 3 STOCKPORT HARRIERS AC 00:30:16 53 01:00:26 46 01:20:05 45 01:20:01 46
9 Karen Shimmin Female 7 FOPEN 3 MANX HARRIERS 00:32:30 160 01:04:50 145 01:26:09 141 01:25:41 142
3337 Daniel Rees Male 154 M55+ 3 WEST LANCS TRI CLUB 00:32:37 170 01:06:06 175 01:27:23 163 01:27:07 167
160 Fiona Lynch Female 11 F40+ 3 RADCLIFFE AC 00:33:39 230 01:07:39 239 01:29:36 228 01:29:24 233
2023 Carol Paxton Female 20 F35+ 3 00:34:07 279 01:09:03 292 01:31:38 267 01:31:22 284
2969 Lenny Hughes Male 363 M60+ 3 MALDWYN H 00:36:48 593 01:12:43 471 01:35:33 393 01:35:11 421
576 Sam Horsfall Female 42 F45+ 3 00:36:52 608 01:14:24 620 01:37:59 506 01:37:22 537
649 Sue Spong Female 72 F55+ 3 HAVERING 90 JOGGERS 00:37:51 790 01:16:03 755 01:41:12 682 01:40:31 741
3987 Linda Jones Female 84 F50+ 3 WREXHAM AAC 00:38:24 899 01:17:12 857 01:42:34 751 01:41:45 814
3045 Garry Clarke Male 670 M65+ 3 TALLAGHT AC 00:38:33 924 01:17:36 884 01:42:38 755 01:42:11 842
801 Leung Kye Cho Male 1520 M70+ 3 00:45:22 2466 01:29:45 2218 01:58:48 1846 01:57:39 2105
4655 Heather Mitchell Female 391 F60+ 3 DEWSBURY ROAD RUNNERS 00:44:38 2268 01:28:55 2131 02:01:15 2052 01:57:49 2126
4425 Sue Cash Female 533 F65+ 3 WIRRAL VIKINGS TRC 00:45:11 2422 01:30:42 2325 02:06:14 2454 02:00:20 2358
2093 Marion Hirst Female 1359 F70+ 3 01:01:25 3969 02:08:04 3970 02:59:00 3953 02:51:00 3943
4928 Ronald Thornton Male 2608 M75+ 3 KNOWSLEY HARRIERS 01:04:31 3985 02:14:30 3996 03:11:37 3995 03:03:13 3991
3 William Onek Male 4 MOPEN 4 BARLICK FELL RUNNERS 00:26:45 5 00:54:16 4 01:12:10 4 01:12:09 4
3478 Chris Fitzpatrick Male 29 M40+ 4 HELSBY (BICC) RC 00:29:07 26 00:58:51 27 01:18:40 29 01:18:37 29
6 Chris Yorke Male 30 M45+ 4 NORTH WALES ROAD RUNNERS 00:28:34 20 00:59:05 31 01:18:44 30 01:18:43 31
2772 Paul Schumann Male 84 M50+ 4 KNOWSLEY HARRIERS 00:30:56 78 01:02:33 83 01:23:16 88 01:23:12 97
1335 Rachel Boyd Female 8 FOPEN 4 SALTAIRE STRIDERS 00:32:25 154 01:05:06 152 01:26:18 143 01:26:02 149
4650 Mark Ashby Male 158 M55+ 4 SOUTHPORT WATERLOO AC 00:32:28 155 01:06:03 174 01:27:29 167 01:27:24 179
4982 Jude Peck Female 13 F40+ 4 NORTHERN VETERANS AC 00:34:14 295 01:08:19 260 01:30:25 239 01:30:04 245
1647 Jennifer Cottrell Female 22 F35+ 4 00:35:25 397 01:10:47 361 01:32:31 293 01:32:07 313
10353 Joe Mcgrath Male 396 M60+ 4 PENNY LANE STRIDERS 00:35:15 371 01:11:25 389 01:36:24 432 01:35:58 459
1785 Lynn Murray Female 43 F45+ 4 BARROW FURNESS STRIDERS AC 00:36:12 486 01:13:13 514 01:38:04 509 01:37:29 545
137 Lynn Rees Female 74 F55+ 4 00:37:38 747 01:16:05 758 01:41:32 692 01:40:37 751
3620 Julie Stanton Female 117 F50+ 4 CROSSGATES HARRIERS AC 00:38:34 926 01:18:10 931 01:46:08 950 01:45:27 1066
132 James Mcglynn Male 893 M65+ 4 00:39:22 1074 01:18:07 927 01:47:22 1020 01:42:04 835
2131 Anne Mccartan Female 508 F60+ 4 00:45:44 2571 01:30:59 2372 02:05:07 2388 01:59:42 2302
253 Alasdair Kennedy Male 2010 M70+ 4 00:47:47 2984 01:34:28 2751 02:08:47 2614 02:04:49 2680
931 Ellen Barr Female 658 F65+ 4 JERSEY SPARTAN AC 00:46:13 2680 01:34:30 2756 02:10:28 2706 02:06:10 2746
3657 Matthew Hornsby Male 5 MOPEN 5 DURHAM CITY HARRIERS AC 00:27:01 6 00:54:40 5 01:12:51 5 01:12:50 5
3275 Andrew Whittingham Male 31 M45+ 5 WILMSLOW RC 00:29:30 34 00:59:29 35 01:18:46 31 01:18:44 32
2159 Richard Walker Male 45 M40+ 5 BARROW FURNESS STRIDERS AC 00:30:39 66 01:00:48 50 01:20:35 47 01:20:25 48
4150 David Edwards Male 95 M50+ 5 KIRKBY MILERS 00:31:12 90 01:03:15 103 01:23:56 99 01:23:53 110
4247 David Meskell Male 160 M55+ 5 00:32:19 145 01:05:51 169 01:27:36 169 01:27:28 183
3580 Charlotte Wilson-Dewhurst Female 10 FOPEN 5 LIVERPOOL HARRIERS AC 00:32:28 156 01:06:36 189 01:28:49 199 01:28:38 208
771 Sophie Green Female 21 F40+ 5 00:35:38 424 01:10:37 352 01:31:52 277 01:31:25 288
3253 Vicky Penn Female 32 F35+ 5 SMILEY PACES 00:35:14 369 01:11:50 411 01:35:41 398 01:35:28 433
3071 John Tyrrell Male 462 M60+ 5 TALLAGHT AC 00:37:16 688 01:14:47 649 01:37:55 502 01:37:18 532
2101 Kathleen Crisp Female 58 F45+ 5 BARROW FURNESS STRIDERS AC 00:37:25 717 01:15:00 660 01:39:31 586 01:38:55 644
4078 Tracy Pennington Female 134 F50+ 5 PENSBY RUNNERS 00:39:53 1183 01:20:16 1149 01:47:54 1061 01:45:33 1072
130 Caroline Horton Female 154 F55+ 5 STOCKSFIELD STRIDERS 00:41:17 1524 01:21:50 1326 01:49:06 1146 01:46:05 1107
4339 Simon Longman Male 1126 M65+ 5 00:40:45 1391 01:22:09 1372 01:51:28 1311 01:49:06 1379
4337 Christine Ching Female 648 F60+ 5 00:47:23 2912 01:36:12 2924 02:10:12 2691 02:09:31 2972
3377 Don Macleod Male 2214 M70+ 5 00:47:54 3013 01:38:12 3079 02:15:56 3024 02:11:21 3072
4523 Tina Woods Female 816 F65+ 5 BIRKENHEAD AC 00:48:24 3114 01:37:35 3029 02:16:17 3038 02:09:15 2949
1122 David Fitzpatrick Male 6 MOPEN 6 TALLAGHT AC 00:28:19 17 00:56:35 13 01:14:16 6 01:14:13 6
3957 Dave Edwards Male 34 M45+ 6 00:29:10 29 00:59:14 33 01:18:53 34 01:18:46 34
4649 Jonathan Kettle Male 48 M40+ 6 NORTH WALES ROAD RUNNERS 00:31:07 85 01:01:35 62 01:20:45 50 01:20:39 50
4667 Richard Murray Male 100 M50+ 6 VALE ROYAL AC 00:31:37 113 01:03:32 108 01:24:04 104 01:23:57 111
2428 Paul Shannon Male 207 M55+ 6 TATTENHALL RUNNERS 00:33:13 206 01:07:27 218 01:29:11 217 01:28:55 224
2225 Katie Waite Female 12 FOPEN 6 BARROW FURNESS STRIDERS AC 00:33:52 248 01:07:38 236 01:30:08 235 01:29:48 241
3723 Dianna Mannhart Female 37 F35+ 6 00:36:46 589 01:13:05 503 01:36:26 434 01:35:42 444
2929 John Witton Male 492 M60+ 6 00:36:07 473 01:13:41 547 01:38:41 537 01:38:07 586
529 Lucy Fowler Female 51 F40+ 6 00:36:52 607 01:14:35 634 01:39:25 570 01:38:48 635
815 Elaine Stone Female 79 F45+ 6 WIRKSWORTH RUNNING CLUB 00:38:13 865 01:17:03 839 01:42:15 728 01:41:37 805
1120 Jacqui Boyle Female 149 F50+ 6 TALLAGHT AC 00:41:10 1489 01:22:25 1400 01:48:48 1123 01:48:19 1309
1309 Helen Love Female 175 F55+ 6 SALTAIRE STRIDERS 00:39:48 1161 01:20:42 1203 01:50:31 1239 01:46:48 1186
1966 Barney Lerner Male 1163 M65+ 6 SALTAIRE STRIDERS 00:42:21 1757 01:23:53 1562 01:52:05 1360 01:50:30 1482
182 Katherine Kingsley Female 738 F60+ 6 FYLDE COAST RUNNERS 00:48:18 3093 01:36:25 2936 02:13:10 2869 02:06:51 2792
3050 Edward Coyle Male 2328 M70+ 6 TALLAGHT AC 00:49:54 3361 01:41:09 3266 02:22:15 3278 02:14:42 3225
3519 Patricia Wright Female 961 F65+ 6 00:49:38 3324 01:41:09 3265 02:22:36 3297 02:15:22 3255
4694 Will Simmons Male 7 MOPEN 7 ILKLEY HARRIERS AC 00:28:04 14 00:55:58 6 01:14:25 7 01:14:25 7
2940 Alan Ashton Male 38 M45+ 7 LIVERPOOL HARRIERS AC 00:29:19 32 01:00:35 48 01:19:27 38 01:19:26 39
2836 Shane Carton Male 51 M40+ 7 00:30:30 59 01:01:06 53 01:20:52 53 01:20:47 55
4906 Paul Skaife Male 143 M50+ 7 MOSSLEY HILL AC 00:32:40 176 01:05:23 159 01:26:49 151 01:26:29 154
14 Megan Ball Female 14 FOPEN 7 LIVERPOOL HARRIERS AC 00:33:02 196 01:08:01 248 01:30:57 248 01:30:46 262
1655 Tony Jackson Male 289 M55+ 7 NEWBURGH NOMADS RC 00:33:43 238 01:09:19 301 01:33:11 311 01:32:59 338
2530 Lucy Partridge Female 38 F35+ 7 PENSBY RUNNERS 00:36:21 512 01:12:51 485 01:36:55 463 01:36:21 491
1467 Charlotte Barran Female 54 F40+ 7 00:37:05 649 01:14:28 623 01:39:27 576 01:38:48 636
4455 James Price Male 536 M60+ 7 LIVERPOOL RC 00:37:06 651 01:14:14 602 01:39:36 598 01:38:16 598
4902 Vicki Van Der Walt Female 80 F45+ 7 00:39:02 1013 01:16:54 820 01:42:19 732 01:40:34 747
3336 Debbie Hawker Female 151 F50+ 7 ELLESMERE PORT RC 00:40:14 1248 01:20:45 1211 01:49:03 1140 01:46:51 1190
4651 Jayne Ford Female 202 F55+ 7 STONE MASTER MARATHONERS 00:39:31 1101 01:22:27 1404 01:52:30 1388 01:51:51 1601
4220 John Barr Male 1454 M65+ 7 00:43:09 1934 01:27:11 1944 01:57:26 1765 01:54:41 1842
263 Vivienne Edwards Female 809 F60+ 7 MENAI TRACK AND FIELD 00:50:58 3461 01:40:56 3255 02:15:54 3022 02:10:55 3053
2753 Rita Jenkins Female 1165 F65+ 7 00:53:44 3688 01:48:21 3630 02:32:50 3638 02:25:08 3612
4697 Paul Coon Male 8 MOPEN 8 ELLENBOROUGH AC 00:27:59 12 00:56:29 11 01:14:26 8 01:14:25 8
1931 Simon Beadman Male 40 M45+ 8 00:29:33 35 00:59:54 39 01:19:34 40 01:19:30 40
1308 Liam Cullen Male 54 M40+ 8 TALLAGHT AC 00:30:42 72 01:01:28 58 01:21:14 56 01:21:09 60
4981 Nigel Grant Male 152 M50+ 8 PENNY LANE STRIDERS 00:31:43 116 01:05:23 158 01:27:21 161 01:27:14 173
4563 Keely Smith Female 15 FOPEN 8 WEST CHESHIRE AC 00:33:39 231 01:08:03 249 01:30:57 250 01:29:52 242
3006 Steve Coleman Male 301 M55+ 8 ASTLEY TYLDESLEY ROAD RUNNERS 00:34:49 330 01:10:27 345 01:33:34 324 01:33:12 348
3590 Nina Pilkington Female 39 F35+ 8 WIGAN DISTRICT HARRIERS AC 00:36:40 572 01:12:48 480 01:37:01 466 01:36:47 509
1865 Fiona Perry Female 59 F40+ 8 00:37:54 799 01:15:12 684 01:39:31 588 01:38:45 631
3339 Pavel Kubicek Male 614 M60+ 8 00:37:56 805 01:16:48 812 01:41:16 687 01:41:04 777
4497 Sonya Monaghan Female 86 F45+ 8 00:37:51 791 01:17:01 828 01:42:45 764 01:41:46 818
1158 Emma Pallot Female 166 F50+ 8 00:40:40 1372 01:22:13 1381 01:50:10 1215 01:48:51 1360
3364 Carolyn Holt Female 286 F55+ 8 00:42:04 1684 01:22:57 1463 01:56:30 1684 01:49:21 1395
4768 Clive Bell Male 1594 M65+ 8 00:44:55 2338 01:29:02 2142 02:00:11 1955 01:57:33 2097
4507 Maggie Cooke Female 833 F60+ 8 00:43:45 2090 01:34:49 2781 02:17:01 3071 02:13:00 3145
4684 Steffan Sayer Male 9 MOPEN 9 MENAI TRACK AND FIELD 00:27:58 11 00:56:18 8 01:14:29 9 01:14:27 9
2928 Lachezar Nikolov Male 49 M45+ 9 00:30:27 58 01:01:17 55 01:20:49 51 01:20:45 54
3790 Mike Dixon Male 66 M40+ 9 STOCKPORT HARRIERS AC 00:30:30 60 01:01:58 66 01:22:21 68 01:22:17 72
2460 Shaun Griffiths Male 170 M50+ 9 00:33:14 208 01:06:14 177 01:27:49 179 01:27:00 165
4913 Rachel Jacks Female 16 FOPEN 9 SOUTHPORT WATERLOO AC 00:34:05 277 01:08:33 268 01:31:11 253 01:30:49 264
2626 Peter Carpenter Male 337 M55+ 9 00:35:49 444 01:11:45 406 01:34:56 366 01:34:31 393
1094 Nichola Dcruze Female 45 F35+ 9 PENNY LANE STRIDERS 00:37:27 725 01:14:29 624 01:38:36 534 01:38:12 594
3077 Anne Rosbottom Female 62 F40+ 9 WIRRAL AC 00:37:32 731 01:14:42 641 01:39:33 596 01:38:50 639
2971 David Sims Male 632 M60+ 9 00:38:00 817 01:16:25 785 01:41:56 708 01:40:53 770
1268 Louise Dermott Female 105 F45+ 9 00:37:56 803 01:17:50 903 01:44:36 875 01:43:46 944
945 Shauna Jhappan Female 172 F50+ 9 00:40:14 1249 01:21:07 1240 01:50:22 1231 01:48:09 1294
2828 Rachel Saunders Female 299 F55+ 9 WALLASEY AC 00:42:42 1848 01:25:56 1795 01:56:58 1724 01:54:03 1784
4756 Michael Sharkey Male 1757 M65+ 9 PENNY LANE STRIDERS 00:46:13 2678 01:30:44 2336 02:03:07 2198 01:59:08 2237
3121 Carol Knowles Female 1002 F60+ 9 LIVERPOOL RC 00:48:14 3080 01:41:02 3257 02:24:26 3367 02:18:25 3380
10352 Jack Murphy Male 11 MOPEN 10 SALTAIRE STRIDERS 00:28:36 21 00:56:57 17 01:14:44 11 01:14:42 11
2208 Martin Fillingham Male 56 M45+ 10 SALTAIRE STRIDERS 00:30:21 56 01:01:27 56 01:21:20 58 01:21:06 59
3467 Chris Smullen Male 85 M40+ 10 WIGAN DISTRICT HARRIERS AC 00:30:31 62 01:02:08 68 01:23:27 89 01:23:15 98
2379 Boyd Park Male 187 M50+ 10 SOUTHPORT WATERLOO AC 00:33:23 217 01:07:13 210 01:28:42 196 01:28:37 207
4422 Emma Holmes Female 18 FOPEN 10 00:33:23 216 01:08:29 265 01:31:27 263 01:31:06 274
3900 Geoff Lloyd Male 383 M55+ 10 DOCKSIDE RUNNERS 00:34:03 268 01:11:51 412 01:36:08 417 01:35:50 449
553 Jodi Fowler Female 61 F35+ 10 00:36:53 610 01:14:31 628 01:39:32 592 01:38:56 647
668 Kerry Oldfield Female 64 F40+ 10 KENDAL AAC 00:36:57 621 01:14:06 593 01:40:02 625 01:37:30 550
3740 Stephen Bowden Male 641 M60+ 10 WARRINGTON RRC 00:37:23 712 01:15:45 732 01:42:07 719 01:41:37 806
2505 Amanda Lee Female 109 F45+ 10 KIRKBY MILERS 00:39:10 1042 01:18:50 1003 01:44:50 886 01:44:05 972
2895 Sharon Lamont Female 207 F50+ 10 WALLASEY AC 00:41:15 1512 01:23:06 1483 01:52:54 1419 01:49:58 1437
4609 Mary Heery Female 327 F55+ 10 PENNY LANE STRIDERS 00:41:31 1571 01:25:40 1752 01:58:49 1848 01:54:01 1781
1429 Aitken Couper Male 2135 M65+ 10 00:47:33 2940 01:35:30 2857 02:13:19 2878 02:06:27 2766
820 Elizabeth Marsh Female 1265 F60+ 10 00:53:07 3647 01:52:32 3742 02:42:25 3817 02:37:29 3833
4884 Zekeriyas Abery Male 14 MOPEN 11 00:27:50 8 00:56:29 12 01:15:25 14 01:15:25 15
3392 Al Healy Male 86 M40+ 11 KIRKBY MILERS 00:31:02 83 01:02:36 84 01:23:37 90 01:23:27 101
4652 Martin Christian Male 92 M45+ 11 KIRKBY MILERS 00:31:02 82 01:02:14 71 01:23:50 96 01:21:47 67
605 Paul Goodwin Male 199 M50+ 11 LIVERPOOL HARRIERS AC 00:32:29 157 01:07:09 208 01:29:00 209 01:28:49 220
2074 Hollie Smith Female 19 FOPEN 11 CHARNWOOD AC 00:33:32 225 01:07:52 246 01:31:37 266 01:31:22 283
2941 Nick Tripp Male 397 M55+ 11 00:35:40 429 01:12:25 450 01:36:25 433 01:35:53 452
1885 Louise Nicholson Female 66 F40+ 11 LIVERPOOL RC 00:36:46 587 01:15:00 662 01:40:23 646 01:39:21 682
358 Jude Loder Female 67 F35+ 11 WRECSAM TRI 00:36:54 615 01:14:18 606 01:40:54 660 01:38:10 591
3819 Stephen Hollis Male 699 M60+ 11 UK ROADRUNNER 00:38:03 829 01:17:02 833 01:43:17 791 01:42:18 850
1249 Tracy Foy Female 130 F45+ 11 SALTAIRE STRIDERS 00:38:59 1005 01:18:19 947 01:47:37 1040 01:43:54 965
1673 Michelle Murphy Female 219 F50+ 11 LIVERPOOL HARRIERS AC 00:41:29 1560 01:23:23 1511 01:53:47 1486 01:49:47 1423
638 Lyn Ebbrell Female 350 F55+ 11 BIRKENHEAD AC 00:42:18 1736 01:26:30 1859 01:59:45 1923 01:55:17 1891
297 Sidney Molyneux Male 2533 M65+ 11 PICTON SPORTS CENTRE RC 00:56:04 3806 01:53:26 3778 02:39:20 3769 02:32:40 3761
573 James Grufferty Male 18 MOPEN 12 LEEVALE 00:27:55 10 00:57:16 19 01:16:18 18 01:16:17 18
3244 Jamie Mackie Male 90 M40+ 12 00:31:09 87 01:02:56 93 01:23:44 94 01:23:27 102
536 Gary Boon Male 99 M45+ 12 00:31:44 118 01:03:48 114 01:24:02 103 01:23:49 108
4719 Shaun Chambers Male 201 M50+ 12 HYDE VILLAGE STRIDERS 00:33:49 242 01:07:32 226 01:29:05 211 01:28:39 210
4345 Rachel Burchell Female 23 FOPEN 12 00:34:44 324 01:08:37 272 01:33:24 318 01:30:45 261
3272 Barry Rimmer Male 468 M55+ 12 00:36:54 616 01:13:49 558 01:38:05 511 01:36:50 512
144 Jean Latham Female 69 F40+ 12 00:37:04 646 01:15:10 678 01:40:56 664 01:40:17 736
4999 Jennifer Brady Female 70 F35+ 12 00:38:22 895 01:16:32 792 01:41:04 671 01:40:15 732
4047 William Dawson Male 734 M60+ 12 MOSSLEY HILL AC 00:37:15 682 01:15:50 743 01:43:50 829 01:41:24 800
3160 Caroline Brown Female 155 F45+ 12 WIGAN DISTRICT HARRIERS AC 00:40:29 1311 01:20:39 1197 01:49:10 1149 01:46:30 1151
2906 Eleanor Roberts Female 246 F50+ 12 SPECTRUM STRIDERS RC 00:41:31 1570 01:22:51 1451 01:55:12 1579 01:50:28 1479
4761 Yvonne Healing Female 384 F55+ 12 NORTHWICH RUNNING CLUB 00:43:45 2089 01:27:59 2029 02:00:59 2027 01:56:29 1979
1123 Andrew Povey Male 2548 M65+ 12 00:54:49 3745 01:54:52 3815 02:41:24 3799 02:35:46 3811
2484 Chris Collins Male 19 MOPEN 13 BOURNVILLE HARRIERS 00:28:19 18 00:57:26 20 01:16:21 19 01:16:20 19
750 Carl Birkett Male 93 M40+ 13 00:31:44 119 01:03:43 111 01:23:51 97 01:23:46 106
4012 Tony Lanzarotti Male 111 M45+ 13 00:32:00 137 01:03:55 116 01:24:49 115 01:24:27 120
3335 Andrew Homerski Male 213 M50+ 13 00:33:26 220 01:06:52 200 01:29:15 223 01:28:15 199
1265 Rebecca Tinnelly Female 24 FOPEN 13 00:36:19 505 01:11:27 390 01:33:36 328 01:32:47 330
2777 Gwyn Istance Male 517 M55+ 13 00:37:09 663 01:14:32 629 01:39:20 567 01:38:45 630
657 Lesley Connors Female 71 F40+ 13 VEGAN RUNNERS 00:37:32 735 01:15:32 719 01:41:09 679 01:39:50 710
4205 Victoria Lewis Female 102 F35+ 13 00:38:44 955 01:17:25 873 01:44:33 869 01:41:58 830
4823 Steve Pemberton Male 813 M60+ 13 PENNY LANE STRIDERS 00:38:31 918 01:19:33 1071 01:45:26 924 01:44:43 1017
3540 Kirstin Jones Female 161 F45+ 13 BETSI RUNAWAYS 00:39:45 1153 01:20:00 1112 01:49:46 1184 01:45:18 1059
558 Monique Boon Female 258 F50+ 13 00:42:30 1797 01:25:53 1787 01:55:38 1615 01:53:41 1753
2851 Heather Taylor Female 394 F55+ 13 00:43:44 2083 01:27:34 1977 02:01:18 2059 01:56:39 1992
3968 Pete Lowe Male 2599 M65+ 13 01:03:54 3983 02:10:40 3982 03:00:32 3964 02:55:06 3966
3684 Simon Croft Male 20 MOPEN 14 RED ROSE RRC 00:29:39 40 00:58:50 25 01:17:02 20 01:16:58 20
2453 John Delamere Male 94 M40+ 14 00:30:55 77 01:03:13 101 01:23:52 98 01:23:48 107
2656 Naz Zameer Male 118 M45+ 14 CHORLTON RUNNERS 00:32:01 139 01:04:27 136 01:25:11 123 01:24:57 131
976 Dave Meehan Male 218 M50+ 14 TALLAGHT AC 00:34:30 315 01:07:56 247 01:29:38 229 01:29:13 229
10351 Lois Varnam Female 25 FOPEN 14 00:35:01 351 01:10:59 371 01:33:37 329 01:33:15 351
767 Tony Holmes Male 540 M55+ 14 LIVERPOOL RC 00:36:23 521 01:14:00 576 01:39:42 603 01:38:59 650
1810 Andrea Richardson Female 75 F40+ 14 00:37:55 802 01:16:20 779 01:41:36 694 01:40:58 773
4947 Lisa Atkinson Female 103 F35+ 14 GATESHEAD HARRIERS AC 00:37:46 777 01:18:04 923 01:44:35 871 01:44:15 983
4103 Norman Gibson Male 861 M60+ 14 00:40:30 1320 01:20:04 1124 01:46:44 984 01:44:08 978
219 Alison Hendry Female 179 F45+ 14 00:40:29 1313 01:20:39 1194 01:50:58 1264 01:46:42 1175
3715 Angela Mcmahon Female 275 F50+ 14 00:42:43 1851 01:26:04 1818 01:56:04 1653 01:53:35 1742
597 Julie Sykes Female 456 F55+ 14 00:45:17 2450 01:30:54 2353 02:03:45 2247 02:00:12 2348
653 Keith Parry Male 2605 M65+ 14 01:05:00 3997 02:12:20 3984 03:06:01 3981 02:57:54 3978
4134 Tom Grady Male 21 MOPEN 15 HEREFORD COURIERS RC 00:29:09 28 00:58:52 28 01:17:08 21 01:17:06 21
4285 David Wilson Male 113 M40+ 15 SOUTH CHESHIRE HARRIERS 00:32:15 144 01:04:40 142 01:24:51 117 01:24:44 126
264 Andy Ley Male 121 M45+ 15 COLT 00:31:49 128 01:04:17 129 01:25:15 126 01:24:52 129
3039 Allan Saunders Male 228 M50+ 15 00:32:53 189 01:07:25 216 01:30:41 241 01:30:23 253
3822 Kate Macfarlanem Female 26 FOPEN 15 PENNY LANE STRIDERS 00:34:47 325 01:10:22 342 01:33:38 331 01:33:16 353
3972 Paul Musker Male 555 M55+ 15 00:37:37 742 01:15:11 682 01:39:57 618 01:39:08 661
3096 Leah Meighan Female 91 F40+ 15 00:37:43 763 01:15:28 708 01:43:02 777 01:38:30 614
2802 Emma Mcmullan Female 110 F35+ 15 00:37:58 814 01:17:16 862 01:44:52 888 01:42:23 859
3549 Tony Green Male 1012 M60+ 15 PENNY LANE STRIDERS 00:40:33 1331 01:22:09 1371 01:49:30 1172 01:48:54 1367
3340 Lenka Ottova Female 235 F45+ 15 00:42:08 1694 01:25:41 1759 01:54:40 1537 01:54:20 1807
1253 Carol Adams De Banke Female 282 F50+ 15 00:42:17 1732 01:25:57 1801 01:56:19 1675 01:54:36 1836
3164 Ann Mockford Female 511 F55+ 15 00:45:54 2621 01:31:11 2404 02:05:09 2393 02:00:03 2332
1572 Dean Hanwell Male 23 MOPEN 16 MERSEY-TRI 00:29:17 30 00:58:48 23 01:17:16 23 01:17:10 22
3023 David Acres Male 115 M40+ 16 00:32:31 162 01:04:38 141 01:24:54 119 01:24:46 127
1206 Dermot Delany Male 123 M45+ 16 TALLAGHT AC 00:31:44 120 01:03:48 113 01:25:20 128 01:25:13 136
4323 Tommy Nolan Male 237 M50+ 16 00:34:07 280 01:08:47 278 01:31:04 252 01:30:41 260
2983 Ellen Broad Female 27 FOPEN 16 SPECTRUM STRIDERS RC 00:35:23 388 01:10:39 356 01:34:06 340 01:33:35 363
2261 Andy Mackenzie Male 583 M55+ 16 MERSEY-TRI 00:36:36 560 01:14:24 619 01:40:32 649 01:39:09 662
2560 Kelly Marrin Female 115 F40+ 16 00:38:57 996 01:18:23 953 01:45:55 944 01:44:51 1031
1378 Jodie Richardson Female 116 F35+ 16 FORMBY STORMERS 00:40:07 1222 01:19:37 1079 01:46:08 949 01:44:16 984
1629 John Cheel Male 1124 M60+ 16 BOURNVILLE HARRIERS 00:40:49 1404 01:22:30 1410 01:51:27 1309 01:50:10 1455
633 Nicola Tautscher Female 236 F45+ 16 BOURNVILLE HARRIERS 00:42:42 1847 01:25:05 1689 01:54:49 1548 01:52:26 1650
3525 Deb Rothwell Female 290 F50+ 16 00:42:40 1842 01:25:14 1706 01:56:43 1699 01:52:16 1640
2972 Julia Sims Female 512 F55+ 16 00:46:34 2753 01:32:26 2566 02:05:18 2396 02:00:51 2409
3429 Paul Martin Male 24 MOPEN 17 MERSEY-TRI 00:29:17 31 00:58:48 24 01:17:16 24 01:17:11 23
4084 Paul Kennedy Male 126 M40+ 17 00:31:57 134 01:04:09 125 01:25:35 132 01:25:20 137
4883 Paul Gray Male 135 M45+ 17 LIVERPOOL HARRIERS AC 00:31:58 136 01:04:36 140 01:26:11 142 01:26:01 148
1121 Terry Boyle Male 257 M50+ 17 TALLAGHT AC 00:34:27 311 01:08:57 291 01:31:53 278 01:31:42 297
3595 Stephanie Jones Female 28 FOPEN 17 00:36:23 518 01:11:37 398 01:34:13 343 01:33:15 352
120 Mark Redman Male 603 M55+ 17 00:37:25 718 01:15:32 716 01:41:04 673 01:40:39 755
23 Keely Elliott Female 124 F40+ 17 00:39:02 1012 01:19:48 1095 01:46:45 987 01:45:52 1092
1827 Becky Reid Female 126 F35+ 17 00:40:19 1265 01:20:18 1152 01:46:58 1001 01:45:11 1054
2305 Ian King Male 1229 M60+ 17 00:40:41 1378 01:21:10 1245 01:53:10 1441 01:46:43 1182
1920 Helen Western Female 244 F45+ 17 SALTAIRE STRIDERS 00:41:28 1550 01:23:50 1559 01:55:03 1568 01:51:48 1597
4051 Jacqueline Butler Female 321 F50+ 17 00:42:50 1874 01:26:21 1845 01:58:31 1825 01:54:28 1820
4521 Janet Taylor Female 563 F55+ 17 00:45:29 2491 01:32:47 2597 02:07:29 2531 02:03:50 2617
3771 Duncan Anderson Male 25 MOPEN 18 RED ROSE RRC 00:29:38 38 00:58:50 26 01:17:20 25 01:17:15 25
1786 Lee Conde Male 127 M40+ 18 00:31:54 132 01:03:14 102 01:25:47 133 01:23:05 93
1388 John Connolly Male 138 M45+ 18 LIVERPOOL HARRIERS AC 00:31:49 129 01:04:10 126 01:26:31 146 01:26:23 153
3532 Justin Baird-Murray Male 259 M50+ 18 RHAYADER DISTRICT AAC 00:35:33 415 01:10:00 320 01:31:56 280 01:31:29 292
1361 Isobel Dickens Female 29 FOPEN 18 00:35:18 380 01:10:39 357 01:34:28 352 01:33:04 342
4217 Colin Sefton Male 627 M55+ 18 MOSSLEY HILL AC 00:38:04 831 01:15:08 677 01:41:46 703 01:38:16 597
2188 Georgina Crowell Female 128 F35+ 18 00:40:03 1206 01:20:29 1173 01:47:27 1024 01:46:08 1113
4562 Clare Mallon Female 129 F40+ 18 WEST CHESHIRE AC 00:39:56 1191 01:20:07 1132 01:47:33 1033 01:46:26 1143
4159 Nichola Sandman Female 252 F45+ 18 00:41:44 1615 01:22:31 1413 01:55:18 1590 01:49:31 1405
3048 Terence Fayne Male 1381 M60+ 18 TALLAGHT AC 00:42:02 1678 01:25:24 1729 01:56:05 1656 01:53:50 1767
2495 Ruth Davies Female 333 F50+ 18 00:42:33 1806 01:25:52 1780 01:59:07 1882 01:55:00 1874
1498 Carolyn Holt Female 567 F55+ 18 PENNY LANE STRIDERS 00:44:56 2346 01:31:30 2457 02:07:37 2542 02:02:26 2523
4255 Pete Bird Male 26 MOPEN 19 WALLASEY AC 00:29:04 24 00:58:35 22 01:17:34 26 01:17:28 26
4992 Ant Cassidy Male 129 M40+ 19 MOSSLEY HILL AC 00:32:39 173 01:05:16 155 01:25:55 135 01:25:50 145
4646 Nigel Crilly Male 151 M45+ 19 00:32:33 164 01:05:37 162 01:27:18 160 01:26:47 159
873 Colin Eastham Male 271 M50+ 19 00:34:26 310 01:08:40 275 01:32:27 292 01:29:38 238
2255 Louise Warn Female 30 FOPEN 19 PENNY LANE STRIDERS 00:36:09 477 01:11:58 418 01:34:58 370 01:34:26 391
3302 Tim Richardson Male 642 M55+ 19 00:37:55 800 01:16:11 768 01:42:08 720 01:40:37 750
738 Helen Morrissey Female 133 F40+ 19 00:39:05 1022 01:20:30 1174 01:47:54 1060 01:46:53 1192
1643 Lisa Carlile Female 135 F35+ 19 00:40:11 1240 01:20:34 1182 01:48:00 1068 01:46:23 1136
4184 Annmarie Williams Female 265 F45+ 19 PENNY LANE STRIDERS 00:40:21 1283 01:22:48 1446 01:55:50 1634 01:51:51 1602
3506 Christopher Neukom Male 1436 M60+ 19 00:43:29 2026 01:26:20 1843 01:57:05 1738 01:53:42 1755
2590 Angela Andrews Female 341 F50+ 19 LIVERPOOL RC 00:44:10 2171 01:29:13 2162 01:59:19 1902 01:57:46 2117
935 Jill Colyer Female 672 F55+ 19 00:45:46 2581 01:33:03 2621 02:10:55 2736 02:04:27 2663
2248 Sean Doyle Male 27 MOPEN 20 00:29:49 41 00:59:28 34 01:17:36 27 01:17:33 27
4958 Andrew Fearns Male 130 M40+ 20 KNOWSLEY HARRIERS 00:32:22 148 01:04:52 146 01:26:00 136 01:25:37 141
1132 Gerry Schley Male 174 M45+ 20 00:33:21 213 01:06:39 191 01:28:21 183 01:27:57 190
4476 David Treadell Male 294 M50+ 20 00:34:06 278 01:10:01 322 01:33:23 316 01:33:04 341
410 Debbie Neely Female 31 FOPEN 20 00:35:21 384 01:11:25 388 01:35:35 395 01:34:22 389
2660 Anthony Duffy Male 664 M55+ 20 00:38:47 963 01:17:11 852 01:42:30 745 01:41:05 779
4786 Oonagh Jaquest Female 139 F40+ 20 PENNY LANE STRIDERS 00:39:07 1026 01:20:28 1170 01:48:19 1090 01:47:36 1250
2854 Elizabeth Van Duyvenbode Female 160 F35+ 20 FORMBY HARRIERS 0 01:10:54 366 01:49:29 1170 01:45:00 1042
1749 Liz Wilkinson Female 268 F45+ 20 00:41:19 1526 01:21:57 1337 01:55:57 1640 01:48:24 1316
2822 Danny Porter Male 1480 M60+ 20 00:45:06 2397 01:28:06 2041 01:58:00 1794 01:55:08 1881
3062 Dyan Fleming Female 347 F50+ 20 00:43:38 2052 01:28:08 2044 01:59:38 1910 01:56:25 1973
4080 Sandra Ellison Female 762 F55+ 20 WALLASEY AC 00:46:37 2765 01:37:09 3000 02:13:47 2919 02:08:36 2918
2319 Matthew Collyer Male 28 MOPEN 21 THANET ROAD RUNNERS AC 00:29:36 37 00:59:38 36 01:18:39 28 01:18:38 30
3158 Stuart Towns Male 133 M40+ 21 WIGAN DISTRICT HARRIERS AC 00:32:13 142 01:05:05 149 01:26:02 139 01:25:49 144
992 Lee Armstrong Male 205 M45+ 21 00:34:12 292 01:07:27 221 01:29:10 215 01:28:40 212
1131 Gerard Dore Male 295 M50+ 21 TALLAGHT AC 00:36:21 513 01:11:59 421 01:33:24 317 01:32:58 337
4806 Victoria Garrad Female 33 FOPEN 21 00:36:02 467 01:11:39 402 01:35:57 409 01:34:57 408
1782 David Marsh Male 682 M55+ 21 SOUTHPORT WATERLOO AC 00:38:19 882 01:17:40 886 01:42:52 768 01:42:38 871
754 Anita Dawson Female 141 F40+ 21 00:40:21 1279 01:20:37 1188 01:48:26 1097 01:46:34 1158
475 Elizabeth Whitfield Female 162 F35+ 21 00:41:44 1616 01:21:59 1345 01:49:46 1185 01:46:27 1146
2894 Catherine Lucadello Female 270 F45+ 21 WALLASEY AC 00:43:28 2020 01:26:05 1819 01:55:57 1643 01:53:02 1697
156 David Ohanlon Male 1513 M60+ 21 00:42:16 1729 01:25:58 1803 01:58:42 1838 01:54:31 1827
242 Dairine Nethercott Female 355 F50+ 21 SALTAIRE STRIDERS 00:43:52 2114 01:27:57 2024 02:00:02 1946 01:56:19 1970
3310 Lindsey Fowler Female 808 F55+ 21 00:45:46 2575 01:36:23 2934 02:15:54 3021 02:10:08 3011
4055 Jamie Rutherford Male 32 MOPEN 22 LIVERPOOL RC 00:29:50 42 00:59:47 37 01:18:49 32 01:18:45 33
737 Patrick Walkington Male 147 M40+ 22 PERFORMANCE TRI COACHING 00:32:56 191 01:06:17 179 01:27:04 156 01:26:49 160
879 Paul Stevens Male 212 M45+ 22 00:34:09 285 01:07:16 213 01:29:15 222 01:28:11 194
1526 Graeme Courtney Male 298 M50+ 22 ROSSENDALE TRIATHLON CLUB 00:35:32 412 01:10:52 365 01:33:26 321 01:32:57 336
10324 Julie Reveillere Female 34 FOPEN 22 00:36:31 542 01:12:20 443 01:35:58 410 01:35:04 414
284 Derek Newland Male 693 M55+ 22 00:38:45 958 01:16:33 794 01:43:14 784 01:40:15 730
1196 Mari Dyson Female 142 F40+ 22 SOUTHPORT WATERLOO AC 00:39:47 1158 01:20:02 1114 01:48:29 1102 01:45:21 1063
4369 Jayne Rigby Female 164 F35+ 22 00:37:44 767 01:19:24 1057 01:49:56 1200 01:48:02 1280
1279 Bhavna Mistry Female 272 F45+ 22 KIRKBY MILERS 00:41:20 1534 01:24:01 1579 01:56:01 1646 01:52:08 1634
3476 Christine Ohanlon Female 359 F50+ 22 00:43:38 2051 01:28:38 2098 02:00:06 1951 01:57:27 2078
704 Ian Metcalfe Male 1633 M60+ 22 00:42:58 1894 01:27:05 1931 02:00:44 2008 01:56:47 2005
1326 Karen Burgan Female 819 F55+ 22 00:47:11 2865 01:36:47 2966 02:16:20 3044 02:09:09 2942
3589 Daniel Hornsby Male 33 MOPEN 23 BORDER HARRIERS AC 00:29:09 27 00:59:04 30 01:18:51 33 01:18:49 35
1096 Simon Frazer Male 153 M40+ 23 SALTAIRE STRIDERS 00:32:47 183 01:06:15 178 01:27:22 162 01:27:06 166
4181 Eric Ranson Male 216 M45+ 23 ST. HELENS STRIDERS 00:33:07 199 01:07:32 227 01:29:28 226 01:29:15 231
3420 Andrew Glen Male 309 M50+ 23 KNOWSLEY HARRIERS 00:34:48 327 01:10:41 358 01:33:46 335 01:33:42 366
2335 Jane Mcclements Female 35 FOPEN 23 00:36:24 525 01:12:56 493 01:36:09 420 01:35:23 430
2896 Richard Saunders Male 727 M55+ 23 WALLASEY AC 00:39:21 1071 01:18:23 955 01:43:43 822 01:42:21 854
2287 Jenny Mann Female 148 F40+ 23 00:40:35 1340 01:20:38 1190 01:48:39 1117 01:46:36 1166
2452 Jennie Cottrell Female 165 F35+ 23 00:40:12 1244 01:21:14 1255 01:50:08 1211 01:47:03 1208
4669 Alison Blundell Female 279 F45+ 23 00:41:49 1632 01:25:15 1708 01:56:12 1665 01:53:33 1739
97 Angela Cruise Female 383 F50+ 23 00:44:28 2221 01:28:28 2084 02:00:57 2026 01:56:08 1963
4123 Raphael Kawonga Male 1772 M60+ 23 00:45:23 2470 01:31:56 2512 02:03:19 2216 02:01:09 2436
29 Jane Blacklin Female 840 F55+ 23 SOUTHPORT WATERLOO AC 00:47:28 2924 01:39:11 3146 02:17:26 3085 02:12:46 3135
10339 Tom Sherrington Male 35 MOPEN 24 00:30:07 47 00:59:59 40 01:19:15 35 01:19:01 36
4137 Michael Green Male 165 M40+ 24 PENSBY RUNNERS 00:33:28 222 01:06:43 195 01:27:43 174 01:27:33 186
2075 Al Grant Male 227 M45+ 24 00:33:17 211 01:07:44 242 01:30:29 240 01:30:08 247
3816 Jon Hawker Male 321 M50+ 24 DELAMERE SPARTANS 00:35:09 364 01:10:34 349 01:34:24 349 01:33:49 370
4447 Marina Penn Female 36 FOPEN 24 00:36:23 520 01:12:59 498 01:36:16 427 01:35:39 443
2534 Glyn Bythway Male 741 M55+ 24 00:38:16 874 01:17:44 894 01:44:00 838 01:42:48 888
3123 Catherine Gibson Female 157 F40+ 24 00:40:04 1210 01:21:28 1279 01:49:16 1154 01:47:55 1274
1497 Sarah Richards Female 170 F35+ 24 PENNY LANE STRIDERS 00:40:19 1269 01:19:47 1093 01:50:17 1224 01:44:35 1014
447 Claire Coney Female 281 F45+ 24 00:40:17 1259 01:24:27 1618 01:56:18 1671 01:52:18 1642
980 Janet Davies Female 389 F50+ 24 ST. HELENS STRIDERS 00:43:11 1948 01:27:00 1917 02:01:13 2048 01:57:08 2047
1944 Keith Peacock Male 1824 M60+ 24 KIRKBY MILERS 00:45:26 2480 01:31:03 2388 02:04:16 2300 01:59:37 2295
2099 Ruth Appleton Female 845 F55+ 24 00:50:13 3393 01:38:40 3106 02:17:50 3095 02:11:38 3086
1173 Oliver Bernstein Male 37 MOPEN 25 00:29:35 36 01:00:14 43 01:19:21 37 01:19:20 38
1813 Stephen Prisk Male 176 M40+ 25 00:32:43 179 01:06:41 194 01:28:25 185 01:28:13 197
4813 Stephen Hayes Male 232 M45+ 25 KIRKBY MILERS 00:34:22 303 01:08:55 288 01:30:51 245 01:30:29 256
1882 Carl Pedder Male 340 M50+ 25 SOUTHPORT WATERLOO AC 00:36:08 475 01:12:04 427 01:34:57 369 01:34:38 394
10347 Grace Backshall Female 41 FOPEN 25 0 01:04:47 144 01:37:59 505 01:34:53 405
4861 David Williams Male 760 M55+ 25 00:38:09 849 01:16:58 824 01:44:20 860 01:42:46 885
2160 Helen Walker Female 178 F35+ 25 BARROW FURNESS STRIDERS AC 00:41:22 1540 01:22:37 1426 01:50:55 1261 01:48:55 1370
4618 Christy Miles Female 184 F40+ 25 00:41:06 1473 01:22:21 1389 01:51:14 1294 01:48:58 1372
2984 Joanne Glassey Female 291 F45+ 25 MANX HARRIERS 00:42:53 1886 01:27:43 1999 01:56:43 1700 01:56:03 1957
3251 Helen Moffat Female 390 F50+ 25 00:41:47 1629 01:27:52 2016 02:01:15 2051 01:58:03 2145
2744 David Barrow Male 1865 M60+ 25 00:43:26 2010 01:28:28 2082 02:04:50 2364 01:57:44 2113
2374 Claire Morton Female 847 F55+ 25 HELSBY (BICC) RC 00:51:09 3483 01:41:06 3262 02:17:56 3101 02:13:01 3147
1936 Alistair Rutherford Male 39 MOPEN 26 MOSSLEY HILL AC 00:28:20 19 00:58:55 29 01:19:32 39 01:19:30 41
4303 Scott Robertson Male 177 M40+ 26 ST. HELENS STRIDERS 00:33:44 239 01:06:51 198 01:28:25 186 01:27:21 176
1207 Stewart Spink Male 241 M45+ 26 SALTAIRE STRIDERS 00:33:42 234 01:08:06 253 01:31:19 257 01:31:03 271
1162 Mark Moffat Male 342 M50+ 26 00:35:40 428 01:11:36 397 01:34:59 372 01:34:24 390
3934 Eleanor Hilton Female 44 FOPEN 26 00:36:05 471 01:13:18 523 01:38:23 522 01:37:25 543
4894 James Little Male 769 M55+ 26 LIVERPOOL RC 00:37:46 779 01:16:49 815 01:44:35 873 01:42:11 841
4003 Jeanette Smart Female 181 F35+ 26 00:41:27 1548 01:23:10 1491 01:51:08 1283 01:48:50 1358
4372 Lyndsey Owen Female 188 F40+ 26 00:41:56 1663 01:23:56 1566 01:51:41 1326 01:50:31 1485
52 Rachel Brook Female 302 F45+ 26 00:42:40 1839 01:25:45 1769 01:57:02 1732 01:53:00 1694
3839 Lai Wah Po Female 392 F50+ 26 00:44:20 2199 01:29:55 2236 02:01:16 2054 01:59:44 2306
203 Steve Riley Male 1888 M60+ 26 UKNETRUNNER 00:46:10 2664 01:31:15 2411 02:05:25 2403 01:59:53 2319
3360 Jeanette Mccormack Female 850 F55+ 26 KIRKBY STORMERS 00:48:17 3090 01:38:45 3111 02:18:04 3109 02:13:36 3172
4480 Alex Cowin Male 41 MOPEN 27 PENNY LANE STRIDERS 00:30:09 48 01:00:26 45 01:19:50 43 01:19:42 45
1336 Morven Wallace Male 189 M40+ 27 PUDSEY PACERS RC 00:33:47 241 01:07:01 204 01:28:45 198 01:28:12 196
3673 Laurie Hill Male 263 M45+ 27 00:33:51 245 01:09:45 312 01:32:08 284 01:31:49 302
4907 Sanjay Anand Male 360 M50+ 27 00:35:35 418 01:10:51 363 01:35:29 390 01:34:17 385
705 Annie Metcalfe Female 46 FOPEN 27 00:35:53 456 01:14:02 583 01:38:45 539 01:37:40 564
3046 Alan Mccabe Male 777 M55+ 27 TALLAGHT AC 00:38:55 989 01:18:31 967 01:44:49 885 01:44:22 990
1199 Claire Brown Female 190 F35+ 27 CHESTER TRIATHALON CLUB 00:41:21 1537 01:22:10 1375 01:51:45 1334 01:48:24 1317
1349 Anne Edwards Female 191 F40+ 27 00:40:11 1243 01:20:25 1165 01:51:48 1338 01:47:15 1226
722 Jackie Newman Female 303 F45+ 27 00:42:17 1733 01:24:08 1595 01:57:09 1744 01:50:47 1510
911 Karen Grieve Female 399 F50+ 27 00:44:57 2348 01:28:47 2114 02:01:29 2075 01:57:11 2051
202 John Holmes Male 1973 M60+ 27 00:43:05 1916 01:33:19 2657 02:07:35 2538 02:05:15 2704
1576 Judith Webster Female 873 F55+ 27 00:48:50 3196 01:38:51 3118 02:18:42 3146 02:11:29 3077
1998 Radin Farizuan Radin Baidrul Ikram Male 42 MOPEN 28 00:30:10 50 01:00:06 41 01:19:58 44 01:19:35 42
4690 Matt Ashford Male 191 M40+ 28 LYMM RUNNERS 00:34:03 269 01:07:51 245 01:28:53 201 01:28:39 209
2245 Steve Holmes Male 270 M45+ 28 00:33:58 260 01:08:56 290 01:32:25 291 01:31:12 278
857 Nick Peters Male 370 M50+ 28 00:35:41 431 01:11:37 399 01:35:50 402 01:35:16 426
2655 Sadia Haq Female 47 FOPEN 28 CHORLTON RUNNERS 00:37:00 630 01:14:00 577 01:38:48 542 01:38:09 589
981 Andy Jones Male 824 M55+ 28 00:38:16 877 01:17:40 889 01:45:43 937 01:42:45 884
2130 Sarah Jackson Female 193 F40+ 28 00:41:50 1637 01:23:42 1549 01:51:53 1345 01:50:06 1447
571 Tania Letts Female 201 F35+ 28 00:39:36 1118 01:22:25 1401 01:52:22 1380 01:51:44 1591
3195 Mandy Driver Female 308 F45+ 28 00:42:09 1701 01:26:16 1839 01:57:17 1755 01:55:18 1894
2326 Mary Stevenson Female 431 F50+ 28 PENSBY RUNNERS 00:44:14 2185 01:30:16 2270 02:02:35 2158 01:59:47 2310
2550 Ian Davidson Male 1993 M60+ 28 00:45:42 2562 01:31:28 2447 02:08:26 2583 02:03:08 2568
2789 Carolyn Rix Female 950 F55+ 28 SALTAIRE STRIDERS 00:49:47 3349 01:41:18 3279 02:22:13 3277 02:15:14 3248
1056 Jimmy Boland Male 44 MOPEN 29 CLONMEL AC 00:29:57 45 01:00:42 49 01:20:17 46 01:20:17 47
4620 Matthew Taylor Male 197 M40+ 29 WILMSLOW RC 00:33:51 244 01:07:27 219 01:28:58 207 01:28:41 215
959 Paul Whittle Male 272 M45+ 29 NEWBURGH NOMADS RC 00:35:04 356 01:10:22 341 01:32:32 294 01:32:23 321
243 Andrew Stefaniak Male 372 M50+ 29 00:34:35 316 01:11:02 376 01:35:52 404 01:35:01 413
4766 Hannah Whittaker Female 48 FOPEN 29 00:36:48 591 01:14:21 615 01:38:56 546 01:38:12 595
1918 Gary Western Male 837 M55+ 29 SALTAIRE STRIDERS 00:40:21 1281 01:18:49 999 01:46:12 954 01:42:58 897
2276 Donna Siberry Female 208 F40+ 29 00:41:04 1462 01:23:34 1528 01:52:56 1424 01:51:22 1565
228 Emma Parlato Female 209 F35+ 29 GNOSALL LADIES RUNNING CLUB 00:41:02 1450 01:23:40 1543 01:52:59 1430 01:51:11 1547
2659 Njideka Agwuna Female 319 F45+ 29 PENNY LANE STRIDERS 00:41:29 1556 01:25:06 1690 01:58:28 1822 01:53:40 1748
246 Jean Oneill Female 459 F50+ 29 MALDWYN H 00:44:49 2312 01:30:29 2299 02:03:55 2260 01:59:39 2298
2603 William Lewis Male 2067 M60+ 29 00:47:17 2891 01:33:41 2690 02:11:04 2746 02:03:28 2592
2427 Lynn Smith Female 969 F55+ 29 CROSBY STORMERS 00:50:12 3389 01:41:40 3299 02:23:00 3310 02:15:55 3283
3600 Benjamin Douglas Male 46 MOPEN 30 LEEDS CITY AC 00:26:38 4 00:56:13 7 01:20:41 48 01:20:41 51
534 Tim Hayes Male 208 M40+ 30 00:35:01 350 01:08:48 283 01:29:13 218 01:29:00 226
2224 Alex Griffiths Male 279 M45+ 30 00:33:53 250 01:08:56 289 01:32:51 301 01:32:30 323
3300 Ian Gardner Male 391 M50+ 30 00:35:46 437 01:11:53 414 01:36:13 426 01:35:30 436
4085 Lisa Mercer Female 49 FOPEN 30 LIVERPOOL RC 00:36:41 574 01:13:54 565 01:39:08 558 01:38:34 619
3255 Ian Beaumont Male 873 M55+ 30 STADIUM RUNNERS 00:39:05 1019 01:19:32 1068 01:46:53 998 01:45:36 1084
2232 Emma Roberts Female 211 F35+ 30 00:41:14 1506 01:23:45 1553 01:53:06 1439 01:50:42 1503
3120 Becca Kelly Female 218 F40+ 30 00:42:52 1882 01:26:49 1890 01:53:41 1480 01:53:01 1696
3468 Jan Mcard Female 331 F45+ 30 WALLASEY AC 00:42:19 1745 01:27:03 1922 01:59:03 1871 01:54:55 1868
3710 Julie Brake Female 473 F50+ 30 00:46:37 2764 01:31:49 2497 02:04:15 2296 01:59:43 2304
3254 Stephen Broadley Male 2094 M60+ 30 ABBEY RUNNERS LEEDS 00:47:41 2969 01:37:14 3006 02:12:03 2798 02:10:49 3043
413 Eileen Worthington Female 984 F55+ 30 00:51:55 3543 01:42:43 3353 02:23:43 3334 02:15:35 3266
3333 David Maxted Male 47 MOPEN 31 CHORLTON RUNNERS 00:29:53 44 01:00:53 51 01:20:43 49 01:20:37 49
1618 Tommy Guthrie Male 209 M40+ 31 00:32:48 184 01:05:51 168 01:29:14 219 01:26:50 161
95 Ian Carter Male 282 M45+ 31 00:35:16 375 01:10:11 334 01:32:54 304 01:32:17 316
3598 Adrian Loughrey Male 413 M50+ 31 PENNY LANE STRIDERS 00:35:29 406 01:12:39 468 01:36:46 450 01:36:20 488
3022 Emma Freer Female 50 FOPEN 31 SALTAIRE STRIDERS 00:36:48 592 01:14:17 605 01:39:10 561 01:38:05 585
1075 David Smith Male 885 M55+ 31 ROSSENDALE TRIATHLON CLUB 00:38:31 919 01:17:51 905 01:47:13 1011 01:44:47 1025
19 Beth Hogan Female 215 F35+ 31 00:41:54 1652 01:23:57 1571 01:53:28 1463 01:50:38 1497
1183 Sara Waters Female 220 F40+ 31 RUN KNUTSFORD 00:41:10 1490 01:23:14 1501 01:53:48 1488 01:49:45 1422
2151 Sarah Phillips Female 346 F45+ 31 00:44:48 2308 01:28:44 2108 01:59:35 1909 01:56:48 2010
1582 Annie Mccaffrey Female 475 F50+ 31 SOUTHPORT WATERLOO AC 00:45:24 2472 01:31:01 2381 02:04:16 2298 01:59:36 2286
819 Philip Wells Male 2100 M60+ 31 00:46:28 2736 01:34:39 2772 02:12:26 2812 02:07:30 2836
10373 Denise Forster Female 1009 F55+ 31 00:51:09 3482 01:44:10 3442 02:24:37 3374 02:18:51 3391
4081 Jay Clarke Male 50 MOPEN 32 PENNY LANE STRIDERS 00:30:09 49 01:00:56 52 01:20:50 52 01:20:43 52
3375 Gareth Evans Male 214 M40+ 32 ABERGELE HARRIERS 00:34:05 276 01:07:36 233 01:29:21 224 01:29:01 227
4622 Ronald Harley Male 296 M45+ 32 00:34:18 299 01:09:55 316 01:33:25 319 01:33:05 344
4473 Phil Bird Male 419 M50+ 32 WALLASEY AC 00:35:38 422 01:12:24 446 01:36:51 456 01:36:22 493
963 Olivia Poole Female 52 FOPEN 32 LONDON FRONTRUNNERS 00:37:05 650 01:14:22 616 01:39:25 571 01:38:50 638
3494 Neil Kelly Male 894 M55+ 32 00:39:45 1150 01:20:12 1141 01:47:23 1021 01:46:08 1110
1670 Sarah Roberts Female 226 F35+ 32 00:40:58 1440 01:23:13 1497 01:54:00 1503 01:51:08 1540
3508 Laura Carson Female 249 F40+ 32 NORTHERN (ISLE OF MAN) AC 00:42:23 1768 01:24:20 1607 01:55:16 1585 01:51:56 1612
1653 Mary Gray Female 352 F45+ 32 00:43:23 1995 01:28:03 2033 01:59:53 1933 01:57:29 2083
2724 Karen Harris Female 479 F50+ 32 00:45:44 2570 01:30:54 2356 02:04:18 2305 02:01:09 2435
961 Steve Campbell Male 2121 M60+ 32 00:48:37 3157 01:37:13 3004 02:12:53 2845 02:07:12 2815
4602 Linda Shefford Female 1010 F55+ 32 POTTERS TROTTERS 00:51:30 3508 01:44:50 3474 02:24:38 3375 02:17:47 3355
971 Jack Livesey Male 52 MOPEN 33 00:30:53 76 01:01:36 63 01:21:06 54 01:21:00 56
1139 Andrew Lennon Male 230 M40+ 33 TALLAGHT AC 00:34:09 287 01:08:15 256 01:30:45 243 01:30:20 250
3890 Stan Hulton Male 297 M45+ 33 00:34:25 307 01:09:54 315 01:33:25 320 01:33:03 340
3803 Rob Lister Male 442 M50+ 33 RADCLIFFE AC 00:37:17 690 01:13:49 557 01:37:30 482 01:36:18 485
3082 Rebecca Newell Female 53 FOPEN 33 00:36:38 563 01:14:50 652 01:39:25 573 01:38:25 610
3413 Ian Cockburn Male 922 M55+ 33 00:39:09 1037 01:19:42 1086 01:47:51 1054 01:46:24 1138
4672 Katie Georgeson Female 241 F35+ 33 00:39:43 1139 01:25:16 1710 01:54:58 1562 01:53:07 1706
1700 Jan Watts Female 253 F40+ 33 00:42:04 1686 01:24:28 1624 01:55:20 1594 01:50:57 1528
2555 Kathryn Johnson Female 362 F45+ 33 00:44:00 2142 01:28:22 2065 02:00:14 1960 01:56:52 2019
21 Clare Mason Female 493 F50+ 33 WIDNES RUNNING CLUB 00:44:37 2265 01:31:04 2391 02:04:46 2348 02:01:16 2447
4016 Dr Joe Delaney Male 2202 M60+ 33 VILLAGE ROAD RUNNERS AC 00:46:59 2824 01:39:11 3144 02:15:31 2999 02:13:15 3153
143 Pamela Hughes Female 1017 F55+ 33 00:54:18 3720 01:46:18 3537 02:24:52 3386 02:17:27 3342
1609 Daniel Martell Male 53 MOPEN 34 ALTRINCHAM DISTRICT AC 00:30:41 70 01:01:27 57 01:21:06 55 01:21:01 57
4338 Andy Rees Male 236 M40+ 34 00:34:57 340 01:09:04 295 01:31:04 251 01:30:33 257
3804 Daniel Tattan Male 304 M45+ 34 00:34:28 312 01:10:25 343 01:33:36 327 01:33:30 361
4765 David Miles Male 447 M50+ 34 THE ENDURANCE STORE 00:35:50 448 01:13:35 538 01:37:39 487 01:37:38 561
4804 Kirsty Davies Female 55 FOPEN 34 00:37:40 752 01:15:47 737 01:39:28 578 01:39:11 666
4224 Philip Foster Male 924 M55+ 34 00:39:48 1164 01:20:42 1205 01:47:52 1056 01:46:42 1177
2731 Mel Akeroyd Female 242 F35+ 34 SALTAIRE STRIDERS 00:41:03 1456 01:23:34 1527 01:55:01 1565 01:51:20 1560
1654 Penny Francisco Female 259 F40+ 34 00:42:30 1799 01:25:54 1790 01:55:38 1618 01:53:42 1756
889 Susan Adams Female 407 F45+ 34 00:43:42 2075 01:28:23 2071 02:01:55 2108 01:57:07 2045
4607 Elizabeth Shelbourne Female 501 F50+ 34 PICTON SPORTS CENTRE RC 00:43:42 2072 01:28:48 2115 02:04:54 2370 01:58:26 2176
3597 William Duncan Male 2219 M60+ 34 00:49:45 3345 01:39:11 3145 02:16:07 3030 02:12:21 3113
1668 Denise Johnston Female 1060 F55+ 34 00:49:44 3338 01:42:33 3347 02:26:59 3465 02:19:14 3404
964 Dean Howlett Male 55 MOPEN 35 LIVERPOOL RC 00:30:02 46 01:01:11 54 01:21:16 57 01:21:14 61
2628 David Hughes Male 246 M40+ 35 00:34:41 321 01:09:30 307 01:31:28 264 01:31:06 273
732 Salil Das Male 315 M45+ 35 00:35:16 373 01:10:33 348 01:34:12 342 01:33:11 347
3309 Gary Barnes Male 449 M50+ 35 RIVERSIDE RUNNERS 00:35:49 445 01:13:35 537 01:37:40 489 01:37:38 560
1375 Bethan Davies Female 56 FOPEN 35 00:37:32 733 01:14:35 633 01:39:28 579 01:38:18 600
1858 John Doran Male 935 M55+ 35 00:39:53 1182 01:19:01 1014 01:48:00 1070 01:43:56 967
2605 Catherine Kimball Female 256 F35+ 35 00:42:24 1771 01:24:58 1676 01:55:25 1605 01:51:57 1617
2354 Bronwyn Kirwan Female 262 F40+ 35 00:42:18 1735 01:25:32 1735 01:55:47 1631 01:53:54 1772
1546 Helen Potter Female 419 F45+ 35 00:43:26 2012 01:28:16 2053 02:02:09 2132 01:57:28 2082
662 Karen Bradbury Female 527 F50+ 35 00:45:13 2429 01:31:51 2502 02:05:56 2437 02:02:01 2492
3861 James Reygan Male 2220 M60+ 35 00:47:51 2998 01:36:38 2953 02:16:12 3031 02:09:44 2987
1796 Denise Reid Female 1064 F55+ 35 00:51:59 3550 01:45:51 3511 02:27:12 3472 02:19:04 3399
1222 Elliot Corrigan Male 57 MOPEN 36 00:31:45 121 01:02:31 81 01:21:30 59 01:20:43 53
4995 Andy Williams Male 249 M40+ 36 00:34:11 291 01:08:45 276 01:31:40 269 01:30:33 258
2041 Mike Murray Male 318 M45+ 36 SOUTHPORT WATERLOO AC 00:34:14 294 01:10:20 340 01:34:20 346 01:34:08 379
1527 Robin Beaumont Male 454 M50+ 36 TRAFFORD AC 00:35:09 365 01:12:54 491 01:37:49 494 01:37:35 556
1264 Holly Mackie Female 57 FOPEN 36 00:35:04 354 01:11:20 385 01:39:28 580 01:37:46 570
4346 John Brown Male 936 M55+ 36 00:39:51 1175 01:20:14 1144 01:48:01 1071 01:46:21 1132
85 Sarah Piotrowski Female 263 F35+ 36 ELY RUNNERS 00:42:22 1758 01:24:44 1650 01:55:47 1632 01:51:40 1584
10387 Patricia Ambrosetti Female 271 F40+ 36 00:41:29 1565 01:24:20 1611 01:55:59 1645 01:54:06 1788
2300 Gail Bristo Female 421 F45+ 36 FYLDE COAST RUNNERS 00:43:48 2098 01:28:23 2068 02:02:15 2137 01:56:44 1999
1965 Julia Hodgson Female 539 F50+ 36 00:46:18 2706 01:32:53 2608 02:06:25 2466 02:02:55 2550
3344 Peter Fay Male 2253 M60+ 36 00:48:24 3112 01:39:14 3149 02:17:54 3099 02:15:05 3239
1656 Denise Jackson Female 1088 F55+ 36 00:49:43 3337 01:44:14 3448 02:28:45 3520 02:21:55 3501
2 Kevin Loundes Male 58 MOPEN 37 MANX HARRIERS 00:29:39 39 01:00:19 44 01:21:30 60 01:21:01 58
3983 Craig Newton Male 250 M40+ 37 00:34:58 342 01:09:31 308 01:31:40 270 01:31:17 281
4938 Colin Berry Male 329 M45+ 37 ELLESMERE PORT RC 00:35:21 383 01:11:03 377 01:34:39 358 01:34:20 386
4362 David Seddon Male 458 M50+ 37 LIVERPOOL RUNNING CLUB 00:36:33 553 01:13:22 528 01:37:51 498 01:37:07 523
3581 Eleni Akrida Female 60 FOPEN 37 00:37:06 652 01:15:15 687 01:39:31 589 01:38:42 623
1337 Simon Rimmer Male 944 M55+ 37 HART ROAD RUNNERS 00:41:17 1523 01:22:02 1358 01:48:12 1082 01:46:41 1171
3909 Sarah Conroy Female 273 F35+ 37 00:41:54 1653 01:23:05 1481 01:56:03 1649 01:48:48 1355
4390 Claire Barnard Female 285 F40+ 37 00:44:03 2150 01:26:41 1876 01:56:26 1682 01:52:21 1644
2954 Debbie Keating Female 434 F45+ 37 00:44:32 2241 01:30:40 2320 02:02:43 2167 01:59:48 2312
1876 Lisa Evans Female 540 F50+ 37 00:46:41 2777 01:32:31 2577 02:06:31 2471 02:02:50 2541
49 John Calvey Male 2276 M60+ 37 00:47:02 2828 01:36:51 2973 02:19:12 3159 02:10:54 3050
926 Ann Saunders Female 1091 F55+ 37 00:51:51 3539 01:46:04 3520 02:28:53 3524 02:21:54 3500
4298 Alex Rigby Male 59 MOPEN 38 LIVERPOOL RC 00:30:41 68 01:01:41 65 01:21:31 61 01:21:27 64
1310 John Edgerton Male 256 M40+ 38 00:35:52 454 01:10:03 325 01:31:50 276 01:30:55 266
2087 Colin Dickman Male 332 M45+ 38 00:35:00 346 01:11:02 375 01:34:45 361 01:34:11 382
1041 Andy Yates Male 467 M50+ 38 00:36:28 534 01:13:21 526 01:38:04 510 01:37:23 540
3106 Victoria Jones Female 63 FOPEN 38 LIVERPOOL PEMBROKE SEFTON HARR 00:35:43 433 01:13:52 561 01:39:41 602 01:38:46 632
2774 Jeff Kinsella Male 945 M55+ 38 00:40:05 1216 01:20:56 1220 01:48:13 1083 01:47:06 1212
1819 Liz Sharp Female 292 F35+ 38 00:42:07 1693 01:26:22 1846 01:56:46 1706 01:54:21 1809
1358 Melanie Oxer Female 305 F40+ 38 00:42:10 1708 01:26:13 1838 01:57:13 1748 01:55:15 1887
3649 Miranda Clarke Female 437 F45+ 38 MANCHESTER YMCA HARRIERS CLUB 00:45:15 2442 01:31:27 2443 02:03:01 2187 02:00:43 2397
2254 Susan Porter Female 551 F50+ 38 00:46:02 2643 01:33:23 2670 02:06:55 2493 02:04:25 2660
3281 Mike Melia Male 2306 M60+ 38 00:50:11 3385 01:40:25 3224 02:20:32 3217 02:12:52 3139
2864 Anita Foster Female 1113 F55+ 38 00:53:33 3674 01:47:40 3603 02:30:17 3562 02:22:04 3509
2875 Jack Antrobus Male 60 MOPEN 39 WARRINGTON RUNNING CLUB 00:30:57 80 01:02:05 67 01:21:33 62 01:21:26 63
3226 Simon Ripton Male 311 M40+ 39 00:35:15 372 01:10:33 347 01:33:55 337 01:33:24 358
4954 Tim Grace Male 341 M45+ 39 MERSEY-TRI 00:34:43 323 01:10:25 344 01:34:58 371 01:33:55 372
4639 Nick Horne Male 491 M50+ 39 00:36:53 611 01:13:52 560 01:38:40 536 01:37:14 529
2324 Lucy Hopkisson Female 65 FOPEN 39 00:37:03 641 01:15:08 674 01:40:19 639 01:39:24 684
908 Roger Tilbrook Male 992 M55+ 39 LEEDS BRADFORD TC 00:40:39 1364 01:21:38 1301 01:49:05 1145 01:47:20 1236
4534 Lisa Anderson Female 294 F35+ 39 00:40:17 1258 01:26:46 1884 01:56:49 1712 01:53:49 1766
1180 Melanie Marples Female 312 F40+ 39 00:42:24 1772 01:25:48 1773 01:57:30 1767 01:52:42 1670
2643 Jackie Murphy Female 446 F45+ 39 00:44:54 2333 01:30:44 2334 02:03:21 2218 02:01:36 2461
3612 Tracey Carr Female 558 F50+ 39 KNOWSLEY HARRIERS 00:45:09 2408 01:32:09 2537 02:07:17 2516 02:03:15 2579
755 Paul Hughes Male 2316 M60+ 39 LIVERPOOL RC 00:48:30 3139 01:42:44 3354 02:21:15 3237 02:18:57 3393
4327 Julie Connolly Female 1181 F55+ 39 00:55:13 3768 01:50:48 3690 02:34:08 3662 02:25:57 3635
2497 Ryan Jones Male 61 MOPEN 40 00:30:24 57 01:01:31 61 01:21:36 63 01:21:21 62
4477 Richard Davies Male 314 M40+ 40 00:35:25 400 01:11:01 374 01:34:08 341 01:33:44 367
1051 Jason Oliver Male 347 M45+ 40 00:35:25 398 01:10:59 372 01:35:04 377 01:34:30 392
2262 Janos Pflancer Male 557 M50+ 40 00:36:23 516 01:14:37 637 01:39:58 620 01:39:32 693
4976 Verity Warnecke Female 73 FOPEN 40 00:38:01 826 01:16:15 771 01:41:12 684 01:40:17 735
2882 Paul Croft Male 1020 M55+ 40 WAKEFIELD DISTRICT HARRIERS AC 00:40:37 1352 01:21:45 1315 01:49:41 1180 01:49:21 1394
4412 Kay Smith Female 295 F35+ 40 KNOWSLEY HARRIERS 00:40:30 1319 01:23:11 1493 01:56:52 1715 01:50:02 1443
4290 Clare Wright Female 320 F40+ 40 LIVERPOOL RC 00:42:43 1855 01:27:17 1949 01:58:29 1823 01:56:39 1995
3757 Linda Greengrass Female 463 F45+ 40 KIRKBY MILERS 00:44:38 2270 01:30:29 2300 02:04:02 2273 02:00:04 2333
142 Jan Lee Female 574 F50+ 40 00:45:38 2539 01:31:37 2468 02:07:45 2551 02:02:59 2558
3930 Roger Pickles Male 2346 M60+ 40 00:49:34 3318 01:40:50 3253 02:23:16 3323 02:17:21 3335
661 Claire Olorenshaw Female 1207 F55+ 40 00:51:52 3540 01:48:07 3620 02:36:58 3720 02:31:46 3752
1271 Mark Monaghan Male 62 MOPEN 41 HORSFORTH HARRIERS 00:30:14 52 01:01:30 60 01:21:52 64 01:21:48 68
46 Kevin Manning Male 353 M40+ 41 00:35:37 421 01:11:29 392 01:35:20 383 01:33:55 371
222 Mike Bedford Male 371 M45+ 41 00:35:08 362 01:11:03 378 01:35:52 403 01:35:15 423
4604 Michael Carew Male 562 M50+ 41 00:37:24 716 01:14:48 650 01:40:04 626 01:39:33 695
1608 Amanda Navin Female 76 FOPEN 41 00:38:08 845 01:16:40 801 01:41:38 696 01:40:35 748
4734 David Hardman Male 1044 M55+ 41 00:41:47 1630 01:23:06 1486 01:50:02 1208 01:48:04 1283
2807 Carly Baines Female 296 F35+ 41 00:41:49 1633 01:23:35 1531 01:56:53 1717 01:51:45 1592
3775 Louise Horrigan Female 326 F40+ 41 00:41:37 1594 01:26:10 1833 01:58:47 1843 01:56:49 2013
698 Fiona Dasgupta Female 468 F45+ 41 00:45:04 2383 01:31:35 2467 02:04:12 2290 02:02:17 2506
1499 Sally Frost Female 590 F50+ 41 00:45:54 2622 01:32:21 2555 02:08:25 2581 02:03:22 2588
2031 Steve Hardacre Male 2362 M60+ 41 0 01:45:06 3483 02:24:17 3358 02:21:05 3467
1834 Elizabeth Coward Female 1226 F55+ 41 00:52:35 3605 01:51:00 3701 02:37:33 3747 02:30:34 3727
3521 Danny Morris Male 63 MOPEN 42 00:31:00 81 01:02:13 70 01:21:58 65 01:21:43 66
2304 Chad Montgomery Male 354 M40+ 42 00:35:48 439 01:11:52 413 01:35:23 384 01:34:51 402
2751 Mark Peberdy Male 401 M45+ 42 ISLE OF MAN VETERAN AC 00:37:03 639 01:13:06 505 01:36:31 438 01:35:43 445
3288 Peter Code Male 575 M50+ 42 00:37:00 628 01:15:11 683 01:40:20 640 01:39:39 702
4937 Rebecca Sargeant Female 77 FOPEN 42 MOSSLEY HILL AC 00:38:25 902 01:17:12 856 01:41:59 712 01:41:23 798
3664 Geraldo Santoro Gomes Male 1056 M55+ 42 00:41:12 1498 01:21:50 1323 01:50:18 1226 01:47:14 1224
3483 Ali Cross Female 300 F35+ 42 00:42:38 1836 01:26:08 1831 01:56:59 1726 01:54:14 1801
4334 Karen Sharp Female 329 F40+ 42 00:43:52 2113 01:28:49 2118 01:58:58 1861 01:57:02 2040
848 Paula Worrall Female 470 F45+ 42 PENNY LANE STRIDERS 00:44:59 2361 01:30:33 2312 02:04:13 2292 01:58:55 2215
2698 Sally Doyle Female 645 F50+ 42 00:47:02 2833 01:33:59 2710 02:10:09 2685 02:02:50 2540
2687 Ron Thomas Male 2416 M60+ 42 00:48:50 3198 01:44:15 3450 02:27:41 3489 02:21:09 3470
3346 Cathy Page Female 1262 F55+ 42 00:55:52 3794 01:56:36 3852 02:41:48 3810 02:37:08 3828
972 Nathan Marlor Male 64 MOPEN 43 00:30:12 51 01:01:28 59 01:22:09 66 01:22:04 70
2559 John Cooper Male 361 M40+ 43 00:35:30 407 01:11:34 396 01:35:31 391 01:34:48 397
4430 Mark Miller Male 406 M45+ 43 00:35:53 457 01:10:34 350 01:36:39 443 01:33:01 339
1630 Fiona Harrington Female 78 FOPEN 43 00:37:18 694 01:15:49 741 01:42:00 713 01:40:50 765
1484 John Leaver Male 663 M50+ 43 00:37:09 664 01:15:45 733 01:42:29 744 01:41:55 826
1330 Steve Roberts Male 1087 M55+ 43 00:41:14 1508 01:22:28 1407 01:50:59 1266 01:47:36 1249
4923 Kath Hickey Female 301 F35+ 43 00:42:24 1769 01:24:54 1668 01:57:01 1731 01:51:49 1598
1177 Claire Burrill Female 330 F40+ 43 SALTAIRE STRIDERS 00:42:25 1774 01:25:49 1774 01:59:01 1867 01:54:13 1800
2249 Helen Lodge Female 477 F45+ 43 SOUTHPORT WATERLOO AC 00:42:44 1856 01:27:18 1951 02:04:17 2303 01:57:01 2036
760 Isabel Robertson Female 667 F50+ 43 00:45:29 2493 01:34:17 2734 02:10:44 2724 02:07:51 2869
1262 Mark Horsfield Male 2440 M60+ 43 00:50:51 3449 01:46:23 3546 02:29:39 3542 02:25:58 3636
4532 Carole Burnie Female 1271 F55+ 43 CUMBERLAND AC 00:56:24 3832 01:56:23 3847 02:43:21 3827 02:36:20 3819
901 Nigel Quaye Male 65 MOPEN 44 00:31:03 84 01:02:20 74 01:22:15 67 01:22:03 69
125 John Steenson Male 364 M40+ 44 00:35:57 461 01:12:13 432 01:35:34 394 01:35:01 412
3860 Nigel Foo Male 411 M45+ 44 PENNY LANE STRIDERS 00:36:16 500 01:12:45 474 01:36:45 448 01:36:22 492
1200 Sandro Giglione Male 666 M50+ 44 TALLAGHT AC 00:39:20 1069 01:17:22 867 01:42:30 747 01:41:33 803
3956 Emily Edwards Female 83 FOPEN 44 00:37:25 719 01:16:02 753 01:42:34 750 01:41:54 825
1459 Mark Skelton Male 1097 M55+ 44 PENNY LANE STRIDERS 00:41:44 1614 01:22:37 1427 01:51:06 1277 01:48:49 1357
3769 Denise Grehan Female 306 F35+ 44 WARRINGTON RRC 00:42:51 1878 01:26:52 1907 01:57:14 1751 01:54:42 1844
1861 Rebecca Grunnill Female 354 F40+ 44 00:43:41 2069 01:28:16 2052 01:59:57 1939 01:57:17 2064
4833 Liz Folan Female 491 F45+ 44 00:43:52 2112 01:30:51 2348 02:04:38 2341 02:01:34 2459
1707 Alison Fields Female 678 F50+ 44 00:47:17 2887 01:33:41 2688 02:11:01 2743 02:03:25 2590
592 Peter Manby Male 2459 M60+ 44 00:49:02 3227 01:46:24 3548 02:31:20 3597 02:24:46 3590
4113 Gillian White Female 1291 F55+ 44 00:57:06 3875 01:53:53 3794 02:45:30 3854 02:37:28 3831
4531 Tom Armstrong Male 67 MOPEN 45 VALE ROYAL AC 00:31:17 93 01:02:47 88 01:22:32 69 01:22:25 74
183 Oeivind Andersen Male 399 M40+ 45 00:36:34 557 01:12:24 447 01:36:30 436 01:35:07 418
2648 Lee Hambly Male 416 M45+ 45 00:35:23 393 01:12:15 436 01:36:48 453 01:36:15 478
234 Alice Trevail Female 85 FOPEN 45 MERSEY-TRI 00:38:22 892 01:17:12 854 01:42:38 754 01:41:16 792
2325 David Ward Male 675 M50+ 45 00:37:05 648 01:16:22 780 01:42:41 760 01:41:57 827
4241 Michael Gilbert Male 1113 M55+ 45 00:42:12 1710 01:24:01 1581 01:51:15 1297 01:49:57 1435
2264 Christine Carter Female 332 F35+ 45 KIRKBY MILERS 00:42:51 1877 01:26:56 1915 01:59:06 1881 01:56:36 1991
4058 Victoria Peak Female 358 F40+ 45 MOSSLEY AFC RUNNING CLUB 00:43:25 2005 01:26:12 1837 02:00:03 1949 01:53:27 1730
3699 Paula Hartharn-Evans Female 492 F45+ 45 00:44:42 2284 01:30:50 2347 02:04:41 2346 01:59:20 2260
3380 Irene Flynn Female 686 F50+ 45 00:47:17 2889 01:34:13 2729 02:11:23 2763 02:04:02 2634
93 Alan Boyle Male 2477 M60+ 45 WIGAN DISTRICT HARRIERS AC 00:53:31 3669 01:49:58 3675 02:33:23 3648 02:26:41 3647
1184 Lesley Wylde Female 1301 F55+ 45 00:54:39 3734 01:58:48 3885 02:48:25 3873 02:41:14 3871
1776 Thomas Wilson Male 68 MOPEN 46 LIVERPOOL RC 00:30:34 64 01:01:40 64 01:22:38 70 01:22:36 77
3751 Wayne Asprey Male 404 M40+ 46 00:35:04 355 01:12:11 431 01:36:34 441 01:36:13 477
4572 Pete Leak Male 420 M45+ 46 00:34:54 335 01:12:24 445 01:36:51 457 01:35:54 453
1150 Sophie Carter Female 87 FOPEN 46 DOCKSIDE RUNNERS 00:38:02 828 01:16:46 811 01:42:55 769 01:41:46 816
949 Richard Cooper Male 687 M50+ 46 00:37:23 711 01:16:20 778 01:43:03 778 01:41:16 793
4218 Kenny Garnier Male 1122 M55+ 46 MOSSLEY HILL AC 00:40:51 1408 01:22:20 1388 01:51:26 1307 01:50:12 1461
3696 Miriam Sherlock Female 340 F35+ 46 00:44:17 2191 01:28:48 2116 01:59:18 1899 01:54:18 1803
3570 Liesa Rietdyk Female 364 F40+ 46 00:43:55 2125 01:28:25 2078 02:00:19 1965 01:56:31 1984
1533 Claire Meadows Female 496 F45+ 46 PENNY LANE STRIDERS 00:44:31 2236 01:30:23 2280 02:04:48 2356 01:59:38 2296
4708 Susan Williscroft Female 687 F50+ 46 00:47:34 2944 01:35:37 2868 02:11:23 2764 02:05:39 2724
1081 Mark Clarke Male 2517 M60+ 46 00:57:58 3906 01:57:07 3859 02:37:06 3727 02:32:58 3768
1185 Elizabeth Hunt Female 1302 F55+ 46 00:54:39 3736 01:54:53 3816 02:48:25 3874 02:41:16 3872
10376 Jack Trevail Male 69 MOPEN 47 UNIVERSITY OF BRISTOL TRIATHLO 00:31:31 107 01:02:55 91 01:22:39 71 01:22:19 73
1149 Paul Murphy Male 405 M40+ 47 TALLAGHT AC 00:37:07 656 01:13:15 518 01:36:38 442 01:36:11 475
2070 Ivan Ellison Male 432 M45+ 47 00:38:21 888 01:14:22 617 01:37:11 471 01:36:25 496
3844 Crystal Dishman Female 88 FOPEN 47 00:38:34 925 01:16:46 810 01:42:56 770 01:41:27 801
2328 Dave Berry Male 695 M50+ 47 00:38:01 825 01:16:56 822 01:43:14 786 01:41:53 824
4341 Rob Monk Male 1139 M55+ 47 00:41:51 1644 01:23:56 1567 01:51:42 1327 01:49:53 1431
2187 Rachel Keeble Female 345 F35+ 47 00:44:48 2306 01:28:44 2107 01:59:35 1908 01:56:48 2007
3629 Joanne Clarke Female 382 F40+ 47 WARRINGTON RUNNING CLUB 00:43:50 2107 01:28:36 2095 02:00:56 2023 01:56:50 2016
2711 Hazel Keane Female 502 F45+ 47 TALLAGHT AC 00:44:29 2226 01:31:44 2485 02:04:55 2374 02:02:42 2533
2216 Belinda Tunnah Female 694 F50+ 47 00:45:40 2552 01:34:51 2788 02:11:47 2782 02:06:54 2796
3393 Dave Owens Male 2518 M60+ 47 PENNY LANE STRIDERS 00:56:04 3805 01:53:10 3767 02:37:10 3731 02:28:49 3690
1247 Gwenda Marshall Female 1339 F55+ 47 FYLDE COAST RUNNERS 01:01:20 3967 02:06:06 3955 02:56:03 3928 02:48:47 3925
4588 Mark Devlin Male 70 MOPEN 48 00:30:43 73 01:02:25 77 01:22:45 72 01:22:38 78
3688 Scott Reynolds Male 409 M40+ 48 00:35:54 459 01:14:02 584 01:36:43 446 01:36:32 498
782 George Kyriazi Male 439 M45+ 48 00:36:05 470 01:12:50 482 01:37:25 479 01:36:19 487
2360 Kate Matthews Female 89 FOPEN 48 00:36:50 600 01:14:20 611 01:43:01 775 01:38:44 627
4960 Paul Mcard Male 703 M50+ 48 00:38:38 935 01:16:42 803 01:43:21 795 01:40:48 761
559 Andrew Lodge Male 1141 M55+ 48 ISLE OF MAN VETERAN AC 00:42:10 1706 01:23:42 1552 01:51:43 1330 01:49:52 1430
3758 Natalie Moore Female 356 F35+ 48 RED ROSE RRC 00:42:37 1829 01:25:17 1714 02:00:03 1947 01:52:46 1674
4811 Paula Sharrocks Female 393 F40+ 48 WARRINGTON RUNNING CLUB 00:43:50 2106 01:28:36 2094 02:01:18 2058 01:57:12 2056
3487 Jan Duncan Female 509 F45+ 48 00:43:18 1975 01:27:50 2012 02:05:08 2390 01:57:59 2139
1031 Gillian Hyde Female 696 F50+ 48 SALTAIRE STRIDERS 00:45:31 2503 01:32:57 2611 02:11:50 2786 02:05:04 2692
4435 Keith Currie Male 2529 M60+ 48 00:56:59 3862 01:53:18 3771 02:38:53 3762 02:30:43 3728
257 Valerie Hall Female 1356 F55+ 48 00:58:47 3925 02:05:16 3949 02:57:50 3950 02:49:46 3938
3582 Stuart Fraser Male 71 MOPEN 49 00:31:35 111 01:02:41 87 01:22:46 73 01:22:35 76
4939 Dermot Gough Male 421 M40+ 49 00:36:23 517 01:12:57 495 01:36:51 458 01:36:01 463
3796 Mark Hammerton Male 451 M45+ 49 00:36:58 623 01:14:09 594 01:37:45 491 01:37:04 520
3018 Rosie Matthews Female 90 FOPEN 49 00:36:51 601 01:14:21 613 01:43:01 776 01:38:44 629
3859 Neil Salt Male 732 M50+ 49 00:37:14 679 01:17:18 864 01:43:46 827 01:43:03 902
4188 Rod Jones Male 1170 M55+ 49 LIVERPOOL RC 00:40:39 1367 01:22:31 1411 01:52:17 1368 01:50:32 1488
4962 Beth Hayman Female 357 F35+ 49 RED ROSE RRC 00:42:37 1827 01:25:17 1713 02:00:03 1948 01:52:46 1672
2641 Maria Murphy Female 406 F40+ 49 00:44:54 2334 01:29:34 2191 02:01:54 2105 02:00:10 2345
728 Sara Roberts Female 519 F45+ 49 00:45:20 2462 01:30:42 2324 02:05:36 2411 02:00:33 2378
1924 Shirley Harding Female 706 F50+ 49 00:46:51 2811 01:34:27 2750 02:12:07 2800 02:04:27 2665
4114 Stephen White Male 2564 M60+ 49 00:57:05 3871 01:53:51 3791 02:45:31 3855 02:37:27 3830
450 Christine Gilmour Female 1361 F55+ 49 00:59:27 3937 02:06:44 3959 02:59:21 3957 02:51:12 3944
4219 John Leonard Male 72 MOPEN 50 00:31:24 98 01:03:20 105 01:22:50 74 01:22:46 81
3516 John Lloyd Male 422 M40+ 50 FORMBY HARRIERS 00:36:11 484 01:12:45 476 01:36:52 459 01:35:50 450
1203 John Stokes Male 463 M45+ 50 TALLAGHT AC 00:37:07 658 01:13:49 559 01:37:56 503 01:37:30 547
2880 Hannah Elliott Female 92 FOPEN 50 SALTAIRE STRIDERS 00:38:15 872 01:17:17 863 01:43:16 789 01:42:12 843
4076 Darren Hughes Male 752 M50+ 50 00:38:55 988 01:17:08 849 01:44:15 850 01:42:25 861
1894 Paul Howard Male 1200 M55+ 50 00:41:46 1624 01:23:41 1545 01:52:40 1405 01:49:58 1438
3379 Yvonne Humphreys Female 368 F35+ 50 00:42:32 1802 01:28:46 2110 02:00:26 1978 01:57:46 2118
4859 Denise Ryley Female 408 F40+ 50 00:43:53 2117 01:29:38 2202 02:01:56 2109 01:59:33 2282
683 Paula Morris Female 534 F45+ 50 SCARBOROUGH ATHLETIC CLUB 00:45:36 2527 01:30:24 2281 02:06:14 2455 01:59:56 2321
2077 Suzanne Hague Female 725 F50+ 50 SALTAIRE STRIDERS 00:45:43 2565 01:35:17 2836 02:12:55 2849 02:07:31 2837
3167 James Rowan Male 2616 M60+ 50 01:17:02 4013 02:43:46 4019 03:57:27 4020 03:48:59 4017
3613 Oliver Carey Male 73 MOPEN 51 MIKKELLER RUNNING CLUB LIVERPO 00:30:44 74 01:02:27 79 01:22:52 75 01:22:44 80
4115 Darren Jackson Male 425 M40+ 51 WIGAN DISTRICT HARRIERS AC 00:36:40 569 01:12:47 479 01:36:53 462 01:36:39 504
862 Adrian Pennington Male 464 M45+ 51 00:37:18 696 01:14:20 612 01:37:58 504 01:36:58 515
4874 Natalie Darlington Female 93 FOPEN 51 00:39:40 1132 01:18:48 997 01:43:29 807 01:42:02 833
2709 Alan Mcnally Male 754 M50+ 51 00:38:17 878 01:17:46 899 01:44:17 853 01:42:19 851
1401 Keith Beard Male 1231 M55+ 51 00:41:11 1495 01:21:58 1338 01:53:12 1443 01:48:45 1351
3422 Suzanne Weinberger Female 369 F35+ 51 00:43:04 1915 01:26:43 1879 02:00:28 1979 01:55:54 1945
2616 Kerry Wood Female 409 F40+ 51 SALTAIRE STRIDERS 00:44:40 2277 01:29:51 2228 02:01:58 2111 01:58:12 2157
2191 Josephine Briggs Female 548 F45+ 51 SALTAIRE STRIDERS 00:45:32 2507 01:31:53 2507 02:06:47 2485 02:01:23 2455
3865 Tracy Spenceley Female 727 F50+ 51 00:45:30 2498 01:32:59 2614 02:12:57 2851 02:05:23 2712
3491 Matthew Jones Male 74 MOPEN 52 00:31:08 86 01:02:47 89 01:22:58 77 01:22:39 79
3747 Kev Elliott Male 427 M40+ 52 00:33:12 204 01:10:31 346 01:37:00 465 01:36:13 476
4073 George Mccann Male 474 M45+ 52 LIVERPOOL RC 00:36:23 523 01:13:32 536 01:38:17 517 01:37:34 555
386 Hazel Bailey Female 94 FOPEN 52 00:36:16 499 01:15:47 738 01:43:30 809 01:43:06 906
2838 Dave Morgan Male 755 M50+ 52 00:38:11 860 01:17:47 900 01:44:17 854 01:42:20 853
2918 Simon Baker Male 1232 M55+ 52 ELLESMERE PORT RC 00:41:29 1557 01:23:59 1577 01:53:13 1444 01:51:26 1571
899 Emma Longford Female 370 F35+ 52 00:43:59 2139 01:27:44 2001 02:00:29 1980 01:55:15 1889
2306 Sara Christiansen Female 413 F40+ 52 00:45:49 2589 01:30:41 2323 02:02:06 2122 01:59:36 2289
3231 Lisa Thompson Female 598 F45+ 52 BOURNVILLE HARRIERS 00:47:39 2964 01:35:04 2808 02:08:41 2601 02:06:12 2748
1047 Gina Halstead Female 730 F50+ 52 00:47:50 2992 01:37:00 2983 02:13:02 2857 02:07:40 2852
4905 Matthew Skaife Male 75 MOPEN 53 MOSSLEY HILL AC 00:31:37 114 01:03:08 99 01:23:00 79 01:22:54 85
4870 Andy Haughton Male 428 M40+ 53 HYDE VILLAGE STRIDERS 00:36:27 532 01:12:53 488 01:37:01 467 01:36:18 484
1719 Gary Gates Male 478 M45+ 53 PENSBY RUNNERS 00:36:58 624 01:14:00 575 01:38:21 521 01:37:16 531
1087 Sophie Miller Female 95 FOPEN 53 00:37:58 811 01:17:05 842 01:43:39 817 01:42:30 863
915 Tim Criddle Male 778 M50+ 53 MERSEY-TRI 00:36:48 590 01:15:33 721 01:44:52 887 01:42:11 840
670 Fernand Gobet Male 1266 M55+ 53 00:42:14 1718 01:24:29 1626 01:53:46 1484 01:50:49 1512
2171 Jane Burton Female 372 F35+ 53 00:43:57 2128 01:28:32 2088 02:00:30 1983 01:57:31 2092
2307 Jayne Guinan Female 414 F40+ 53 00:45:49 2592 01:30:43 2327 02:02:06 2123 01:59:37 2294
2923 Wendy Barker Female 599 F45+ 53 00:46:21 2714 01:32:33 2579 02:08:41 2602 02:02:06 2497
1050 Pam Truman Female 731 F50+ 53 00:47:50 2994 01:37:00 2984 02:13:03 2859 02:07:40 2854
2799 David Parker Male 76 MOPEN 54 00:30:18 55 01:02:19 73 01:23:01 80 01:22:52 84
92 Jon Rumley Male 437 M40+ 54 00:36:09 478 01:13:18 522 01:37:22 477 01:36:46 508
4997 Andrew Gaskell Male 481 M45+ 54 SPECTRUM STRIDERS RC 00:37:14 680 01:15:00 661 01:38:26 525 01:37:35 557
1190 Clarissa Giebel Female 96 FOPEN 54 00:38:28 909 01:17:59 916 01:43:53 830 01:43:06 907
1210 Bob Hockenhull Male 789 M50+ 54 BOURNVILLE HARRIERS 00:37:01 632 01:16:33 795 01:44:57 899 01:42:21 856
695 Alan Middleton Male 1274 M55+ 54 00:41:04 1459 01:23:12 1495 01:53:55 1497 01:50:45 1507
984 Siobhan Cassidy Female 375 F35+ 54 00:43:11 1947 01:28:43 2106 02:00:44 2007 01:57:10 2049
4996 Michelle Bennett Female 426 F40+ 54 00:43:30 2028 01:27:26 1963 02:02:22 2143 01:56:28 1978
4129 Lyn Young Female 600 F45+ 54 00:46:22 2716 01:32:33 2580 02:08:41 2604 02:02:07 2498
694 Tracey Middleton Female 737 F50+ 54 00:46:20 2712 01:36:04 2909 02:13:09 2867 02:09:58 2999
4994 Chris Boron Male 77 MOPEN 55 00:31:17 92 01:03:07 98 01:23:03 81 01:22:54 87
3518 Jonny Owen Male 455 M40+ 55 00:37:02 635 01:14:19 608 01:37:49 495 01:37:19 534
4785 Chris Levy Male 485 M45+ 55 ST HELENS TRI 00:37:17 693 01:14:30 626 01:38:30 529 01:37:54 576
356 Ellie Morrissey Female 97 FOPEN 55 00:38:22 893 01:18:07 928 01:43:57 831 01:43:02 900
1446 Andrew Spencer Male 792 M50+ 55 GRANTHAM RUNNING CLUB 00:39:29 1090 01:19:39 1083 01:44:57 902 01:43:25 919
1038 Mike Jennings Male 1306 M55+ 55 00:41:19 1528 01:23:26 1517 01:54:43 1541 01:51:09 1544
4600 Anne Mcgrath Female 378 F35+ 55 00:44:16 2190 01:27:46 2003 02:00:45 2011 01:55:58 1952
1605 Wendy Morton Female 427 F40+ 55 00:44:39 2273 01:29:36 2198 02:02:23 2145 01:57:59 2140
3129 Lorraine Hayhurst Female 607 F45+ 55 00:46:02 2641 01:32:25 2565 02:09:01 2624 02:02:51 2544
3670 Andollina Wong Female 739 F50+ 55 00:45:53 2613 01:37:55 3062 02:13:12 2870 02:08:02 2878
1948 Matthew Bond Male 78 MOPEN 56 LIVERPOOL HARRIERS AC 00:30:40 67 01:02:22 75 01:23:04 82 01:22:54 86
2721 Adrian Phillips Male 466 M40+ 56 00:36:50 598 01:13:56 568 01:38:03 508 01:37:12 527
983 Marc Evans Male 489 M45+ 56 ROSSEDNALE TRIATHLON CLUB 00:36:38 561 01:13:48 555 01:38:36 533 01:37:32 552
4533 Nicola Simpson Female 98 FOPEN 56 00:37:26 722 01:15:41 729 01:44:04 840 01:40:48 763
3057 Jeff Murphy Male 793 M50+ 56 00:38:14 870 01:17:58 914 01:45:00 903 01:43:53 961
405 Richard Hodgson Male 1309 M55+ 56 00:43:16 1965 01:24:47 1652 01:54:46 1544 01:50:30 1483
977 Gillian Nesbitt Female 379 F35+ 56 ABBEY RUNNERS LEEDS 00:43:55 2123 01:28:31 2087 02:00:47 2017 01:57:48 2122
2523 Vicky Van Den Biggelaar Female 433 F40+ 56 WOMEN ON THE RUN 00:43:10 1942 01:29:03 2144 02:02:43 2165 01:58:39 2190
94 Rachel Roberts Female 614 F45+ 56 ELLESMERE PORT RC 00:47:02 2830 01:34:18 2738 02:09:21 2642 02:05:10 2696
2117 Carolyn Smith Female 740 F50+ 56 LYMM RUNNERS 00:47:52 3004 01:36:51 2972 02:13:13 2871 02:07:19 2820
3221 Christopher Myles Male 79 MOPEN 57 BUCKLEY RC 00:30:42 71 01:02:38 85 01:23:11 83 01:23:01 89
4353 Gary Pollock Male 469 M40+ 57 00:36:35 558 01:13:35 539 01:38:10 512 01:36:58 514
1116 G.r. Beadman Male 507 M45+ 57 00:35:08 361 01:13:05 502 01:39:04 555 01:39:00 653
4491 Helen Richardson Female 99 FOPEN 57 00:37:42 761 01:15:25 701 01:44:16 851 01:39:54 714
3216 Scott Brooks Male 810 M50+ 57 MERSEY-TRI 00:39:19 1067 01:19:05 1020 01:45:24 921 01:43:47 947
3498 Raymond Mcauley Male 1312 M55+ 57 00:41:28 1554 01:24:52 1661 01:54:48 1547 01:54:02 1782
4699 Debbie Mayston Female 380 F35+ 57 00:42:28 1787 01:26:31 1861 02:00:49 2018 01:56:02 1956
1626 Christine Acklam Female 435 F40+ 57 WOMEN ON THE RUN 00:43:11 1946 01:29:05 2147 02:02:46 2171 01:58:42 2196
2760 Charlotte Le Rougetel Female 618 F45+ 57 THAMES VALLEY HARRIERS 00:47:36 2954 01:34:40 2775 02:09:23 2646 02:03:32 2601
4118 Alison Craig Female 742 F50+ 57 TATTENHALL RUNNERS 00:48:14 3081 01:37:32 3028 02:13:15 2874 02:10:03 3005
2939 Gareth Howell Male 80 MOPEN 58 LIVERPOOL HARRIERS AC 00:30:31 61 01:02:31 82 01:23:12 84 01:23:11 96
10380 Lee Ward Male 473 M40+ 58 00:37:28 727 01:14:36 635 01:38:17 516 01:37:09 525
1775 Paul Wilson Male 510 M45+ 58 LIVERPOOL RC 00:36:41 576 01:13:54 564 01:39:08 559 01:38:35 621
4633 Lucy Oconnor Female 100 FOPEN 58 KIRKBY MILERS 00:38:16 875 01:17:32 881 01:44:17 855 01:43:33 925
2141 Ian Rigby Male 818 M50+ 58 00:38:39 938 01:19:18 1042 01:45:31 929 01:44:55 1035
1510 David Horton Male 1315 M55+ 58 STOCKSFIELD STRIDERS 00:40:42 1383 01:22:53 1454 01:54:54 1553 01:51:09 1545
4092 Katie Osullivan Female 381 F35+ 58 PENNY LANE STRIDERS 00:42:34 1816 01:27:48 2009 02:00:54 2022 01:57:12 2053
4075 Emma Pitt Female 440 F40+ 58 00:45:51 2597 01:32:01 2519 02:03:04 2193 02:00:08 2343
1097 Elaine Frazer Female 628 F45+ 58 SALTAIRE STRIDERS 00:45:37 2534 01:34:12 2727 02:09:39 2661 02:04:49 2682
933 Jane Ashcroft Female 765 F50+ 58 00:47:11 2861 01:35:13 2827 02:14:01 2927 02:07:33 2840
4162 Benjamin Brennand-Carter Male 81 MOPEN 59 00:31:34 110 01:03:22 106 01:23:13 85 01:23:03 90
1167 Steve Simpson Male 475 M40+ 59 00:35:21 382 01:12:43 470 01:38:17 518 01:37:29 546
2528 Howard Finnan Male 530 M45+ 59 00:36:52 606 01:14:27 622 01:39:31 590 01:38:48 634
3184 Grace Gibson Female 101 FOPEN 59 WALLASEY AC 00:40:00 1203 01:19:06 1022 01:44:22 862 01:43:27 923
3546 Chris Roberts Male 855 M50+ 59 CWM OGWR RC 00:40:19 1266 01:20:16 1148 01:46:34 977 01:44:43 1021
786 Bob Fleetwood Male 1321 M55+ 59 00:41:31 1569 01:23:50 1557 01:54:58 1561 01:51:58 1619
1937 Grace Smith Female 396 F35+ 59 LIVERPOOL RC 00:44:21 2201 01:29:41 2209 02:01:25 2071 01:58:35 2181
43 Lorraine Evans Female 447 F40+ 59 00:46:04 2645 01:29:22 2167 02:03:21 2219 01:56:33 1986
1049 Debi Whitfield Female 629 F45+ 59 00:45:34 2519 01:32:48 2598 02:09:40 2662 02:03:48 2615
953 Estelle Bridgewater Female 766 F50+ 59 TANWORTH TROTTERS 00:47:30 2930 01:35:27 2853 02:14:02 2928 02:07:34 2843
2556 Thomas Webb Male 82 MOPEN 60 DARK PEAK FELL RUNNERS CLUB 00:31:18 94 01:02:59 94 01:23:14 86 01:23:04 92
4880 Asheesh Sharma Male 482 M40+ 60 00:35:48 442 01:13:26 532 01:38:27 526 01:38:04 584
1230 Ewan Mcmahon Male 534 M45+ 60 00:36:28 535 01:12:55 492 01:39:33 595 01:36:09 471
4083 Melissa Dixon Female 104 FOPEN 60 DOCKSIDE RUNNERS 00:37:46 776 01:17:23 871 01:44:35 872 01:43:26 921
3892 James Towers Male 862 M50+ 60 00:38:29 913 01:19:32 1069 01:46:44 985 01:46:05 1106
17 James Hart Male 1369 M55+ 60 PENNY LANE STRIDERS 00:40:57 1438 01:24:35 1635 01:55:47 1630 01:55:05 1878
3228 Slaviana Zinovieva Female 401 F35+ 60 00:44:22 2205 01:30:30 2303 02:01:36 2082 01:59:28 2273
2820 Sandra Warburton Dalton Female 451 F40+ 60 TALLAGHT AC 00:45:40 2550 01:31:42 2483 02:03:34 2234 02:01:20 2449
3382 Sue Williams Female 632 F45+ 60 00:46:33 2751 01:32:53 2603 02:09:42 2665 02:03:12 2574
727 Sue Hill Female 774 F50+ 60 00:47:54 3012 01:36:41 2957 02:14:33 2952 02:06:24 2762
3792 Marcus Taylor Male 83 MOPEN 61 EAST FIFE TRIATHLON CLUB 00:31:28 101 01:02:56 92 01:23:15 87 01:23:03 91
4242 Steve Dipple Male 484 M40+ 61 PENNY LANE STRIDERS 00:36:38 562 01:13:09 511 01:38:29 528 01:36:06 469
3324 Greg Hughes Male 539 M45+ 61 00:35:51 452 01:12:39 467 01:39:40 601 01:36:15 479
2840 Lizzie Stokes Female 106 FOPEN 61 00:38:05 836 01:16:17 774 01:44:41 879 01:41:02 775
4207 Christopher Ward Male 865 M50+ 61 00:38:48 968 01:18:00 918 01:46:46 989 01:42:42 878
2622 Christopher Simon Male 1376 M55+ 61 00:42:14 1715 01:24:35 1637 01:56:01 1648 01:53:39 1746
3430 Joanna Kurp Female 402 F35+ 61 00:45:09 2407 01:28:54 2127 02:01:38 2086 01:55:44 1925
4072 Angie Byron Female 454 F40+ 61 KIRKBY MILERS 00:44:46 2301 01:30:50 2345 02:03:39 2240 02:00:02 2330
383 Titia Dorgeat Female 637 F45+ 61 00:47:30 2931 01:35:14 2829 02:09:52 2673 02:05:46 2735
858 Sally Richardson Female 788 F50+ 61 00:48:09 3063 01:38:07 3074 02:15:06 2978 02:09:38 2977
4379 Greg Williams Male 87 MOPEN 62 ST. HELENS SUTTON AC 00:31:10 89 01:02:40 86 01:23:39 91 01:23:10 95
173 Andrew Wolfenden Male 490 M40+ 62 00:36:56 619 01:13:44 549 01:38:37 535 01:37:14 530
3043 Gary Keith Male 541 M45+ 62 00:37:44 769 01:14:34 632 01:39:43 604 01:37:42 565
4510 Laura Smith Female 107 FOPEN 62 00:37:35 737 01:15:46 736 01:44:47 883 01:40:42 757
763 Gary Lee Male 866 M50+ 62 00:37:45 772 01:18:40 981 01:46:46 990 01:45:28 1067
4584 Robert Chandler Male 1396 M55+ 62 00:42:10 1705 01:24:51 1657 01:56:25 1680 01:53:08 1708
2198 Katherine Holley Female 420 F35+ 62 WALLASEY AC 00:44:05 2154 01:29:33 2188 02:02:13 2136 01:58:04 2149
3817 Sesmin Ewing Female 458 F40+ 62 00:44:24 2209 01:30:25 2288 02:03:46 2252 02:00:06 2337
3317 Julie Dinwoodie Female 638 F45+ 62 KIRKBY MILERS 00:47:58 3026 01:35:16 2832 02:09:55 2676 02:03:57 2624
4582 Mandy Griffin Female 795 F50+ 62 00:47:34 2946 01:36:27 2937 02:15:22 2994 02:09:10 2945
1465 Philip Ohare Male 88 MOPEN 63 00:32:51 186 01:04:07 124 01:23:43 92 01:23:34 103
1651 Peter Maybury Male 493 M40+ 63 00:37:57 810 01:15:21 695 01:38:44 538 01:38:18 601
2345 Jason Pierce Male 543 M45+ 63 00:35:40 427 01:13:02 499 01:39:46 606 01:38:31 615
2826 Heather Robertson Female 108 FOPEN 63 00:39:03 1017 01:18:23 956 01:44:48 884 01:43:09 909
80 David South Male 879 M50+ 63 00:39:14 1051 01:20:07 1130 01:47:00 1005 01:45:35 1081
2673 Colin Martin Male 1409 M55+ 63 00:41:05 1469 01:24:54 1666 01:56:42 1698 01:54:08 1791
4782 Kathryn Sharkey Female 442 F35+ 63 PENNY LANE STRIDERS 00:46:12 2676 01:30:44 2329 02:03:08 2199 01:59:08 2239
3093 Louise Busby Female 462 F40+ 63 00:43:52 2115 01:30:49 2342 02:04:02 2272 02:00:30 2369
4951 Sharon Fraser Female 640 F45+ 63 ELLESMERE PORT RC 00:47:06 2843 01:35:42 2876 02:09:58 2678 02:05:23 2711
2414 Daphne Jones Female 796 F50+ 63 00:48:54 3209 01:38:57 3127 02:15:27 2996 02:10:02 3003
4599 Lewis Houghton Male 89 MOPEN 64 KIRKBY MILERS 00:32:33 165 01:04:01 120 01:23:44 93 01:23:35 104
2355 Yuichiro Niwase Male 497 M40+ 64 DOCKSIDE RUNNERS 00:36:23 522 01:13:04 501 01:38:54 544 01:37:43 567
4419 Neil Jackson Male 564 M45+ 64 00:37:21 709 01:15:05 671 01:40:06 628 01:38:51 640
4606 Aine Keating Female 111 FOPEN 64 00:38:41 946 01:18:18 942 01:45:20 920 01:43:40 935
3203 Lee Hume Male 887 M50+ 64 00:39:51 1174 01:19:59 1110 01:47:14 1014 01:45:28 1068
1109 Mike Webster Male 1412 M55+ 64 00:42:37 1826 01:25:41 1756 01:56:44 1703 01:53:09 1709
373 Leanne Biggs Female 444 F35+ 64 00:44:08 2163 01:30:58 2369 02:03:18 2214 01:59:29 2276
2397 Sue Morley-Smith Female 469 F40+ 64 SOUTH CHESHIRE HARRIERS 00:45:35 2524 01:30:54 2355 02:04:12 2291 02:00:45 2399
4505 Sophie Baret Female 646 F45+ 64 00:47:31 2937 01:35:33 2861 02:10:09 2686 02:06:20 2757
1932 Kate Lucas Female 818 F50+ 64 00:47:53 3008 01:36:31 2943 02:16:19 3041 02:09:47 2990
1110 Andrew Weaver Male 91 MOPEN 65 00:31:20 95 01:03:11 100 01:23:49 95 01:23:25 100
994 Timothy Holland Male 502 M40+ 65 0 01:16:51 816 01:38:59 550 01:38:29 613
2030 Robert Griffin Male 567 M45+ 65 00:36:54 617 01:14:46 645 01:40:10 631 01:39:36 700
4456 Lorna Harper Female 112 FOPEN 65 MERSEY-TRI 00:39:35 1117 01:17:49 902 01:45:34 930 01:41:27 802
1365 Patrick Kelly Male 892 M50+ 65 TALLAGHT AC 00:39:21 1070 01:19:26 1058 01:47:22 1019 01:46:25 1140
3941 Keith Marsden Male 1424 M55+ 65 WALLASEY AC 00:42:26 1781 01:24:23 1613 01:56:56 1722 01:50:32 1487
1225 Jenny Johnson Female 445 F35+ 65 00:46:34 2754 01:31:35 2465 02:03:20 2217 01:58:46 2202
3772 Kim Carter Female 474 F40+ 65 MOSSLEY HILL AC 00:46:37 2767 01:31:50 2499 02:04:15 2297 01:59:44 2305
4750 Joanne Anderson Female 650 F45+ 65 SALTWELL HARRIERS 00:46:22 2717 01:33:39 2686 02:10:14 2694 02:04:34 2669
2863 Julie Mcentee Female 828 F50+ 65 PENSBY RUNNERS 00:48:27 3124 01:40:10 3207 02:16:50 3063 02:13:40 3177
4182 Michael Rooke Male 96 MOPEN 66 WIRRAL AC 00:32:21 147 01:04:28 137 01:23:57 100 01:23:39 105
4325 Dave Postlethwaite Male 512 M40+ 66 00:37:10 668 01:14:00 578 01:39:11 562 01:37:00 517
3949 Tony Taylor Male 598 M45+ 66 00:37:14 678 01:15:04 668 01:40:59 667 01:39:41 706
1298 Lucy Carroll Female 113 FOPEN 66 00:39:18 1066 01:19:02 1016 01:45:42 934 01:44:20 987
2129 Paul Jones Male 910 M50+ 66 00:40:42 1385 01:20:55 1219 01:47:36 1039 01:46:22 1135
2800 Andrew Franklin Male 1481 M55+ 66 00:43:36 2046 01:27:10 1942 01:58:00 1795 01:54:32 1830
4036 Lisa Mitchell Female 453 F35+ 66 00:44:45 2294 01:30:27 2294 02:03:37 2238 01:59:28 2274
4360 Sallyann Oneil Female 476 F40+ 66 00:42:43 1854 01:29:57 2243 02:04:16 2299 02:00:18 2354
408 Tracey Wales Female 652 F45+ 66 JULIES JOGGERS 00:45:14 2434 01:32:25 2564 02:10:17 2697 02:03:10 2570
3533 Andrea Woods Female 836 F50+ 66 00:48:38 3161 01:38:20 3087 02:17:09 3076 02:11:12 3066
4154 Steven Lewis Male 97 MOPEN 67 00:30:51 75 01:03:05 97 01:23:59 101 01:23:23 99
4959 David Alan Smith Male 515 M40+ 67 SOUTH CHESHIRE HARRIERS 00:37:06 654 01:15:19 693 01:39:15 565 01:38:32 618
4363 Andy Hamilton Male 605 M45+ 67 LANCASHIRE FIRE RESCUE SERVICE 00:38:07 842 01:16:04 757 01:41:06 675 01:40:17 734
3864 Ashley Bryan Female 114 FOPEN 67 00:40:10 1232 01:18:28 962 01:45:47 939 01:42:33 867
4409 Karl Roach Male 921 M50+ 67 00:39:31 1100 01:18:54 1007 01:47:50 1053 01:44:51 1030
10381 Michael Cope Male 1487 M55+ 67 00:41:39 1603 01:23:50 1558 01:58:06 1801 01:51:41 1585
1640 Lisa Harman Female 466 F35+ 67 00:45:03 2380 01:32:08 2532 02:04:11 2287 02:02:09 2501
530 Helen Constable Female 498 F40+ 67 00:45:49 2588 01:31:02 2384 02:04:49 2361 02:00:35 2381
3294 Maureen Osborne Female 655 F45+ 67 VILLAGE ROAD RUNNERS AC 00:46:56 2816 01:33:58 2708 02:10:18 2700 02:03:05 2562
2909 Elaine Steele Female 843 F50+ 67 00:49:26 3295 01:38:37 3103 02:17:36 3088 02:09:35 2975
4704 Oliver Chadwick Male 98 MOPEN 68 00:30:33 63 01:02:18 72 01:23:59 102 01:23:08 94
4953 Mselenge Mdegela Male 521 M40+ 68 00:34:21 301 01:12:09 430 01:39:25 574 01:39:19 678
658 Peter Horrel Male 610 M45+ 68 00:37:32 734 01:15:30 713 01:41:11 681 01:39:51 712
751 Amy Holland Female 118 FOPEN 68 MERSEY-TRI 00:38:16 876 01:18:08 930 01:46:16 956 01:45:32 1071
1338 John Leonard Male 943 M50+ 68 HART ROAD RUNNERS 00:41:17 1521 01:22:02 1356 01:48:12 1081 01:46:41 1172
2366 Pete Nelson Male 1508 M55+ 68 BCRC 00:42:28 1786 01:25:13 1703 01:58:37 1831 01:52:01 1623
4355 Sonia Rosina Knight Female 481 F35+ 68 00:42:28 1790 01:26:24 1849 02:04:23 2315 01:55:59 1953
4131 Nicola Simmons Female 510 F40+ 68 00:44:41 2281 01:30:32 2310 02:05:09 2392 01:59:15 2252
1960 Denise Davis Female 661 F45+ 68 SALTAIRE STRIDERS 00:45:51 2600 01:35:06 2811 02:10:37 2714 02:06:52 2795
4102 Helen Boardman Female 848 F50+ 68 00:47:17 2886 01:37:40 3036 02:17:57 3103 02:12:20 3109
1144 David Callaghan Male 101 MOPEN 69 TALLAGHT AC 00:31:46 126 01:03:32 107 01:24:07 105 01:24:02 112
2080 Nick Tan Male 522 M40+ 69 00:36:33 549 01:14:04 589 01:39:27 575 01:38:11 592
1023 David Bastow Male 612 M45+ 69 00:36:49 595 01:15:10 679 01:41:12 685 01:40:20 738
1427 Helen Roddy Female 119 FOPEN 69 00:39:50 1173 01:17:58 912 01:46:18 962 01:42:31 864
4032 Graham Cuddy Male 954 M50+ 69 GO RUNNING 00:40:17 1262 01:19:43 1087 01:48:24 1094 01:43:43 938
2148 Michael Edwards Male 1512 M55+ 69 PENNY LANE STRIDERS 00:42:20 1751 01:26:52 1909 01:58:41 1836 01:54:52 1863
442 Claire Fletcher Female 483 F35+ 69 00:45:41 2559 01:31:27 2444 02:04:25 2320 01:59:35 2285
3988 Janan Swinglehurst Female 514 F40+ 69 00:45:43 2567 01:31:53 2504 02:05:19 2398 02:00:58 2419
2200 Sarah Priest Female 675 F45+ 69 00:46:00 2640 01:32:35 2582 02:11:00 2740 02:03:09 2569
631 Sharon Collins Female 853 F50+ 69 BLACK PEAR JOGGERS 00:48:46 3188 01:38:17 3085 02:18:12 3114 02:12:21 3114
923 Billy Loughman Male 102 MOPEN 70 00:31:46 124 01:03:18 104 01:24:17 106 01:24:12 113
1831 Jukka Jokela Male 523 M40+ 70 HEMLINGBY LK 00:36:30 538 01:14:38 638 01:39:28 577 01:39:09 663
307 Stanley Cardona Male 618 M45+ 70 00:37:00 631 01:15:15 686 01:41:32 691 01:40:33 746
3547 Amy Roberts Female 120 FOPEN 70 CWM OGWR RC 00:40:18 1263 01:20:15 1147 01:46:23 967 01:44:32 1010
4439 Ian Upton Male 965 M50+ 70 00:37:44 768 01:19:46 1091 01:48:36 1109 01:47:57 1275
648 Ray Spong Male 1567 M55+ 70 00:44:56 2347 01:29:22 2170 01:59:41 1914 01:57:49 2127
4376 Marie Rylance Female 489 F35+ 70 00:44:34 2254 01:30:10 2264 02:04:38 2337 02:00:28 2367
1045 Nina Dobson Female 517 F40+ 70 00:45:08 2405 01:30:28 2297 02:05:35 2409 01:58:49 2207
4935 Renee Browning Female 683 F45+ 70 00:47:35 2951 01:35:19 2839 02:11:21 2758 02:06:33 2769
659 Sarah Jones Female 901 F50+ 70 00:51:23 3503 01:41:48 3304 02:20:09 3199 02:13:21 3159
3593 Sean Jones Male 103 MOPEN 71 00:31:53 131 01:04:18 130 01:24:20 107 01:23:52 109
4215 Martin Hoare Male 526 M40+ 71 00:38:01 821 01:15:01 663 01:39:29 583 01:38:17 599
1112 Ian Hart Male 623 M45+ 71 00:37:26 723 01:16:07 761 01:41:43 699 01:40:16 733
742 Estelle Bradley Female 121 FOPEN 71 00:40:22 1287 01:20:19 1153 01:46:26 969 01:45:08 1049
2591 Michael Mountfield Male 1003 M50+ 71 00:39:37 1119 01:21:29 1283 01:49:19 1161 01:47:49 1267
3999 Greg Smith Male 1580 M55+ 71 00:44:02 2149 01:26:57 1916 01:59:50 1931 01:54:48 1854
3001 Hayley Range Female 494 F35+ 71 00:45:27 2484 01:31:22 2430 02:04:48 2353 02:00:35 2382
4678 Sharon Volynchook Female 522 F40+ 71 00:45:16 2447 01:31:52 2503 02:05:45 2421 02:01:58 2487
2162 Colette Mcgrath Female 716 F45+ 71 CHORLTON RUNNERS 00:47:54 3011 01:36:20 2930 02:12:28 2818 02:06:44 2782
3059 Catrin Reade Female 903 F50+ 71 00:50:17 3406 01:40:41 3243 02:20:14 3201 02:14:33 3210
1768 Mark Ocallaghan Male 104 MOPEN 72 KIRKBY MILERS 00:31:43 117 01:03:57 119 01:24:22 108 01:24:19 116
1304 Kevin Vincent Male 544 M40+ 72 SPA STRIDERS RC 00:37:24 714 01:14:19 610 01:39:47 607 01:37:23 541
3767 David Ohagan Male 639 M45+ 72 00:38:32 922 01:17:06 844 01:42:04 717 01:41:13 789
1372 Liselore Kolff Female 122 FOPEN 72 00:39:01 1009 01:18:56 1008 01:46:32 975 01:44:00 970
2357 Antony Walmsley Male 1015 M50+ 72 LYMM RUNNERS 00:40:27 1306 01:21:17 1257 01:49:31 1175 01:47:18 1233
2998 Michael Eakin Male 1581 M55+ 72 00:43:05 1920 01:27:06 1935 01:59:52 1932 01:54:51 1861
3069 Emma Lunt Female 495 F35+ 72 00:44:31 2237 01:28:18 2055 02:04:48 2355 01:57:42 2110
3862 Sheila Tsao Female 529 F40+ 72 00:44:59 2359 01:31:21 2426 02:06:02 2442 02:02:20 2514
1419 Debs Mcquair Female 717 F45+ 72 CHESTER ROAD RUNNERS 00:51:03 3472 01:39:45 3185 02:12:28 2819 02:10:53 3048
3936 Rosemary Hilton Female 916 F50+ 72 00:48:32 3144 01:39:19 3155 02:20:59 3227 02:13:29 3168
1134 Robert Burgwin Male 105 MOPEN 73 00:31:15 91 01:03:01 96 01:24:26 109 01:24:16 115
1198 Jeffrey Caunce Male 569 M40+ 73 00:37:12 675 01:15:10 681 01:40:11 633 01:39:01 655
4025 Kevin Keegan Male 650 M45+ 73 00:37:37 743 01:16:10 765 01:42:16 729 01:41:38 808
4856 Giulia Rampone Female 123 FOPEN 73 00:39:21 1073 01:19:19 1043 01:46:35 979 01:44:45 1022
4922 William Jackson Male 1021 M50+ 73 00:38:48 969 01:18:40 979 01:49:43 1181 01:45:08 1050
758 Andrew Mcdonnell Male 1586 M55+ 73 00:43:18 1970 01:27:41 1995 01:59:57 1940 01:56:14 1969
2946 Lisa Wright Female 500 F35+ 73 00:44:25 2213 01:30:05 2255 02:04:51 2365 01:59:36 2291
3704 Clare Cockerill Female 531 F40+ 73 00:46:08 2660 01:31:46 2489 02:06:05 2445 02:00:56 2416
1875 Emma Smith Female 728 F45+ 73 00:47:11 2862 01:35:30 2856 02:12:58 2853 02:09:16 2953
3293 Alison Lysons Female 923 F50+ 73 WIDNES RUNNING CLUB 00:48:18 3094 01:40:51 3254 02:21:23 3239 02:15:06 3241
4863 James Cassidy Male 106 MOPEN 74 LIVERPOOL HARRIERS AC 00:31:20 96 01:03:52 115 01:24:28 110 01:24:24 118
4752 James Flatley Male 570 M40+ 74 00:37:22 710 01:14:44 642 01:40:12 634 01:38:56 648
3414 Ian Raymond Male 674 M45+ 74 00:37:11 674 01:15:29 711 01:42:41 759 01:40:23 739
4647 Hannah Brookfield Female 125 FOPEN 74 00:39:52 1181 01:20:22 1161 01:46:48 994 01:45:24 1064
4876 Keith Thompson Male 1031 M50+ 74 00:41:03 1457 01:22:15 1383 01:49:51 1194 01:47:41 1257
1792 Mark Spanner Male 1587 M55+ 74 00:43:18 1969 01:27:23 1956 01:59:58 1941 01:55:49 1935
4741 Kerri-Ann Hudson Female 507 F35+ 74 00:45:25 2474 01:30:42 2326 02:05:02 2383 01:59:26 2270
2739 Helen Jinadu Female 535 F40+ 74 00:46:16 2696 01:31:56 2513 02:06:16 2457 02:00:37 2386
2683 Susan Shea Female 734 F45+ 74 00:49:44 3339 01:38:09 3076 02:13:04 2863 02:07:38 2849
389 June Harnick Female 926 F50+ 74 00:48:54 3211 01:42:57 3368 02:21:28 3244 02:19:15 3405
3871 Stephen Mannings Male 107 MOPEN 75 PENNY LANE STRIDERS 00:31:29 102 01:03:46 112 01:24:30 111 01:24:22 117
1168 Rob Simpson Male 573 M40+ 75 00:37:10 667 01:15:17 689 01:40:16 637 01:39:29 687
3766 Carl Wardle Male 676 M45+ 75 MERSEYSIDE FIRE BRIGADE RC 00:38:19 880 01:16:59 825 01:42:42 761 01:41:22 797
2022 Holly Metcalfe Female 127 FOPEN 75 00:39:54 1185 01:20:14 1145 01:47:14 1013 01:45:59 1100
4898 David Mckenna Male 1052 M50+ 75 PENNY LANE STRIDERS 00:42:09 1700 01:24:00 1578 01:50:13 1218 01:48:50 1359
2924 Chris Kelly Male 1629 M55+ 75 00:44:40 2275 01:29:00 2139 02:00:41 2003 01:57:09 2048
4860 Rebecca Huddleston Female 516 F35+ 75 00:45:30 2495 01:33:06 2625 02:05:35 2408 02:03:12 2573
3559 Suzanne Noble Female 538 F40+ 75 00:44:58 2353 01:31:18 2420 02:06:23 2465 02:01:08 2432
3569 Jane Davies Female 770 F45+ 75 00:48:40 3175 01:37:19 3013 02:14:15 2934 02:08:12 2893
3610 Christine Hall Female 947 F50+ 75 PORTLAND TRI CLUB 00:48:17 3092 01:40:25 3223 02:22:00 3272 02:14:22 3204
2212 Chris Thompson Male 108 MOPEN 76 00:31:30 103 01:04:04 122 01:24:43 112 01:24:29 121
4670 Kenneth Edge Male 577 M40+ 76 00:36:17 501 01:14:03 587 01:40:21 642 01:37:42 566
1621 Simon Smith Male 689 M45+ 76 00:38:43 954 01:17:44 895 01:43:05 780 01:42:03 834
3067 Heather Plumpton Female 131 FOPEN 76 00:38:31 917 01:17:59 915 01:47:39 1043 01:43:52 958
4851 Mike Lever Male 1105 M50+ 76 00:40:31 1321 01:21:26 1274 01:51:10 1288 01:47:59 1278
840 Jonathan Seal Male 1644 M55+ 76 00:44:27 2219 01:28:27 2081 02:00:59 2028 01:56:09 1964
1285 Denise Garrigan Female 520 F35+ 76 KIRKBY MILERS 00:45:51 2599 01:32:43 2592 02:05:38 2413 02:01:50 2473
2735 Samantha Jackson Female 542 F40+ 76 00:45:05 2385 01:31:47 2491 02:06:38 2478 02:01:20 2451
3013 Chris Ratcliff Female 771 F45+ 76 00:48:39 3171 01:37:19 3012 02:14:15 2935 02:08:11 2890
4364 Dawn Owen Female 949 F50+ 76 WARRINGTON RUNNING CLUB 00:54:16 3717 01:46:14 3532 02:22:12 3276 02:14:46 3228
4336 Cameron Williams Male 109 MOPEN 77 SPENBOROUGH DISTRICT AC 00:31:27 100 01:03:37 110 01:24:43 113 01:24:33 122
1064 Neil Goulding Male 581 M40+ 77 SKELMERSDALE BOUNDARY HARRIERS 00:36:57 620 01:15:06 673 01:40:25 647 01:39:26 685
4643 Peter Gough Male 701 M45+ 77 00:38:05 837 01:17:12 855 01:43:19 793 01:42:31 865
357 Lucy Gallagher Female 132 FOPEN 77 00:40:48 1399 01:19:39 1082 01:47:45 1048 01:45:00 1041
3562 Keith Cotton Male 1109 M50+ 77 WHITCHURCH WHIPPETS 00:41:16 1516 01:21:40 1303 01:51:13 1292 01:47:02 1207
4841 Gary Judge Male 1696 M55+ 77 00:43:02 1908 01:27:26 1961 02:01:51 2099 01:57:13 2058
4410 Rebecca Ohara Female 523 F35+ 77 00:44:11 2177 01:30:29 2301 02:05:45 2424 02:00:05 2336
540 Anita Brown Female 543 F40+ 77 00:47:26 2917 01:33:16 2641 02:06:39 2479 02:01:11 2438
2056 Joanne Harris Female 798 F45+ 77 00:48:37 3159 01:37:59 3065 02:15:37 3002 02:09:23 2956
1706 Carolyn Rigby Female 967 F50+ 77 WIDNES WASPS LADIES RC 00:51:03 3473 01:43:10 3380 02:22:56 3307 02:16:38 3300
4990 Christopher Jones Male 110 MOPEN 78 ST. ALBANS STRIDERS 00:32:24 153 01:04:32 138 01:24:48 114 01:24:35 123
2340 Daniel Connolly Male 584 M40+ 78 00:38:25 900 01:15:30 714 01:40:32 650 01:39:01 654
3161 Derek Hughes Male 725 M45+ 78 00:37:43 764 01:17:13 859 01:43:41 820 01:42:54 893
2202 Gabrielle Ogara Female 136 FOPEN 78 PENNY LANE STRIDERS 00:40:22 1286 01:19:20 1047 01:48:08 1077 01:44:05 974
522 Lee Rising Male 1125 M50+ 78 00:40:40 1373 01:23:01 1470 01:51:28 1310 01:49:44 1421
4468 Thomas Walsh Male 1749 M55+ 78 00:44:33 2243 01:29:57 2242 02:02:59 2185 01:58:11 2154
950 Joanne Jones Female 524 F35+ 78 00:44:56 2342 01:29:05 2149 02:05:52 2430 01:57:24 2075
2277 Yvonne Rigby Female 549 F40+ 78 00:45:12 2424 01:31:20 2424 02:06:47 2486 02:00:55 2413
874 Sandra Eastham Female 815 F45+ 78 00:47:47 2983 01:39:59 3198 02:16:14 3035 02:13:24 3165
2373 Tez Almond Female 968 F50+ 78 STORMERS 00:50:13 3391 01:41:40 3296 02:22:59 3308 02:15:55 3282
3025 Gareth Chapman Male 114 MOPEN 79 00:31:31 106 01:04:03 121 01:24:54 118 01:24:26 119
2064 Wayne Wideman Male 596 M40+ 79 00:37:18 695 01:14:46 647 01:40:57 665 01:39:04 659
487 Tony Craig Male 730 M45+ 79 KIRKBY MILERS 00:38:26 906 01:19:36 1075 01:43:45 825 01:42:39 874
3002 Maria Carolina De Paulo Esteves Female 137 FOPEN 79 00:39:44 1146 01:19:11 1025 01:48:09 1078 01:44:25 999
4260 Richard Baker Male 1134 M50+ 79 00:39:28 1087 01:21:37 1298 01:51:38 1320 01:50:09 1452
544 Andy Staveley Male 1834 M55+ 79 BURNDEN ROAD RUNNERS 00:46:07 2655 01:37:03 2992 02:04:22 2313 02:04:08 2641
2862 Abbey Brandwood Female 541 F35+ 79 00:44:57 2349 01:31:54 2509 02:06:32 2472 02:02:34 2528
809 Sian Davies Female 556 F40+ 79 TEAM TRI SPORTS 00:45:52 2602 01:32:12 2539 02:07:13 2511 02:02:58 2556
1032 Stephanie Lee Female 835 F45+ 79 00:47:48 2988 01:38:25 3093 02:17:05 3074 02:10:20 3022
3395 Paula Harriss Female 989 F50+ 79 LITTLEWOODS LEGGERS 00:49:50 3358 01:42:03 3317 02:23:58 3342 02:17:54 3363
468 James Misra Male 116 MOPEN 80 00:31:32 108 01:03:56 117 01:25:01 120 01:24:40 125
4052 Martyn Hussey Male 604 M40+ 80 00:35:37 420 01:13:59 574 01:41:05 674 01:39:13 671
1436 Simon Foote Male 733 M45+ 80 00:38:44 956 01:17:01 830 01:43:48 828 01:41:04 778
3853 Joanne Chan Female 138 FOPEN 80 00:37:48 784 01:19:23 1055 01:48:10 1079 01:47:18 1232
665 Marshall Hall Male 1135 M50+ 80 00:41:41 1608 01:22:24 1398 01:51:38 1321 01:49:08 1381
306 Colin Jones Male 1857 M55+ 80 00:44:59 2362 01:31:30 2456 02:04:47 2350 02:00:57 2417
3624 Sarah Jackson Female 546 F35+ 80 PENNY LANE STRIDERS 00:45:15 2438 01:30:48 2341 02:06:42 2482 01:58:59 2223
1153 Rachel Capstick Female 557 F40+ 80 00:45:51 2601 01:32:13 2541 02:07:14 2512 02:02:59 2557
1292 Paula Smith Female 844 F45+ 80 WIRRAL AC 00:48:02 3038 01:39:43 3184 02:17:36 3089 02:13:38 3173
3423 Deanne Barrow Female 990 F50+ 80 00:52:23 3582 01:44:43 3464 02:24:01 3343 02:17:54 3362
4957 Jay Brittles Male 117 MOPEN 81 DOCKSIDE RUNNERS 00:31:52 130 01:04:19 131 01:25:06 122 01:24:39 124
3966 Carl Yu Male 608 M40+ 81 LIVERPOOL RC 00:36:40 570 01:13:44 550 01:41:08 678 01:40:51 768
2533 Colin Owens Male 739 M45+ 81 00:37:15 683 01:16:29 789 01:44:00 836 01:43:14 911
4578 Amy Kilburn Female 140 FOPEN 81 00:39:52 1179 01:20:43 1206 01:48:20 1092 01:46:12 1117
2042 Sean Ocarroll Male 1164 M50+ 81 ROTARY ROAD RUNNERS 00:41:34 1583 01:22:57 1464 01:52:05 1361 01:48:08 1291
1741 Shaun Newton Male 1882 M55+ 81 SLINN ALLSTARS 00:46:11 2671 01:33:16 2643 02:05:08 2391 02:03:45 2611
1579 Sarah Rogan Female 553 F35+ 81 00:47:10 2859 01:35:06 2813 02:06:59 2499 02:05:25 2714
2019 Antonia Azzara Female 572 F40+ 81 00:46:50 2808 01:34:30 2759 02:07:40 2548 02:03:29 2596
574 Michelle Stammers Female 869 F45+ 81 SE FITNESS 00:49:45 3344 01:39:23 3162 02:18:41 3142 02:12:28 3119
527 Martine Graham Female 1007 F50+ 81 00:49:08 3246 01:41:54 3310 02:24:36 3372 02:16:28 3294
4681 Simon Fawcett Male 119 MOPEN 82 00:31:45 123 01:04:26 135 01:25:12 124 01:25:09 134
2845 Martin Smith Male 613 M40+ 82 PETTS WOOD RUNNERS 00:38:09 852 01:16:32 793 01:41:12 686 01:40:32 742
3063 Ryan Oneill Male 740 M45+ 82 00:38:25 901 01:16:16 773 01:44:00 837 01:40:09 726
4237 Helen Cottingham Female 143 FOPEN 82 00:38:55 987 01:17:40 885 01:48:30 1103 01:42:42 879
66 David Harris Male 1165 M50+ 82 00:40:15 1254 01:22:26 1403 01:52:12 1363 01:49:31 1406
412 Peter Rittenberg Male 1910 M55+ 82 00:45:59 2636 01:32:20 2554 02:05:56 2435 02:00:28 2366
2988 Cheryl Warren Female 555 F35+ 82 00:52:24 3586 01:35:10 2821 02:07:11 2507 02:03:16 2582
2389 Alison Lindsay Female 580 F40+ 82 00:45:33 2510 01:31:41 2478 02:07:55 2560 02:01:09 2434
1578 Joan Tierney Female 872 F45+ 82 00:48:50 3197 01:38:51 3119 02:18:42 3145 02:11:29 3079
644 Gaynor Moore Female 1008 F50+ 82 00:49:08 3247 01:41:56 3311 02:24:36 3373 02:16:28 3295
26 Chris Burton Male 120 MOPEN 83 WIGAN DISTRICT HARRIERS AC 00:31:31 104 01:03:56 118 01:25:14 125 01:25:07 133
2061 Nick Sams Male 615 M40+ 83 00:37:36 739 01:15:37 727 01:41:17 688 01:39:29 688
3385 Rob Hardwick Male 743 M45+ 83 PENNY LANE STRIDERS 00:38:51 977 01:18:25 957 01:44:06 841 01:42:40 876
2769 Liva Baumane Female 144 FOPEN 83 00:39:45 1151 01:20:35 1185 01:48:31 1104 01:46:15 1121
239 Peter Holland Male 1166 M50+ 83 00:41:06 1475 01:21:28 1278 01:52:12 1364 01:46:55 1196
1072 Maurice Daley Male 1925 M55+ 83 00:47:08 2848 01:32:27 2567 02:06:22 2462 02:02:28 2524
3596 Claire Standley Female 560 F35+ 83 KIRKBY MILERS 00:47:04 2836 01:33:55 2701 02:07:20 2520 02:03:28 2593
10389 Patricia Ambrosetti Female 585 F40+ 83 00:47:09 2851 01:32:00 2518 02:08:10 2573 02:00:34 2379
3714 Lucy Evans Female 881 F45+ 83 00:47:44 2976 01:37:28 3021 02:19:01 3156 02:12:09 3105
4201 Karen Littler Female 1042 F50+ 83 00:51:57 3548 01:47:42 3605 02:25:57 3439 02:22:17 3514
3594 James Boardman Male 122 MOPEN 84 MOSSLEY HILL AC 00:32:30 159 01:04:43 143 01:25:18 127 01:25:11 135
4374 Ian Talbot Male 620 M40+ 84 00:37:35 738 01:16:09 764 01:41:38 695 01:40:51 767
3680 Andrew Johnson Male 745 M45+ 84 00:39:56 1192 01:18:11 932 01:44:07 843 01:42:29 862
2813 Therese Sheehan Female 145 FOPEN 84 SALTAIRE STRIDERS 00:39:52 1180 01:20:26 1167 01:48:36 1111 01:46:22 1134
3753 Jaime Ensenat Male 1177 M50+ 84 00:42:00 1671 01:24:07 1594 01:52:21 1376 01:50:25 1476
3678 Andrew Wyllie Male 1950 M55+ 84 00:43:06 1923 01:29:36 2197 02:07:07 2504 02:01:42 2468
3553 Joanne Bowles Female 561 F35+ 84 00:45:24 2471 01:31:55 2510 02:07:24 2526 02:02:30 2526
615 Donna Miller Female 586 F40+ 84 00:47:08 2847 01:34:16 2733 02:08:15 2574 02:04:42 2675
3410 Helen Eaton Female 887 F45+ 84 00:49:24 3290 01:40:31 3231 02:19:22 3167 02:13:39 3176
3500 Sandra Freeman Female 1061 F50+ 84 00:49:19 3277 01:41:17 3278 02:27:00 3466 02:21:27 3486
4122 Zbigniew Chrzanowski Male 124 MOPEN 85 KJ CREW 00:32:42 178 01:04:16 127 01:25:22 129 01:24:16 114
4371 Richard Owen Male 624 M40+ 85 00:38:36 934 01:16:28 788 01:41:43 700 01:40:33 745
3372 Neil Sanders Male 787 M45+ 85 00:38:25 903 01:18:02 921 01:44:56 897 01:43:38 933
1148 Laura Jefferies Female 146 FOPEN 85 00:38:58 1000 01:20:49 1215 01:48:37 1113 01:47:33 1248
507 Nigel Howard Male 1178 M50+ 85 PENSBY RUNNERS 00:40:29 1315 01:22:47 1445 01:52:21 1377 01:49:58 1439
4263 Colin Duggan Male 1969 M55+ 85 LIVERPOOL RC 00:45:37 2535 01:32:05 2530 02:07:30 2532 02:02:05 2496
4537 Jules Franklin Female 565 F35+ 85 00:46:46 2792 01:32:53 2604 02:07:34 2537 02:02:02 2493
2029 Jenny Davies Female 587 F40+ 85 00:47:59 3028 01:34:07 2725 02:08:16 2575 02:01:50 2474
276 Katy Oleary Female 890 F45+ 85 GREAT BENTLEY RC 00:50:01 3371 01:46:28 3550 02:19:34 3174 02:16:04 3286
2069 Ruth Grey Female 1076 F50+ 85 00:52:12 3567 01:45:09 3485 02:27:54 3497 02:20:45 3457
916 Jeremy Hulse Male 125 MOPEN 86 00:31:09 88 01:02:47 90 01:25:31 130 01:22:57 88
3708 Chris Lawson Male 626 M40+ 86 00:37:40 753 01:15:44 731 01:41:45 702 01:39:48 709
1986 Alastair Flett Male 795 M45+ 86 00:38:02 827 01:18:30 966 01:45:04 905 01:44:06 977
319 Amy Ankers Female 147 FOPEN 86 00:40:52 1414 01:20:57 1225 01:48:38 1115 01:46:32 1154
4166 Patrick Brennan Male 1182 M50+ 86 QUEENS HARRIERS AC 00:42:18 1738 01:24:04 1585 01:52:23 1383 01:48:51 1363
2993 Jo Bruchez-Corbett Female 568 F35+ 86 PENNY LANE STRIDERS 00:44:56 2344 01:31:28 2449 02:07:37 2543 02:02:26 2522
1313 Michelle Traynor Female 589 F40+ 86 00:44:53 2328 01:35:08 2817 02:08:25 2580 02:06:15 2752
1500 Neil Frost Male 1992 M55+ 86 00:46:39 2771 01:33:49 2698 02:08:25 2582 02:03:22 2589
2351 Gail Cartwright Female 902 F45+ 86 CHORLTON RUNNERS 00:51:22 3500 01:41:16 3275 02:20:10 3200 02:12:55 3141
3109 Rosalind Pilgrim Female 1083 F50+ 86 00:51:02 3471 01:45:13 3491 02:28:24 3511 02:22:10 3511
1454 James Hills Male 128 MOPEN 87 00:31:48 127 01:04:21 132 01:25:53 134 01:24:52 130
703 Gareth Williams Male 630 M40+ 87 00:37:51 792 01:16:06 760 01:41:51 706 01:40:55 771
4147 Ivan Pitman Male 801 M45+ 87 00:39:57 1195 01:18:57 1011 01:45:10 911 01:43:39 934
4968 Sarah Lockett Female 150 FOPEN 87 STOKE FIT 00:39:46 1154 01:20:22 1160 01:48:56 1131 01:46:13 1119
652 George Fraser Male 1192 M50+ 87 00:40:52 1418 01:23:38 1537 01:52:33 1394 01:51:16 1554
4725 Lisa Hutchinson Female 570 F35+ 87 JULIES JOGGERS 00:44:41 2282 01:30:24 2285 02:07:39 2545 02:00:31 2374
839 Elizabeth Jones Female 601 F40+ 87 ST. HELENS STRIDERS 00:46:27 2734 01:35:26 2851 02:08:41 2605 02:07:06 2809
3138 Martin Hegarty Male 2005 M55+ 87 00:45:22 2465 01:31:04 2392 02:08:42 2606 02:00:06 2339
4971 Yolla Mccoy Female 914 F45+ 87 WIRRAL AC 00:49:02 3229 01:40:30 3230 02:20:48 3224 02:15:32 3263
2422 Lindsey Camborne-Paynter Female 1093 F50+ 87 00:49:05 3235 01:43:23 3391 02:29:08 3527 02:22:38 3525
1151 Craig Thomas Male 131 MOPEN 88 DOCKSIDE RUNNERS 00:30:57 79 01:03:32 109 01:26:01 137 01:25:33 139
4800 Paddy Howlin Male 633 M40+ 88 00:38:13 866 01:16:39 799 01:41:57 709 01:41:04 776
4788 Arron Hodder Male 806 M45+ 88 00:39:11 1045 01:18:54 1005 01:45:16 916 01:41:17 794
2741 Louise Oconnor Female 152 FOPEN 88 00:39:46 1155 01:20:40 1200 01:49:04 1141 01:46:31 1152
3778 William Staniard Male 1194 M50+ 88 STOCKPORT TRI CLUB 00:40:41 1379 01:21:55 1336 01:52:35 1398 01:47:57 1276
1693 Denise Campbell Female 576 F35+ 88 00:47:21 2908 01:34:36 2770 02:07:49 2553 02:03:42 2610
2353 Melanie Sayed Female 611 F40+ 88 00:46:17 2700 01:32:41 2590 02:09:15 2633 02:02:48 2538
1552 Dave Baker Male 2028 M55+ 88 00:44:52 2320 01:30:58 2368 02:09:20 2641 02:04:57 2687
680 Julie Williams Female 939 F45+ 88 00:49:33 3317 01:42:52 3366 02:21:41 3262 02:16:35 3299
3378 Pauline Oram Female 1098 F50+ 88 00:50:57 3459 01:45:26 3499 02:29:20 3536 02:23:50 3564
4978 Andrew Stanton Male 132 MOPEN 89 00:32:51 187 01:05:20 157 01:26:02 138 01:25:53 146
1002 Andrew Maton Male 634 M40+ 89 00:38:35 931 01:17:15 861 01:41:57 710 01:41:15 791
4796 Lucio Neto Male 807 M45+ 89 00:37:03 644 01:16:43 807 01:45:16 917 01:43:42 937
2654 Helen Oakley Female 153 FOPEN 89 00:38:40 940 01:20:04 1125 01:49:05 1144 01:47:46 1263
1412 Ian Cuthbert Male 1222 M50+ 89 00:40:40 1369 01:22:56 1460 01:52:59 1431 01:50:59 1533
929 Tamsin Clark Female 577 F35+ 89 00:44:53 2327 01:32:22 2556 02:07:50 2554 02:03:54 2620
4357 Jayne Russell Female 627 F40+ 89 KIRKBY MILERS 00:47:58 3025 01:35:14 2828 02:09:39 2660 02:03:40 2608
1824 Richard Smith Male 2037 M55+ 89 SALTAIRE STRIDERS 00:46:05 2649 01:33:37 2685 02:09:53 2674 02:05:46 2734
4641 Liz Keeble Female 941 F45+ 89 00:50:13 3390 01:43:31 3398 02:21:49 3265 02:15:23 3256
2421 Caroline Van Aartrijk Female 1107 F50+ 89 RUNDOHARUN 00:59:16 3934 01:51:04 3703 02:29:50 3549 02:21:43 3492
4111 Matthew Williams Male 134 MOPEN 90 00:32:24 152 01:05:05 151 01:26:02 140 01:25:45 143
2339 Timothy Stephen Male 644 M40+ 90 00:36:33 547 01:14:10 597 01:42:09 722 01:38:14 596
3296 Michael Miller Male 809 M45+ 90 KIRKBY MILERS 00:39:10 1040 01:19:04 1019 01:45:19 919 01:44:20 988
999 Charlotte Roberts Female 156 FOPEN 90 00:40:41 1380 01:20:20 1155 01:49:11 1151 01:45:53 1094
1790 Frank Beecroft Male 1240 M50+ 90 SALTAIRE STRIDERS 00:39:35 1116 01:22:31 1414 01:53:19 1452 01:51:12 1548
3425 Julie Barton Female 578 F35+ 90 UKA RUN LEADER JULIES JOGGERS 00:44:41 2279 01:30:23 2279 02:07:53 2557 02:00:45 2398
4098 Brenda Smith Female 630 F40+ 90 LIVERPOOL HARRIERS AC 00:45:52 2607 01:32:46 2595 02:09:41 2663 02:03:56 2623
829 Peter Davies Male 2050 M55+ 90 00:45:40 2553 01:33:18 2653 02:10:31 2709 02:05:06 2693
1062 Sue Pleavin Female 972 F45+ 90 00:50:35 3432 01:43:21 3389 02:23:08 3317 02:17:36 3348
4090 Julie Burman Female 1142 F50+ 90 00:55:10 3763 01:49:24 3660 02:31:30 3602 02:24:08 3572
3269 Paul Ashton Male 136 MOPEN 91 00:32:22 150 01:04:56 148 01:26:22 144 01:25:56 147
4538 Robbie Trecarichi Male 647 M40+ 91 SOUTHPORT WATERLOO AC 00:37:52 794 01:16:43 805 01:42:12 725 01:41:07 781
745 James Doolan Male 814 M45+ 91 LIVERPOOL PEMBROKE SEFTON HARR 00:38:50 974 01:17:29 878 01:45:27 925 01:41:59 831
4416 Rose Haywood Female 158 FOPEN 91 00:39:26 1083 01:21:02 1233 01:49:17 1156 01:47:51 1270
2066 Peter Bailey Male 1251 M50+ 91 00:41:51 1645 01:24:03 1584 01:53:32 1468 01:50:58 1529
4835 Gill Rimmer Female 582 F35+ 91 00:44:33 2245 01:31:09 2400 02:08:02 2568 02:02:41 2531
309 Nikki Hannaway Female 647 F40+ 91 00:47:12 2867 01:33:37 2684 02:10:11 2688 02:04:32 2667
254 Paul Needham Male 2058 M55+ 91 00:47:07 2844 01:34:58 2800 02:10:50 2728 02:03:49 2616
2327 Jane Berry Female 981 F45+ 91 00:49:11 3259 01:43:26 3394 02:23:28 3330 02:19:33 3415
2313 Caroline Moscrop Female 1155 F50+ 91 00:56:13 3822 01:50:10 3681 02:32:15 3623 02:24:02 3570
4554 Matthieu Vin Male 139 MOPEN 92 MERSEY-TRI 00:32:22 149 01:05:20 156 01:26:32 147 01:26:21 152
4801 Mark Bennett Male 649 M40+ 92 00:38:32 920 01:16:22 782 01:42:14 727 01:39:02 656
710 Rich Stewart Male 829 M45+ 92 00:38:58 1002 01:18:20 948 01:45:54 943 01:44:34 1012
2194 Lindsey Jones Female 159 FOPEN 92 MOSSLEY HILL AC 00:40:37 1355 01:21:38 1300 01:49:24 1166 01:47:47 1265
810 Dominik Schneider Male 1256 M50+ 92 00:41:31 1568 01:24:20 1608 01:53:37 1473 01:51:24 1570
2049 Rebecca Varnouse Female 595 F35+ 92 PENNY LANE STRIDERS 00:46:25 2730 01:32:24 2562 02:08:34 2596 02:00:48 2404
199 Helen Bedford Female 656 F40+ 92 00:45:29 2490 01:31:33 2461 02:10:21 2702 02:04:33 2668
4943 Peter Clarke Male 2063 M55+ 92 00:48:45 3185 01:38:46 3114 02:10:54 2733 02:07:34 2841
4513 Dassa Roche Female 986 F45+ 92 00:51:09 3484 01:43:32 3399 02:23:47 3336 02:17:12 3323
2619 Julie Webb Female 1177 F50+ 92 00:52:24 3585 01:46:53 3570 02:33:46 3656 02:26:50 3652
1999 Christopher Moss Male 140 MOPEN 93 SHEFFIELD RUNNING CLUB 00:32:13 140 01:04:54 147 01:26:37 148 01:26:13 151
753 Iain Durkin Male 654 M40+ 93 THE ENDURANCE PROJECT 00:36:50 597 01:15:08 675 01:42:20 734 01:41:43 812
3240 Paul Dabbs Male 830 M45+ 93 00:37:42 760 01:17:23 870 01:45:58 945 01:44:16 985
2667 Katarina Chichester Kaner Female 163 FOPEN 93 00:39:37 1121 01:21:44 1311 01:49:51 1190 01:48:38 1341
909 Richard Baldwin Male 1263 M50+ 93 WOOTTON ROAD RUNNERS 00:43:25 2001 01:25:20 1716 01:53:42 1481 01:50:24 1474
3523 Josephine Brady Female 616 F35+ 93 00:47:00 2826 01:34:24 2744 02:09:23 2644 02:05:30 2717
34 Karen Joynson Female 669 F40+ 93 GATESHEAD HARRIERS AC 00:45:47 2583 01:34:52 2789 02:10:47 2726 02:06:44 2781
2805 Steve Prichard Male 2103 M55+ 93 00:47:56 3018 01:35:52 2894 02:12:29 2821 02:06:58 2802
2181 Tracey Turri Female 994 F45+ 93 00:49:06 3240 01:42:22 3334 02:24:10 3352 02:18:46 3388
3101 Tracy Thomas Female 1179 F50+ 93 00:50:57 3456 01:48:56 3645 02:33:50 3658 02:28:41 3686
1722 Daniel Mckevitt Male 141 MOPEN 94 KIRKBY MILERS 00:32:40 175 01:05:54 170 01:26:41 149 01:26:32 156
4399 Simon Ost Male 665 M40+ 94 00:38:11 863 01:16:44 808 01:42:30 746 01:41:39 809
1826 Philip Hughes Male 833 M45+ 94 00:40:07 1221 01:19:18 1041 01:46:08 948 01:44:05 973
1818 Brie Higham Female 167 FOPEN 94 00:40:28 1308 01:22:06 1365 01:50:15 1221 01:49:23 1396
2907 Paul Randall Male 1265 M50+ 94 HEADINGTON RRC 00:40:47 1397 01:23:15 1502 01:53:45 1483 01:52:07 1632
2250 Katharine Taggart Female 617 F35+ 94 ST. HELENS STRIDERS 00:47:35 2950 01:34:40 2774 02:09:23 2645 02:03:32 2599
1322 Anke Bosmans Female 679 F40+ 94 00:48:20 3097 01:38:02 3067 02:11:02 2744 02:09:26 2964
3472 Geoff Caldwell Male 2118 M55+ 94 00:47:46 2980 01:36:16 2927 02:12:50 2841 02:07:09 2811
3400 Sarah Webber Female 1005 F45+ 94 CHESTER ROAD RUNNERS 00:52:02 3557 01:42:20 3333 02:24:33 3370 02:16:48 3309
3256 Fiona Moffat Female 1248 F50+ 94 00:56:18 3824 01:54:18 3800 02:40:30 3789 02:33:21 3776
1740 Nathan Austin Male 142 MOPEN 95 SLINN ALLSTARS 00:32:45 181 01:05:49 167 01:26:48 150 01:26:36 157
1904 Jordi Gumbau Male 672 M40+ 95 00:37:08 661 01:15:54 749 01:42:39 757 01:41:50 821
3209 John Howarth Male 835 M45+ 95 00:37:39 748 01:16:49 814 01:46:10 952 01:45:01 1044
1440 Zoe Warrington Female 168 FOPEN 95 00:40:35 1343 01:22:04 1360 01:50:16 1222 01:49:03 1376
2184 Kevin Field Male 1286 M50+ 95 00:42:00 1672 01:24:08 1596 01:54:07 1513 01:51:43 1587
2282 Laura Samaroo Female 622 F35+ 95 00:44:49 2313 01:31:44 2487 02:09:26 2652 02:04:12 2645
3095 Lynne Doyle Female 682 F40+ 95 00:46:21 2713 01:34:04 2720 02:11:19 2755 02:04:56 2685
1649 Emmett Graham Male 2131 M55+ 95 100 MARATHON CLUB 00:45:46 2579 01:35:32 2858 02:13:10 2868 02:06:29 2768
4079 Alex Cook Female 1014 F45+ 95 00:51:22 3498 01:43:36 3404 02:24:45 3381 02:17:36 3350
678 Angela Maher Female 1281 F50+ 95 00:55:23 3774 01:56:16 3846 02:43:44 3840 02:40:43 3869
1482 Marc Goudie Male 144 MOPEN 96 PENNY LANE STRIDERS 00:32:29 158 01:05:39 163 01:26:55 152 01:26:30 155
3682 Tadie Abeki Male 679 M40+ 96 00:37:07 657 01:13:21 524 01:42:46 765 01:35:56 456
4506 Colin Ratcliffe Male 836 M45+ 96 00:39:40 1134 01:19:43 1089 01:46:10 953 01:45:16 1056
4106 Jennifer Saint Female 169 FOPEN 96 00:40:09 1228 01:20:34 1180 01:50:16 1223 01:46:28 1147
765 Colin Wilson Male 1288 M50+ 96 ST. HELENS STRIDERS 00:42:59 1897 01:25:59 1806 01:54:08 1516 01:52:33 1659
455 Hayley Tattan Female 624 F35+ 96 00:45:13 2428 01:33:20 2662 02:09:30 2654 02:09:24 2961
3974 Madeleine Cocker Female 691 F40+ 96 WARRINGTON RUNNING CLUB 00:47:43 2975 01:36:12 2925 02:11:37 2773 02:06:52 2794
3363 Stephen Ellis Male 2171 M55+ 96 00:49:22 3284 01:37:43 3043 02:14:29 2944 02:07:19 2822
3436 Beverley Rowan Female 1015 F45+ 96 00:52:33 3602 01:44:54 3476 02:24:45 3382 02:17:48 3356
330 Nicola Errington Female 1314 F50+ 96 00:58:47 3926 02:01:07 3909 02:50:16 3894 02:42:12 3880
1224 Matthew Whalley Male 145 MOPEN 97 KIRKBY MILERS 00:32:36 168 01:05:55 171 01:27:00 154 01:26:52 163
10364 Peter Cook Male 681 M40+ 97 00:38:00 818 01:16:35 797 01:42:47 767 01:41:22 796
4660 David Griffiths Male 841 M45+ 97 PENNY LANE STRIDERS 00:39:35 1115 01:18:44 990 01:46:17 959 01:43:34 926
3175 Amy Marie Askew Female 171 FOPEN 97 00:40:10 1237 01:20:38 1192 01:50:19 1227 01:47:01 1206
3208 Andrew Pollard Male 1291 M50+ 97 00:40:38 1361 01:21:52 1328 01:54:15 1520 01:52:29 1655
2811 Rachel Freedman Female 626 F35+ 97 00:46:15 2691 01:33:21 2664 02:09:37 2658 02:03:06 2563
4556 Janet Janet Joshua Female 692 F40+ 97 00:47:18 2893 01:34:54 2793 02:11:38 2775 02:06:23 2760
4389 Jonty Clews Male 2186 M55+ 97 00:49:00 3223 01:38:02 3069 02:14:51 2967 02:08:06 2885
1170 Alison Dubury Female 1019 F45+ 97 00:54:15 3714 01:46:15 3533 02:24:53 3388 02:17:27 3341
1290 Kim Lloyd Simmons Female 1342 F50+ 97 00:59:12 3931 02:04:52 3942 02:56:14 3931 02:48:31 3923
3550 Tim Fletcher Male 146 MOPEN 98 SHEFFIELD RUNNING CLUB 00:32:24 151 01:05:08 153 01:27:02 155 01:26:54 164
3103 Stephen Catterall Male 683 M40+ 98 WALLASEY AC 00:37:37 740 01:15:15 688 01:42:58 771 01:38:55 645
3099 Graham Hughes Male 843 M45+ 98 00:40:00 1202 01:19:43 1088 01:46:18 961 01:44:06 976
3895 Sophie Dillon Female 173 FOPEN 98 00:39:48 1160 01:20:13 1143 01:50:24 1234 01:46:49 1187
510 Steve Barrett Male 1295 M50+ 98 00:41:38 1598 01:23:41 1544 01:54:21 1524 01:50:55 1522
3014 Rosie Cascone Female 631 F35+ 98 00:44:21 2202 01:32:53 2606 02:09:41 2664 02:05:02 2691
3054 Samantha Tennant Female 697 F40+ 98 LYMM RUNNERS 00:48:02 3042 01:36:11 2923 02:11:51 2787 02:06:10 2745
2138 Craig Stewart Male 2210 M55+ 98 00:47:43 2974 01:37:27 3019 02:15:50 3014 02:10:33 3030
147 Michelle Smith Female 1020 F45+ 98 RESOLUTION RUNNERS 00:54:17 3719 01:46:17 3536 02:24:54 3389 02:17:29 3344
4046 Helen Devonport Female 1345 F50+ 98 01:00:47 3960 02:04:53 3943 02:56:44 3935 02:48:26 3921
3369 Bradley Williams Male 148 MOPEN 99 00:30:38 65 01:02:27 80 01:27:06 157 01:22:34 75
4223 John Jones Male 686 M40+ 99 00:38:40 942 01:16:07 762 01:43:01 774 01:38:52 642
4931 John Champion Male 848 M45+ 99 00:38:51 978 01:19:58 1107 01:46:25 968 01:45:46 1087
2743 Rebecca Watterson Female 174 FOPEN 99 00:39:49 1166 01:20:47 1213 01:50:27 1236 01:48:09 1293
3053 David Bailey Male 1317 M50+ 99 00:41:29 1561 01:24:05 1588 01:54:56 1557 01:51:45 1593
4814 Katalin Barsony Female 651 F35+ 99 00:47:50 2995 01:35:20 2841 02:10:15 2695 02:05:27 2715
888 Lorraine Warburton Female 698 F40+ 99 00:48:24 3111 01:36:10 2916 02:11:51 2788 02:05:47 2736
2394 William Bradley Male 2217 M55+ 99 RUNNING WITH BILL 00:47:34 2947 01:37:01 2987 02:16:03 3028 02:10:11 3016
4105 Joanne Oconnell Female 1024 F45+ 99 00:48:51 3200 01:41:29 3287 02:25:10 3399 02:19:25 3412
4484 Bridget Reasbeck Female 1352 F50+ 99 01:04:46 3994 02:08:54 3974 02:57:14 3945 02:49:12 3931
1288 Daniel Alexander Male 149 MOPEN 100 KIRKBY MILERS 00:32:19 146 01:05:39 164 01:27:13 158 01:27:09 169
3561 Chris Wills Male 696 M40+ 100 KNOWSLEY HARRIERS 00:37:48 782 01:16:43 806 01:43:15 787 01:40:38 753
4358 Derek Gibbon Male 871 M45+ 100 00:38:34 927 01:17:58 913 01:46:51 996 01:43:58 969
4828 Millie Mercer Female 176 FOPEN 100 00:40:08 1225 01:20:26 1166 01:50:46 1252 01:46:16 1123
3493 James Lambe Male 1353 M50+ 100 00:40:35 1344 01:23:53 1563 01:55:35 1610 01:54:29 1822
3611 Sarah Brewster Female 657 F35+ 100 MOORSIDE PARK RUN CLUB 00:46:48 2799 01:34:03 2716 02:10:25 2705 02:04:01 2633
4261 Francesca Davies Female 710 F40+ 100 ELLESMERE PORT RC 00:47:06 2842 01:35:50 2890 02:12:17 2807 02:07:41 2857
3783 Ian Stott Male 2222 M55+ 100 00:47:58 3027 01:37:06 2997 02:16:16 3037 02:10:05 3006
1410 Joanne Lowe Female 1027 F45+ 100 00:48:57 3215 01:43:27 3396 02:25:15 3404 02:19:11 3400
4656 Elizabeth Eaton Female 1377 F50+ 100 00:59:34 3939 02:07:06 3965 03:06:24 3982 02:58:18 3979
10350 Paul Curtis Male 150 MOPEN 101 ABERDEEN AAC 00:32:36 169 01:06:18 180 01:27:16 159 01:27:13 172
1751 Andrew Collins Male 700 M40+ 101 00:38:19 883 01:17:02 832 01:43:18 792 01:41:33 804
4919 Patrick Rice Male 875 M45+ 101 00:38:51 980 01:18:38 977 01:46:56 1000 01:44:45 1023
4688 Gill Welsby Female 177 FOPEN 101 00:39:33 1108 01:20:42 1202 01:50:48 1256 01:47:12 1222
804 Kai Roggenbuck Male 1366 M50+ 101 00:41:56 1659 01:25:50 1778 01:55:46 1627 01:53:32 1737
1597 Linda Harding Female 664 F35+ 101 00:47:56 3019 01:34:25 2747 02:10:41 2718 02:04:56 2686
4727 Tanya Downes Female 718 F40+ 101 HELSBY (BICC) RC 00:46:30 2743 01:35:33 2860 02:12:29 2820 02:09:03 2937
1325 Michael Burgan Male 2225 M55+ 101 00:47:10 2860 01:36:47 2965 02:16:20 3043 02:09:08 2941
1874 Rachel Hughes Female 1034 F45+ 101 00:49:29 3307 01:46:02 3517 02:25:42 3419 02:22:01 3507
140 Jayne Telford Female 1387 F50+ 101 01:04:36 3990 02:15:29 3998 03:11:23 3994 03:03:02 3989
700 Thomas Webb Male 155 MOPEN 102 00:31:25 99 01:04:34 139 01:27:25 164 01:27:08 168
4189 Paul Warrington Male 705 M40+ 102 SOUTHPORT WATERLOO AC 00:36:41 575 01:14:46 648 01:43:21 797 01:42:52 890
3836 Stephen Porter Male 881 M45+ 102 00:38:19 881 01:17:07 846 01:47:09 1007 01:43:51 956
4536 Sara Biggio Female 180 FOPEN 102 00:42:10 1704 01:23:13 1499 01:50:59 1267 01:49:08 1382
594 Barry Powell Male 1375 M50+ 102 00:41:52 1646 01:24:54 1667 01:56:01 1647 01:54:06 1789
4432 Natasha Mather Female 668 F35+ 102 00:45:55 2623 01:33:20 2661 02:10:44 2725 02:02:23 2516
1870 Sharon Mccreadie Female 729 F40+ 102 00:48:35 3154 01:38:53 3123 02:13:02 2856 02:07:00 2807
4887 Edison Llanos Male 2226 M55+ 102 00:51:08 3478 01:40:47 3250 02:16:21 3045 02:12:35 3125
1906 Gail Barratt Female 1040 F45+ 102 00:50:35 3433 01:45:19 3492 02:25:55 3435 02:22:46 3530
1811 Julie Curran Female 1404 F50+ 102 01:17:00 4012 02:43:45 4018 03:57:25 4019 03:48:57 4016
900 Neil Tully Male 156 MOPEN 103 00:32:59 193 01:06:03 173 01:27:26 165 01:26:51 162
2459 Peter Medlicott Male 709 M40+ 103 ST. HELENS STRIDERS 00:38:40 939 01:17:55 907 01:43:23 801 01:42:43 882
174 Mark Gaglione Male 882 M45+ 103 00:41:06 1474 01:21:22 1266 01:47:09 1008 01:46:10 1115
3756 Sarah Blacker Female 182 FOPEN 103 MERSEY-TRI 00:39:57 1194 01:20:39 1196 01:51:08 1284 01:47:01 1205
1988 Peter Nichols Male 1379 M50+ 103 00:41:41 1607 01:24:02 1583 01:56:04 1654 01:53:06 1703
1750 Rachael Collins Female 670 F35+ 103 00:45:40 2551 01:34:26 2748 02:10:48 2727 02:08:59 2933
1798 Joanne Finch Female 750 F40+ 103 00:46:20 2710 01:35:29 2855 02:13:36 2894 02:07:32 2838
1248 Dewi Griffiths Male 2257 M55+ 103 FYLDE COAST RUNNERS 00:49:22 3286 01:38:53 3124 02:17:59 3105 02:10:45 3040
4772 Rachel Henderson Female 1043 F45+ 103 LYMM RUNNERS 00:52:18 3573 01:47:41 3604 02:26:10 3442 02:23:43 3555
4759 Joan Comenge Male 157 MOPEN 104 00:31:45 122 01:05:05 150 01:27:29 166 01:27:23 178
1314 Neil Sahgal Male 711 M40+ 104 MERSEY-TRI 00:38:08 844 01:16:42 804 01:43:25 803 01:42:20 852
3504 Paul Aspinall Male 883 M45+ 104 00:40:11 1242 01:21:32 1291 01:47:09 1009 01:46:54 1193
836 Gwen Holeyman Female 183 FOPEN 104 00:41:29 1562 01:22:33 1419 01:51:08 1287 01:48:35 1338
2562 Michael Seitler Male 1383 M50+ 104 00:42:40 1844 01:26:32 1862 01:56:06 1659 01:53:41 1751
3566 Andrea Merry Female 671 F35+ 104 00:49:00 3222 01:35:22 2845 02:10:54 2734 02:03:32 2600
2546 Michelle Lowry-Bartram Female 753 F40+ 104 00:47:13 2876 01:35:43 2879 02:13:37 2897 02:08:24 2906
4333 Matthew Tollitt Male 2272 M55+ 104 PENNY LANE STRIDERS 00:46:50 2809 01:36:43 2961 02:18:35 3138 02:14:33 3211
1947 Faridah Brooker Female 1048 F45+ 104 00:55:06 3759 01:46:43 3559 02:26:20 3447 02:19:49 3427
3501 Jack Goetzee Male 159 MOPEN 105 00:31:37 112 01:02:23 76 01:27:31 168 01:22:11 71
1631 Andy Hammerton Male 712 M40+ 105 00:38:08 846 01:16:58 823 01:43:26 804 01:41:49 820
2842 Noel Fitzpatrick Male 895 M45+ 105 SALTAIRE STRIDERS 00:38:05 834 01:18:40 982 01:47:26 1022 01:46:17 1125
4730 Natasha Chatham-Zvelebil Female 186 FOPEN 105 00:39:28 1085 01:21:43 1310 01:51:33 1316 01:50:08 1450
3923 Angus Scott-Brown Male 1394 M50+ 105 00:40:56 1436 01:25:29 1733 01:56:19 1676 01:54:13 1799
1604 Karen Kelly Female 676 F35+ 105 KIRKBY MILERS 00:45:38 2541 01:34:01 2713 02:11:00 2741 02:05:01 2690
636 Louise Partridge Female 755 F40+ 105 00:47:31 2934 01:35:38 2871 02:13:37 2902 02:07:21 2827
113 Bill Murray Male 2292 M55+ 105 00:46:58 2822 01:40:25 3225 02:19:51 3187 02:14:43 3226
1946 Bev Faulkner Female 1049 F45+ 105 00:55:06 3756 01:46:46 3562 02:26:20 3448 02:19:49 3426
77 Sam Chapman Male 161 MOPEN 106 00:32:14 143 01:05:39 165 01:27:36 170 01:27:12 171
3785 David Higgins Male 715 M40+ 106 00:36:26 528 01:14:56 657 01:43:30 808 01:42:34 868
2989 Maksud Valli Patel Male 905 M45+ 106 PRESTON HARRIERS 00:37:54 797 01:17:43 891 01:47:33 1034 01:44:33 1011
402 Chloe Powell Female 187 FOPEN 106 00:40:18 1264 01:23:02 1471 01:51:41 1325 01:50:12 1460
4805 Leslie Clayton Male 1406 M50+ 106 00:41:50 1638 01:25:40 1754 01:56:39 1694 01:55:37 1913
3709 Viktoryia Tsikhanovich Female 681 F35+ 106 00:46:25 2731 01:34:25 2746 02:11:19 2754 02:07:48 2863
2831 Sharon Cox Female 769 F40+ 106 00:45:52 2603 01:35:11 2822 02:14:08 2932 02:08:23 2903
2572 John Russell Parramore Male 2305 M55+ 106 SOUTH YORKS POLICE SPORTS SOCI 00:48:27 3122 01:42:02 3316 02:20:29 3216 02:15:14 3249
1538 Louise Riley Female 1063 F45+ 106 00:52:49 3624 01:45:19 3493 02:27:05 3468 02:19:31 3414
214 John Mclaren Male 162 MOPEN 107 00:32:33 166 01:06:01 172 01:27:39 171 01:27:16 174
768 John Thilwind Male 716 M40+ 107 00:39:05 1021 01:15:32 715 01:43:31 810 01:38:00 580
3488 Andy Kellar Male 908 M45+ 107 00:39:40 1133 01:19:36 1076 01:47:35 1037 01:44:31 1007
4310 Nicola Jones Female 189 FOPEN 107 00:38:56 994 01:19:14 1028 01:51:43 1329 01:47:11 1220
1879 Paul Mcdonald Male 1437 M50+ 107 00:42:34 1810 01:23:42 1551 01:57:06 1739 01:49:42 1418
1347 Lydia Quayle Female 690 F35+ 107 00:46:00 2638 01:35:18 2837 02:11:33 2772 02:08:14 2896
1729 Lindsey Collier Female 784 F40+ 107 00:48:02 3037 01:36:29 2940 02:14:58 2970 02:08:40 2920
106 Tom Hampton Male 2324 M55+ 107 VICTORIA PARK RUNNING CLUB 00:48:40 3173 01:43:58 3431 02:21:46 3264 02:19:00 3397
4367 Baljit Johnson Female 1085 F45+ 107 00:53:38 3682 01:47:50 3612 02:28:33 3514 02:21:24 3484
3433 Terence Forrest Male 163 MOPEN 108 CAIRNGORM RUNNERS 00:29:27 33 00:59:50 38 01:27:39 172 01:18:29 28
4550 John Sloan Male 718 M40+ 108 00:38:35 930 01:17:34 883 01:43:34 812 01:42:57 895
4985 Stuart Naisby Male 916 M45+ 108 00:38:39 937 01:18:33 970 01:47:44 1047 01:46:08 1111
1862 Edwina Coward Female 194 FOPEN 108 00:39:42 1138 01:21:47 1317 01:51:53 1346 01:50:17 1464
3055 Andrew Snowdon Male 1438 M50+ 108 00:40:55 1432 01:23:52 1561 01:57:06 1740 01:53:02 1698
890 Alison Swan Female 699 F35+ 108 00:48:23 3108 01:36:09 2915 02:11:51 2789 02:05:47 2737
1212 Julie Charnock Female 786 F40+ 108 00:47:42 2972 01:36:56 2977 02:15:00 2975 02:09:52 2994
3225 John Lynch Male 2338 M55+ 108 00:49:13 3268 01:39:45 3186 02:22:38 3300 02:14:58 3236
1171 Audra Matthews Female 1087 F45+ 108 00:51:19 3495 01:48:31 3633 02:28:41 3518 02:25:04 3607
2803 Lee Moore Male 164 MOPEN 109 KIRKBY MILERS 00:33:05 198 01:06:21 183 01:27:40 173 01:27:30 185
2134 Andrew Whitmore Male 723 M40+ 109 00:39:17 1058 01:18:01 920 01:43:40 818 01:42:36 869
4472 Jason Wilkinson Male 938 M45+ 109 00:38:41 949 01:18:43 988 01:48:02 1073 01:44:53 1033
2176 Rosa Duffy Female 195 FOPEN 109 00:42:00 1674 01:23:22 1509 01:51:55 1350 01:48:05 1284
1011 Stan Jones Male 1444 M50+ 109 00:40:41 1382 01:22:41 1434 01:57:13 1749 01:49:48 1425
1779 Erin Williams Female 702 F35+ 109 00:48:25 3116 01:36:36 2949 02:11:53 2792 02:05:44 2733
3283 Pam Wilcox Female 793 F40+ 109 00:46:24 2727 01:37:12 3003 02:15:15 2990 02:09:23 2957
1753 Michael Devine Male 2344 M55+ 109 00:49:12 3263 01:41:20 3281 02:23:04 3314 02:16:56 3314
1704 Julie Flook Female 1089 F45+ 109 00:51:07 3475 01:45:38 3505 02:28:50 3521 02:21:08 3469
3124 Daniel Hardman Male 166 MOPEN 110 00:32:32 163 01:06:21 184 01:27:43 175 01:27:12 170
3328 John Wilson Male 736 M40+ 110 00:38:09 850 01:16:19 776 01:43:59 833 01:41:23 799
4164 Dave Guy Male 955 M45+ 110 00:39:47 1159 01:20:07 1133 01:48:24 1095 01:46:03 1104
4014 Emma Riley Female 196 FOPEN 110 00:40:21 1277 01:22:53 1457 01:51:56 1353 01:49:48 1424
3658 Stephen Symons Male 1445 M50+ 110 MANCHESTER YMCA HARRIERS CLUB 00:42:16 1728 01:28:45 2109 01:57:14 1750 01:57:01 2035
2784 Lindsay Mcclelland Female 704 F35+ 110 00:47:21 2907 01:36:04 2908 02:12:02 2797 02:07:54 2872
2498 Helen Tamburro Female 859 F40+ 110 00:48:35 3155 01:39:02 3133 02:18:17 3126 02:12:38 3129
3903 David Brockbank Male 2349 M55+ 110 00:50:21 3412 01:43:09 3376 02:23:24 3329 02:18:39 3387
920 Wendy Boyce Female 1094 F45+ 110 00:52:28 3593 01:46:38 3556 02:29:09 3528 02:23:04 3536
2975 Simon Hill Male 167 MOPEN 111 00:31:31 105 01:05:09 154 01:27:45 176 01:27:17 175
4018 Jonathan Plimley Male 737 M40+ 111 00:38:30 915 01:18:00 917 01:43:59 834 01:43:02 901
2793 Terry Connell Male 968 M45+ 111 00:40:44 1389 01:21:10 1244 01:48:37 1114 01:46:46 1185
3852 Leah Jones Female 197 FOPEN 111 00:40:40 1376 01:21:30 1286 01:52:01 1358 01:48:23 1315
1209 Paul Gibbins Male 1472 M50+ 111 00:43:48 2099 01:27:56 2022 01:57:50 1786 01:55:51 1937
4587 Charlotte Rycraft Female 709 F35+ 111 00:43:28 2021 01:29:07 2154 02:12:13 2805 02:06:52 2793
2211 Louise Dellamico Female 862 F40+ 111 SALTAIRE STRIDERS 00:49:19 3274 01:40:22 3220 02:18:26 3132 02:13:00 3146
924 Frank Griffiths Male 2356 M55+ 111 WALLASEY AC 00:52:55 3635 01:44:43 3467 02:24:05 3348 02:17:14 3325
4892 Joanne Metcalfe Female 1101 F45+ 111 00:50:31 3429 01:46:55 3571 02:29:32 3539 02:27:10 3663
4397 Scott Eves Male 168 MOPEN 112 00:32:52 188 01:06:07 176 01:27:47 177 01:27:29 184
3201 Jon Ormond Male 758 M40+ 112 00:38:41 945 01:18:12 933 01:44:18 858 01:42:46 886
1100 Paul Abela-Stevenson Male 972 M45+ 112 LIVERPOOL RC 00:40:52 1417 01:20:57 1223 01:48:40 1120 01:46:35 1161
1943 Claire Jobanputra Female 198 FOPEN 112 00:41:03 1455 01:22:51 1452 01:52:10 1362 01:49:16 1389
1399 Matthew Mcgee Male 1474 M50+ 112 00:42:46 1864 01:25:07 1692 01:57:53 1788 01:53:39 1745
4915 Kathleen Humphries Female 711 F35+ 112 00:48:20 3099 01:37:47 3051 02:12:19 2808 02:10:00 3001
3165 Rachael Elliott Female 863 F40+ 112 00:48:22 3105 01:39:04 3135 02:18:29 3133 02:12:49 3136
4324 Les Owen-Bridge Male 2357 M55+ 112 00:47:22 2909 01:39:05 3137 02:24:06 3349 02:17:22 3336
431 Joanne Jones Female 1103 F45+ 112 RESOLUTION RUNNERS 00:55:32 3781 01:49:46 3669 02:29:42 3544 02:22:15 3513
3313 Paul Caley Male 169 MOPEN 113 00:33:09 201 01:06:32 186 01:27:48 178 01:27:27 181
2688 Kevin Upton Male 771 M40+ 113 00:39:28 1086 01:18:30 965 01:44:38 876 01:43:36 930
10341 Philip Armitage Male 975 M45+ 113 00:41:17 1519 01:21:30 1287 01:48:48 1124 01:46:42 1180
2726 Juliet Reliihan Female 199 FOPEN 113 00:41:32 1576 01:23:03 1474 01:52:20 1375 01:50:10 1454
863 Ian Mccullough Male 1483 M50+ 113 00:42:31 1801 01:24:42 1649 01:58:03 1797 01:51:40 1579
374 Michelle Bruntlett Female 724 F35+ 113 00:47:11 2863 01:35:19 2838 02:12:51 2842 02:09:02 2936
4987 Susan Smerdon Female 864 F40+ 113 00:52:49 3622 01:44:07 3440 02:18:30 3134 02:12:35 3126
3841 Garry Fraser Male 2389 M55+ 113 00:52:50 3626 01:45:03 3481 02:25:50 3428 02:18:57 3395
656 Gill Murgatroyd Female 1112 F45+ 113 00:51:09 3480 01:44:43 3468 02:30:11 3561 02:21:50 3498
163 Josh Edgar Male 171 MOPEN 114 00:32:57 192 01:06:18 182 01:27:50 180 01:27:25 180
2267 Mark Barnes Male 775 M40+ 114 00:39:03 1014 01:18:03 922 01:44:43 881 01:42:40 875
4065 Peter Thompson Male 990 M45+ 114 00:39:30 1098 01:20:40 1199 01:49:04 1142 01:47:23 1240
1384 Lydia Melville Female 200 FOPEN 114 00:42:15 1719 01:24:09 1598 01:52:21 1379 01:48:35 1337
3323 John Fogarty Male 1485 M50+ 114 00:44:21 2203 01:28:05 2040 01:58:04 1799 01:55:18 1893
3977 Lisa Sharp Female 743 F35+ 114 00:48:05 3050 01:36:45 2962 02:13:18 2877 02:07:10 2812
1379 Dawn Harris Female 866 F40+ 114 00:50:13 3392 01:40:16 3212 02:18:32 3136 02:11:50 3093
4044 Dave Wiggins Male 2390 M55+ 114 00:52:51 3627 01:45:04 3482 02:25:50 3429 02:18:58 3396
213 Lesley Thursby Female 1121 F45+ 114 00:49:24 3292 01:43:41 3410 02:30:35 3572 02:24:24 3582
3863 Richard Bazeley Male 172 MOPEN 115 ON THE RUN 00:33:17 210 01:06:40 193 01:27:53 181 01:27:41 188
855 Karl Otoole Male 779 M40+ 115 TALLAGHT AC 00:40:25 1300 01:20:42 1204 01:44:52 889 01:44:24 992
275 Andy Gardner Male 1034 M45+ 115 00:39:44 1145 01:20:07 1131 01:49:55 1197 01:48:06 1287
1997 Chooi Shawn Loh Female 203 FOPEN 115 00:41:15 1511 01:23:04 1478 01:52:34 1396 01:50:18 1467
2331 Stephen Isles Male 1488 M50+ 115 00:43:19 1979 01:26:44 1880 01:58:06 1802 01:54:00 1779
69 Katherine Corbett Female 744 F35+ 115 00:46:39 2773 01:35:54 2899 02:13:21 2880 02:08:57 2932
3588 Vicki Garnell Female 877 F40+ 115 00:50:54 3452 01:40:19 3216 02:18:47 3150 02:11:07 3059
1845 Mark Hesk Male 2393 M55+ 115 00:51:07 3476 01:43:56 3427 02:25:53 3432 02:19:45 3420
3932 Katie Marshall Female 1123 F45+ 115 00:53:40 3686 01:48:57 3646 02:30:39 3575 02:27:09 3661
1721 Jacob Løndorf Male 173 MOPEN 116 00:33:49 243 01:06:40 192 01:27:59 182 01:27:39 187
2934 Darren Brown Male 780 M40+ 116 LIVERPOOL RC 00:39:14 1050 01:18:38 976 01:44:53 890 01:43:20 915
4373 Carl Dowling Male 1045 M45+ 116 LEWES AC 00:41:05 1468 01:22:05 1361 01:50:04 1209 01:47:14 1225
4810 Harriet Imrie Female 204 FOPEN 116 00:40:32 1323 01:22:51 1450 01:52:34 1397 01:49:11 1384
1873 Valentine Bryan Male 1491 M50+ 116 00:44:51 2318 01:28:19 2056 01:58:12 1806 01:54:31 1828
2161 Caroline Crosswell Female 745 F35+ 116 CHORLTON RUNNERS 00:47:55 3015 01:36:52 2974 02:13:22 2881 02:07:38 2847
3542 Sue Gallagher Female 880 F40+ 116 CHESTER ROAD RUNNERS 00:48:54 3206 01:38:46 3113 02:18:53 3154 02:11:08 3060
2310 David Howard Male 2410 M55+ 116 00:52:49 3623 0 02:27:19 3477 02:21:24 3483
4626 Clare Nugent Female 1126 F45+ 116 00:50:38 3435 01:46:48 3566 02:30:44 3578 02:25:42 3632
3980 Michael Edwards Male 175 MOPEN 117 00:33:13 205 01:06:36 188 01:28:21 184 01:28:07 191
1129 Barry Cullen Male 782 M40+ 117 TALLAGHT AC 00:40:24 1296 01:20:41 1201 01:44:53 892 01:44:25 995
1181 Stuart Brooker Male 1051 M45+ 117 00:40:15 1253 01:21:45 1312 01:50:13 1217 01:48:53 1365
4335 Cat Gaughan Female 205 FOPEN 117 00:40:36 1349 01:22:05 1362 01:52:38 1403 01:50:51 1517
1703 Robert Constable Male 1493 M50+ 117 00:42:20 1748 01:24:19 1606 01:58:17 1809 01:50:36 1494
3721 Annnarie Daley Female 748 F35+ 117 LIVERPOOL RC 00:48:12 3073 01:36:39 2955 02:13:34 2890 02:07:32 2839
2348 Georgina Woods Female 892 F40+ 117 00:48:24 3113 01:38:30 3097 02:19:41 3177 02:12:39 3132
4082 Steve Hopkins Male 2415 M55+ 117 00:49:33 3316 01:42:23 3335 02:27:40 3488 02:24:11 3576
3499 Weesy Morgan Female 1132 F45+ 117 00:53:16 3656 01:48:03 3617 02:30:49 3586 02:22:36 3524
1242 Paul Williams Male 178 MOPEN 118 MERSEY-TRI 00:32:37 171 01:06:23 185 01:28:26 187 01:28:11 195
2295 Mark Carruthers Male 796 M40+ 118 00:35:01 352 01:17:26 875 01:45:04 906 01:44:36 1015
4069 Derek Cunningham Male 1084 M45+ 118 00:41:57 1664 01:25:00 1679 01:50:56 1262 01:49:39 1417
4829 Katherine Mayer Female 206 FOPEN 118 00:40:39 1366 01:23:30 1524 01:52:45 1410 01:51:00 1535
3650 Richie Moore Male 1495 M50+ 118 00:43:22 1990 01:26:41 1877 01:58:19 1811 01:55:10 1884
684 Leanne Channing Female 751 F35+ 118 00:48:29 3131 01:37:52 3057 02:13:36 2895 02:07:27 2834
2755 Kathryn Wills Female 911 F40+ 118 CHESAPEAKE ROAD RUNNERS 00:54:16 3716 01:42:36 3349 02:20:27 3214 02:13:28 3167
660 Wayne Olorenshaw Male 2422 M55+ 118 00:53:42 3687 01:48:41 3636 02:27:56 3498 02:22:44 3527
4089 Wendy Pretten Female 1141 F45+ 118 00:55:10 3765 01:49:24 3661 02:31:30 3601 02:24:08 3573
2301 Richard Houghton Male 179 MOPEN 119 SOUTHPORT WATERLOO AC 00:33:23 215 01:07:12 209 01:28:28 188 01:28:22 200
27 Paul Hanley Male 797 M40+ 119 00:38:57 998 01:18:42 985 01:45:05 907 01:44:28 1003
3257 Russell Hendry Male 1085 M45+ 119 00:40:29 1314 01:20:39 1195 01:50:58 1263 01:46:41 1173
4623 Catherine Chadwick Female 210 FOPEN 119 00:40:54 1425 01:21:49 1321 01:53:02 1435 01:47:40 1255
3906 Leo Stevenson Male 1504 M50+ 119 MOSSLEY HILL AC 00:42:47 1866 01:27:37 1985 01:58:31 1824 01:56:06 1960
1619 Tracy Griffin Female 756 F35+ 119 00:47:28 2923 01:38:52 3122 02:13:38 2904 02:11:11 3063
1022 Sam Mather Female 915 F40+ 119 00:48:53 3203 01:39:28 3166 02:20:50 3225 02:12:34 3124
247 Andre Mohamed Male 2444 M55+ 119 00:49:20 3279 01:46:39 3557 02:29:55 3551 02:29:04 3693
2968 Catherine Talbot Female 1146 F45+ 119 00:56:44 3851 01:51:34 3714 02:31:54 3612 02:24:19 3579
4774 Steven Kelly Male 180 MOPEN 120 LIVERPOOL RC 00:33:00 194 01:05:30 161 01:28:30 189 01:27:22 177
903 Indunil Gunawardena Male 798 M40+ 120 00:38:51 981 01:18:13 935 01:45:09 908 01:43:55 966
4462 Andy Ritchie Male 1088 M45+ 120 00:41:06 1477 01:21:13 1251 01:51:00 1268 01:46:01 1103
965 Sarah Wealleans Female 212 FOPEN 120 LIVERPOOL RC 00:40:21 1280 01:23:02 1473 01:53:08 1440 01:52:24 1649
3237 Rafiq Tailor Male 1509 M50+ 120 00:41:49 1636 01:25:54 1789 01:58:37 1832 01:54:36 1838
897 Donna Cadwallader Female 758 F35+ 120 SWEATSHOP RUNNING COMMUNITY 00:46:24 2725 01:37:13 3005 02:13:42 2911 02:09:05 2939
3794 Sarah Dickens Female 946 F40+ 120 00:49:55 3363 01:41:20 3282 02:21:57 3271 02:15:19 3252
2111 Stephen Barraclough Male 2450 M55+ 120 00:56:40 3847 01:52:47 3750 02:30:24 3565 02:27:35 3670
61 Alex Leach Female 1149 F45+ 120 00:54:41 3738 01:50:38 3685 02:31:57 3617 02:25:08 3611
2103 Cairn Morrison Male 181 MOPEN 121 00:33:44 240 01:06:37 190 01:28:31 190 01:27:56 189
1281 James Harrison Male 802 M40+ 121 00:38:23 896 01:18:14 939 01:45:11 912 01:43:53 960
2634 Antoine Calleja Male 1089 M45+ 121 AGONES SFC 00:40:22 1284 01:20:59 1229 01:51:01 1269 01:47:17 1231
812 Steph Charles Female 213 FOPEN 121 00:41:57 1667 01:24:30 1627 01:53:21 1457 01:51:09 1543
4465 Malcolm Sowerby Male 1518 M50+ 121 00:43:59 2138 01:27:45 2002 01:58:47 1844 01:55:48 1934
539 Lucy Cushion Female 778 F35+ 121 00:46:09 2661 01:36:20 2931 02:14:46 2962 02:09:53 2995
3558 Natalie Henshaw Female 952 F40+ 121 00:49:23 3288 01:42:46 3356 02:22:18 3281 02:19:17 3408
1137 Nigel Thorpe Male 2455 M55+ 121 00:53:15 3653 01:48:14 3625 02:30:50 3587 02:23:34 3549
1105 Tina Gibson Female 1151 F45+ 121 00:54:00 3702 01:50:03 3676 02:32:04 3619 02:23:45 3556
2125 Matthew Roberts Male 182 MOPEN 122 00:33:43 237 01:06:35 187 01:28:34 191 01:27:28 182
1239 Rafael Gimaev Male 803 M40+ 122 00:38:33 923 01:18:29 964 01:45:13 913 01:44:06 975
4022 Eddie Otten Male 1093 M45+ 122 00:40:33 1327 01:21:37 1299 01:51:03 1273 01:48:17 1306
1929 Lisa Pugh Female 214 FOPEN 122 00:41:25 1543 01:23:29 1523 01:53:22 1458 01:51:23 1568
4487 David Hodgson Male 1572 M50+ 122 NORTHERN (ISLE OF MAN) AC 00:43:19 1978 01:28:49 2119 01:59:43 1919 01:57:07 2044
554 Amy Kernahan Female 781 F35+ 122 00:48:31 3140 01:37:00 2985 02:14:50 2966 02:09:12 2947
3193 Debi Davies Female 956 F40+ 122 00:53:37 3679 01:44:13 3446 02:22:29 3287 02:15:39 3271
4143 John Obrien Male 2460 M55+ 122 00:54:35 3731 01:49:09 3655 02:31:21 3598 02:23:08 3537
3194 Kerry Denen Female 1171 F45+ 122 00:53:35 3677 01:47:56 3616 02:33:13 3646 02:26:21 3643
3081 Nikhil Alexander Male 183 MOPEN 123 00:34:04 270 01:07:35 231 01:28:35 192 01:28:14 198
4319 Paul Keenan Male 817 M40+ 123 00:39:30 1093 01:20:38 1191 01:45:31 928 01:43:49 949
4557 Paul Atkinson Male 1102 M45+ 123 00:40:40 1375 01:22:13 1379 01:51:07 1282 01:48:28 1324
83 Jemima Ridley Female 216 FOPEN 123 00:41:38 1601 01:23:04 1479 01:53:28 1465 01:49:13 1387
2632 Joseph Grima Male 1579 M50+ 123 AGONES SFC 00:42:45 1861 01:27:27 1965 01:59:50 1930 01:56:59 2031
764 Sarah Maguire Female 785 F35+ 123 00:49:39 3329 01:41:44 3302 02:14:59 2973 02:14:26 3208
1864 Melanie Brooks Female 966 F40+ 123 00:48:59 3220 01:41:33 3290 02:22:53 3305 02:17:14 3327
4918 Tony Perks Male 2475 M55+ 123 00:52:27 3590 01:50:08 3679 02:32:58 3644 02:27:58 3676
3298 Michelle Brown-Crowther Female 1187 F45+ 123 00:52:24 3583 01:48:23 3631 02:34:29 3671 02:27:55 3674
3290 John Cunningham Male 184 MOPEN 124 00:32:13 141 01:06:18 181 01:28:36 193 01:28:09 192
1119 Jay Phillips Male 822 M40+ 124 00:39:24 1076 01:18:17 941 01:45:42 935 01:42:51 889
3838 John Withe Male 1103 M45+ 124 00:41:04 1458 01:22:48 1447 01:51:08 1285 01:49:36 1414
2067 Emily Bailey Female 217 FOPEN 124 00:41:51 1643 01:24:04 1586 01:53:32 1467 01:50:57 1527
3072 Jeff Hughes Male 1583 M50+ 124 00:45:15 2441 01:27:36 1983 01:59:54 1935 01:56:07 1962
2870 Stephanie Heneghan Female 810 F35+ 124 00:49:10 3255 01:39:06 3138 02:15:55 3023 02:10:09 3013
1286 Lisa Payne Female 975 F40+ 124 LIVERPOOL RC 00:49:45 3346 01:41:40 3297 02:23:15 3320 02:17:14 3326
982 Lesley-Anne Cucksey Male 2480 M55+ 124 00:53:26 3664 01:50:49 3692 02:33:51 3659 02:30:52 3733
428 Julie Barrett Female 1206 F45+ 124 00:55:28 3778 01:52:27 3741 02:36:41 3716 02:29:10 3696
1369 Gary Wilton Male 185 MOPEN 125 KIRKBY MILERS 00:33:14 207 01:06:51 199 01:28:40 194 01:28:31 203
3097 Kevin Meighan Male 823 M40+ 125 00:38:00 819 01:16:15 772 01:45:43 936 01:41:11 784
4500 James Phillips Male 1111 M45+ 125 00:40:49 1402 01:21:55 1333 01:51:14 1295 01:48:04 1282
444 Emilie Holland Female 221 FOPEN 125 00:42:25 1775 01:25:01 1683 01:53:48 1489 01:52:07 1633
526 James Graham Male 1589 M50+ 125 00:43:20 1982 01:25:52 1782 02:00:00 1943 01:51:50 1599
3381 Collette Baden Female 811 F35+ 125 0 01:35:52 2896 02:16:02 3027 02:08:41 2922
4234 Cheryl Rye Female 995 F40+ 125 00:50:31 3430 01:43:26 3395 02:24:12 3354 02:20:08 3442
2406 Graham Tyson Male 2482 M55+ 125 00:40:38 1358 01:20:05 1128 02:34:12 3663 01:44:55 1036
1928 Jackie Knowles Female 1221 F45+ 125 WOMEN ON THE RUN 00:56:10 3811 01:52:25 3740 02:37:24 3741 02:29:11 3698
1509 Paul Milburn Male 186 MOPEN 126 LIVERPOOL PEMBROKE SEFTON HARR 00:31:22 97 01:02:26 78 01:28:41 195 01:21:37 65
2442 Barry Mcbrearty Male 834 M40+ 126 00:38:36 933 01:18:57 1009 01:46:09 951 01:45:33 1076
814 Peter Stanton Male 1114 M45+ 126 00:39:33 1110 01:20:03 1117 01:51:17 1298 01:47:52 1271
3076 Rachael Butler Female 222 FOPEN 126 00:42:13 1713 01:25:40 1753 01:53:50 1491 01:52:48 1679
4253 David Foster Male 1590 M50+ 126 00:42:44 1857 01:26:11 1836 02:00:01 1944 01:53:24 1725
3805 Marie Mcevoy Female 824 F35+ 126 00:49:35 3319 01:39:17 3153 02:16:33 3054 02:12:14 3106
947 Magdalena Barry Female 999 F40+ 126 00:51:16 3491 01:43:09 3374 02:24:20 3361 02:16:39 3302
451 Angus Gilmour Male 2497 M55+ 126 00:55:42 3789 01:54:39 3810 02:35:37 3690 02:29:48 3716
575 Vanessa Brown Female 1225 F45+ 126 SE FITNESS 00:52:21 3578 01:52:00 3726 02:37:33 3746 02:31:20 3740
3576 Benj Langley Male 188 MOPEN 127 TRAFFORD AC 00:32:55 190 01:06:48 196 01:28:43 197 01:28:29 202
2433 Lee Mckeown Male 849 M40+ 127 00:38:46 961 01:17:40 887 01:46:26 970 01:42:06 837
4942 Neil Griffiths Male 1120 M45+ 127 00:42:10 1707 01:23:00 1468 01:51:23 1304 01:48:43 1347
3051 Jade Chan Female 223 FOPEN 127 00:42:14 1717 01:24:41 1645 01:53:53 1494 01:52:13 1639
3153 Bernarde Bell Male 1592 M50+ 127 00:43:45 2087 01:27:59 2028 02:00:05 1950 01:53:51 1768
1839 Nicky Sinclair Female 826 F35+ 127 00:48:19 3095 01:37:25 3018 02:16:42 3060 02:10:35 3034
3286 Elaine Berry Female 1003 F40+ 127 KNOWSLEY HARRIERS 00:49:39 3327 01:43:07 3373 02:24:29 3368 02:18:21 3377
2668 Phil Davis Male 2520 M55+ 127 00:56:29 3834 01:55:38 3838 02:37:15 3734 02:32:42 3762
2084 Adele Headley Female 1227 F45+ 127 00:57:09 3882 01:53:34 3782 02:37:42 3748 02:29:43 3712
362 Stephen Miller Male 190 MOPEN 128 00:33:30 224 01:07:00 203 01:28:52 200 01:28:33 205
1192 Eleuterio Vazquez Diaz Male 857 M40+ 128 00:38:23 898 01:18:27 961 01:46:36 980 01:45:57 1098
4101 Jeff Hassell Male 1121 M45+ 128 00:39:54 1184 01:21:24 1269 01:51:26 1306 01:49:16 1388
4471 Stephanie Griffiths Female 224 FOPEN 128 00:43:50 2108 01:25:54 1791 01:53:57 1499 01:51:52 1604
4196 Michael Dolan Male 1627 M50+ 128 00:44:49 2310 01:28:30 2085 02:00:41 2001 01:55:21 1897
350 Alex Culligan Female 831 F35+ 128 00:48:53 3202 01:39:03 3134 02:16:57 3067 02:10:48 3042
881 Sarah Oakley Female 1006 F40+ 128 POTTERS TROTTERS 00:51:44 3528 01:44:50 3475 02:24:36 3371 02:17:45 3354
2867 John Mcallister Male 2535 M55+ 128 00:56:19 3826 01:53:24 3776 02:39:49 3775 02:31:32 3748
279 Yvonne Karran Female 1245 F45+ 128 00:57:21 3886 01:54:23 3803 02:40:22 3786 02:33:12 3772
552 Robert Rotherham Male 192 MOPEN 129 00:35:01 349 01:08:48 284 01:28:55 202 01:28:42 216
3187 Darren Mcmahon Male 863 M40+ 129 PARKRUNNERPB 00:40:38 1359 01:20:35 1183 01:46:45 986 01:45:00 1040
3229 Graham Hetherington Male 1127 M45+ 129 00:41:20 1531 01:22:54 1459 01:51:29 1312 01:48:43 1349
1780 Bethan Price Female 225 FOPEN 129 00:40:45 1392 01:21:23 1268 01:53:59 1502 01:47:04 1209
3630 John Poulain Male 1634 M50+ 129 00:42:10 1703 01:27:11 1943 02:00:45 2012 01:57:28 2080
4777 Flis Mitchell Female 837 F35+ 129 00:48:39 3167 01:37:57 3063 02:17:14 3078 02:12:06 3102
1179 Penny Bradley Female 1011 F40+ 129 00:50:24 3417 01:45:25 3497 02:24:38 3376 02:22:45 3529
2824 Stephen Kelly Male 2541 M55+ 129 00:52:50 3625 01:50:26 3684 02:40:18 3784 02:33:33 3779
2633 Rachel Williams Female 1247 F45+ 129 AGONES SFC 00:55:06 3760 01:54:39 3811 02:40:26 3788 02:37:34 3836
422 Oliver Short Male 193 MOPEN 130 00:32:42 177 01:07:30 224 01:28:55 203 01:28:41 214
3462 Mark Bell Male 864 M40+ 130 00:38:23 897 01:17:20 865 01:46:46 988 01:42:23 858
3837 Gary Trotter Male 1133 M45+ 130 00:40:30 1317 01:21:31 1290 01:51:36 1319 01:48:06 1285
3279 Rebecca Anderson Female 227 FOPEN 130 00:40:47 1396 01:22:07 1366 01:54:05 1512 01:47:16 1229
3235 Paul Hawgood Male 1645 M50+ 130 00:41:16 1515 01:25:33 1739 02:01:00 2029 01:58:36 2184
3464 Lynsey Stallard Female 838 F35+ 130 00:46:24 2729 01:36:11 2922 02:17:20 3080 02:10:49 3045
3318 Lesley Neary Female 1016 F40+ 130 KIRKBY MILERS 00:51:54 3541 01:44:21 3452 02:24:51 3384 02:17:52 3359
3459 Andrea Jayne Wood Female 1251 F45+ 130 COALVILLE TRIATHLON CLUB 00:55:50 3792 01:55:03 3821 02:41:07 3797 02:36:27 3821
3898 Peter Phillips Male 2558 M55+ 130 00:50:53 3450 01:49:23 3659 02:43:33 3837 02:36:18 3818
3821 Paul Ainsworth Male 194 MOPEN 131 00:33:10 203 01:06:50 197 01:28:57 204 01:28:09 193
4784 Stephen Roach Male 867 M40+ 131 HELSBY (BICC) RC 00:38:21 890 01:19:10 1024 01:46:46 991 01:45:53 1093
2549 Michael Davis Male 1142 M45+ 131 00:40:20 1271 01:21:45 1313 01:51:43 1331 01:48:10 1296
2167 Sophie Weston Female 228 FOPEN 131 00:41:50 1641 01:23:42 1550 01:54:08 1515 01:50:22 1471
4791 Stephen Bicket Male 1654 M50+ 131 00:45:05 2386 01:30:44 2335 02:01:10 2041 01:58:17 2167
585 Liz Osullivan Female 842 F35+ 131 00:47:59 3030 01:37:35 3030 02:17:29 3087 02:10:27 3026
443 Victoria Kelly Female 1023 F40+ 131 00:52:25 3587 01:44:44 3469 02:25:08 3397 02:17:57 3364
3460 Jane Wright Female 1258 F45+ 131 00:55:49 3791 01:55:02 3820 02:41:42 3806 02:37:01 3825
4136 James White Male 2565 M55+ 131 00:57:05 3873 01:53:51 3792 02:45:31 3856 02:37:28 3832
3951 Jonathan Beevor Male 195 MOPEN 132 00:33:36 227 01:07:14 211 01:28:57 205 01:28:33 204
33 John Courtney Male 869 M40+ 132 00:39:01 1011 01:19:48 1096 01:46:47 993 01:45:54 1095
928 Paul White Male 1144 M45+ 132 00:41:11 1496 01:21:08 1241 01:51:44 1333 01:46:00 1102
3162 Charlotte Sanderson-Rigby Female 229 FOPEN 132 PENNY LANE STRIDERS 00:40:15 1252 01:23:37 1533 01:54:08 1517 01:53:21 1722
4689 Mike Welsby Male 1659 M50+ 132 PENNY LANE STRIDERS 00:43:40 2063 01:28:53 2126 02:01:12 2047 01:57:37 2102
796 Emma Atherton Female 851 F35+ 132 00:49:31 3312 01:40:34 3233 02:18:09 3110 02:12:08 3104
1682 Caroline Dawn Female 1033 F40+ 132 00:52:51 3628 01:46:09 3528 02:25:41 3418 02:20:04 3440
2640 Philippa Crighton Female 1279 F45+ 132 00:52:15 3570 01:57:51 3871 02:43:31 3836 02:41:46 3877
4701 Stephen Dyer Male 2567 M55+ 132 00:58:22 3916 01:58:01 3877 02:46:21 3862 02:37:52 3845
1020 Joe Preston Male 196 MOPEN 133 00:33:57 255 01:07:33 228 01:28:58 206 01:28:41 213
783 Jon Reynolds Male 877 M40+ 133 00:38:20 887 01:18:20 950 01:46:59 1003 01:45:19 1061
109 Keith Chew Male 1150 M45+ 133 00:38:14 868 01:19:17 1037 01:51:49 1341 01:50:46 1508
4071 Clare Maloney Female 230 FOPEN 133 00:41:03 1452 01:22:45 1441 01:54:24 1528 01:49:17 1392
2105 Simon Riley Male 1666 M50+ 133 00:43:47 2094 01:27:35 1981 02:01:19 2060 01:57:56 2132
1163 June Case Female 858 F35+ 133 KIRKBY MILERS 00:49:19 3275 01:39:41 3181 02:18:16 3124 02:14:22 3205
759 Pauline Ronan Female 1050 F40+ 133 00:48:48 3190 01:40:02 3201 02:26:22 3449 02:18:25 3379
2128 Dawn Shaw Female 1308 F45+ 133 00:56:39 3843 01:57:33 3865 02:49:24 3886 02:41:20 3873
2782 Stephen Moody Male 2589 M55+ 133 00:57:52 3904 02:06:30 3957 02:55:09 3927 02:50:20 3941
551 Adam Tyson Male 198 MOPEN 134 STOKE FIT 00:34:04 274 01:07:39 240 01:28:58 208 01:28:43 217
2806 Glenn Foulkes Male 884 M40+ 134 00:37:51 793 01:18:49 1000 01:47:10 1010 01:46:55 1197
3793 Paul Dickens Male 1153 M45+ 134 00:40:22 1289 01:19:31 1067 01:51:54 1347 01:45:25 1065
1339 Bethany Levick Female 231 FOPEN 134 MIKKELLER RUNNING CLUB LIVERPO 00:41:15 1513 01:23:54 1564 01:54:30 1530 01:52:03 1626
3599 Stephen Short Male 1698 M50+ 134 00:45:34 2515 01:29:48 2224 02:01:51 2101 01:57:47 2119
3574 Sarah Melville Female 860 F35+ 134 00:50:57 3457 01:40:46 3247 02:18:20 3128 02:12:05 3101
4807 Dianne Ryan Female 1054 F40+ 134 00:50:57 3460 01:47:17 3589 02:26:45 3457 02:18:15 3373
3419 Christine Webster Female 1318 F45+ 134 00:56:21 3831 01:59:17 3892 02:50:58 3899 02:42:52 3886
3398 Tony Bugby Male 2597 M55+ 134 00:58:11 3910 02:03:57 3929 02:59:38 3959 02:52:34 3951
4950 Sean Orourke Male 200 MOPEN 135 00:33:40 233 01:07:03 207 01:29:03 210 01:28:27 201
3607 Jude Padfield Male 890 M40+ 135 00:38:45 960 01:18:13 934 01:47:20 1017 01:44:58 1037
2578 Kevin Channell Male 1167 M45+ 135 00:40:34 1335 01:22:58 1466 01:52:13 1365 01:50:09 1453
1687 Aleksandra Kudra Female 232 FOPEN 135 00:43:41 2067 01:26:45 1881 01:54:38 1534 01:52:07 1631
3529 Ray Williams Male 1705 M50+ 135 00:44:55 2340 01:30:53 2351 02:02:00 2117 02:00:11 2347
577 Carrie Gibson Female 870 F35+ 135 00:49:44 3340 01:39:22 3161 02:18:41 3143 02:12:27 3117
1053 Tracy Burkhill Female 1055 F40+ 135 00:51:06 3474 01:43:46 3417 02:26:52 3458 02:19:58 3435
4597 Lynn Jones Female 1329 F45+ 135 00:57:43 3897 02:02:29 3919 02:53:29 3913 02:46:20 3905
2920 David Ashall Male 2612 M55+ 135 00:43:33 2035 01:28:25 2079 03:21:27 4010 03:17:34 4011
580 Jon Childs Male 202 MOPEN 136 00:33:38 229 01:07:26 217 01:29:06 212 01:28:40 211
721 Andrew Shaw Male 906 M40+ 136 00:38:40 943 01:17:49 901 01:47:34 1035 01:42:42 877
3677 Steven Grime Male 1168 M45+ 136 ROSSENDALE TRIATHLON CLUB 00:42:16 1723 01:23:31 1525 01:52:13 1366 01:49:10 1383
617 Amy Weeder Female 233 FOPEN 136 00:41:34 1585 01:24:27 1619 01:54:39 1535 01:52:51 1688
4342 Duncan Mccahill Male 1706 M50+ 136 00:44:07 2159 01:28:54 2128 02:02:01 2118 01:56:30 1982
3264 Rachel Stead Female 871 F35+ 136 PENNY LANE STRIDERS 00:49:50 3356 01:40:21 3218 02:18:42 3144 02:12:02 3100
500 Beth Carman Female 1065 F40+ 136 00:51:44 3527 01:45:19 3494 02:27:12 3473 02:20:21 3451
3295 Tracy Lea Female 1331 F45+ 136 01:00:14 3946 02:03:48 3928 02:53:39 3915 02:45:55 3900
3190 Michael Hawgood Male 203 MOPEN 137 LEEDS TRIATHLON CENTRE 00:33:53 249 01:07:37 234 01:29:09 213 01:28:50 221
528 Peter Cunniff Male 915 M40+ 137 00:38:44 957 01:17:31 880 01:47:43 1046 01:42:16 848
37 Brian Buckle Male 1174 M45+ 137 00:40:55 1433 01:21:59 1341 01:52:20 1372 01:48:07 1289
2568 Iona Black Female 234 FOPEN 137 00:42:15 1720 01:24:23 1615 01:54:40 1536 01:50:53 1518
2704 Kevin Morgan Male 1710 M50+ 137 00:43:34 2039 01:27:34 1979 02:02:06 2124 01:56:52 2021
4474 Karen Mcdougall Female 874 F35+ 137 00:48:03 3045 01:38:19 3086 02:18:43 3147 02:12:27 3118
4844 Sarah Grady Female 1068 F40+ 137 00:52:01 3554 01:45:10 3488 02:27:20 3478 02:19:54 3432
504 Jacqueline Williams Female 1336 F45+ 137 00:56:57 3861 02:00:48 3905 02:54:15 3920 02:45:56 3901
4021 Jamie Sinnett Male 204 MOPEN 138 00:33:39 232 01:07:29 222 01:29:10 214 01:28:59 225
498 Simon Cottenham Male 925 M40+ 138 00:39:21 1072 01:20:46 1212 01:47:52 1057 01:46:56 1199
3219 Neil Whitelaw Male 1176 M45+ 138 00:41:36 1588 01:22:44 1438 01:52:20 1374 01:49:55 1433
1595 Gemma Saunders Female 237 FOPEN 138 00:40:46 1393 01:22:13 1382 01:54:49 1549 01:51:47 1595
3015 Justin Baddeley Male 1714 M50+ 138 PENNY LANE STRIDERS 00:43:26 2008 01:32:52 2602 02:02:10 2133 02:01:12 2442
1600 Katharine Richardson Female 878 F35+ 138 00:49:32 3314 01:40:45 3246 02:18:50 3152 02:13:21 3160
4843 Jay Smith Female 1069 F40+ 138 LIVERPOOL RC 00:52:01 3555 01:45:09 3487 02:27:21 3479 02:19:55 3433
2973 Christine Bailey Female 1375 F45+ 138 01:04:42 3992 02:12:24 3986 03:05:34 3979 02:57:22 3974
3833 Simon Oles Male 206 MOPEN 139 00:33:52 247 01:07:33 229 01:29:11 216 01:28:47 219
4023 Chris Tarratt Male 927 M40+ 139 00:38:50 975 01:19:34 1072 01:47:53 1059 01:46:28 1148
4441 Nicholas Chadwick Male 1181 M45+ 139 00:38:43 953 01:18:44 991 01:52:23 1382 01:46:00 1101
1550 Harriet Page Female 238 FOPEN 139 00:41:22 1539 01:24:20 1609 01:54:52 1551 01:51:21 1562
3247 Andrew Rigby Male 1720 M50+ 139 TEAM ELLA 00:44:13 2182 01:28:43 2105 02:02:25 2147 01:57:00 2033
58 Lisa Burtenshaw Female 879 F35+ 139 00:48:53 3204 01:38:46 3112 02:18:50 3153 02:11:05 3057
1055 Hayley Smallman Female 1070 F40+ 139 KIRKBY MILERS 00:52:03 3559 01:45:12 3489 02:27:21 3480 02:19:56 3434
3233 Danielle Rimmer Female 1385 F45+ 139 01:04:34 3988 02:15:29 3999 03:11:15 3992 03:02:54 3988
2098 Alistair Grier Male 210 MOPEN 140 00:32:46 182 01:06:57 202 01:29:14 220 01:28:52 222
10368 Simon Tinkler Male 931 M40+ 140 00:40:37 1354 01:20:44 1209 01:47:59 1065 01:45:50 1091
10327 John Davenport Male 1193 M45+ 140 00:40:51 1409 01:23:38 1536 01:52:33 1395 01:51:16 1552
1857 Hannah Doran Female 239 FOPEN 140 00:42:58 1896 01:24:56 1671 01:54:55 1555 01:50:50 1516
1227 Des Mccarthy Male 1721 M50+ 140 00:46:08 2658 01:31:49 2496 02:02:25 2148 02:00:35 2383
2144 Kim Moss Female 883 F35+ 140 LIVERPOOL RC 00:50:09 3381 01:40:17 3214 02:19:05 3158 02:12:21 3112
2665 Steph Battersby Female 1078 F40+ 140 00:50:25 3420 01:43:56 3428 02:28:01 3501 02:20:17 3449
3496 Jane Woods Female 1389 F45+ 140 PENNY LANE STRIDERS 00:59:46 3943 02:13:09 3989 03:12:05 3999 03:04:00 3995
3555 Neil Turner Male 211 MOPEN 141 00:33:59 261 01:07:34 230 01:29:15 221 01:28:53 223
3119 Peter Griffiths Male 932 M40+ 141 00:39:55 1190 01:20:35 1184 01:47:59 1066 01:46:36 1165
335 Clarke Pinnington Male 1196 M45+ 141 00:39:49 1165 01:21:16 1256 01:52:37 1400 01:47:41 1258
4010 Beth Santangeli Female 240 FOPEN 141 00:40:34 1336 01:23:27 1519 01:54:55 1556 01:52:22 1646
4467 Roy Pusey Male 1752 M50+ 141 00:44:33 2244 01:29:57 2241 02:03:03 2190 01:58:16 2166
2587 Jenny Ellams Female 889 F35+ 141 00:48:45 3184 01:42:28 3341 02:19:31 3171 02:17:11 3322
2542 Sharon Harrison Female 1080 F40+ 141 KIRKBY MILERS 00:51:23 3501 01:47:06 3575 02:28:16 3505 02:24:54 3594
588 Claire Potter Female 1391 F45+ 141 01:05:39 4000 02:17:22 4003 03:12:07 4001 03:04:46 3997
1366 Richard Burrows Male 215 MOPEN 142 00:33:28 223 01:07:15 212 01:29:22 225 01:28:36 206
10325 Martin Berry Male 940 M40+ 142 WARRINGTON RRC 00:38:49 972 01:18:46 995 01:48:04 1075 01:43:35 928
4570 Chris Grogan Male 1197 M45+ 142 00:40:50 1407 01:23:36 1532 01:52:37 1401 01:51:19 1558
2352 Hannah Corcoran Female 243 FOPEN 142 00:43:18 1972 01:25:31 1734 01:55:02 1567 01:51:00 1534
2720 Stephen Monks Male 1755 M50+ 142 00:44:18 2197 01:28:24 2074 02:03:06 2195 01:56:56 2026
1250 Jennifer Parry Female 891 F35+ 142 00:49:48 3353 01:40:13 3209 02:19:39 3176 02:12:38 3130
3353 Rachel Bell Female 1086 F40+ 142 00:55:24 3776 01:47:43 3606 02:28:34 3515 02:21:03 3466
4518 Nadia Ouezzani Female 1395 F45+ 142 01:05:21 3999 02:18:32 4007 03:15:27 4006 03:08:48 4004
3707 Adam Oshea Male 217 MOPEN 143 00:33:18 212 01:07:24 215 01:29:34 227 01:29:05 228
3689 Dylan Evans Male 948 M40+ 143 00:36:09 479 01:16:53 818 01:48:15 1086 01:43:20 913
2431 James Samuels Male 1204 M45+ 143 00:42:14 1716 01:22:53 1456 01:52:43 1409 01:47:49 1268
4384 Lucy Helsby Female 245 FOPEN 143 KIRKBY MILERS 00:42:21 1754 01:23:56 1568 01:55:12 1578 01:50:32 1489
906 Robert Blease Male 1786 M50+ 143 KIRKBY MILERS 00:44:46 2299 01:30:49 2343 02:03:39 2239 02:00:01 2328
3011 Stephanie Bamford Female 897 F35+ 143 00:49:21 3282 01:40:23 3221 02:19:55 3192 02:13:02 3148
4847 Angela Reddin Female 1096 F40+ 143 00:52:57 3638 01:46:06 3524 02:29:13 3531 02:20:53 3461
1490 Claire Dolan Female 1396 F45+ 143 01:07:18 4004 02:21:19 4010 03:17:38 4007 03:12:03 4007
2205 Andrew Falconer Male 219 MOPEN 144 MANX HARRIERS 00:32:43 180 01:06:57 201 01:29:39 230 01:29:23 232
2057 Stephen Ward Male 950 M40+ 144 00:38:55 986 01:18:48 998 01:48:18 1088 01:46:58 1202
4320 Ian Ferguson Male 1206 M45+ 144 00:40:43 1386 01:21:55 1334 01:52:47 1412 01:49:26 1402
962 Kirsty Fitzgerald Female 247 FOPEN 144 LONDON FRONTRUNNERS 00:41:46 1625 01:25:42 1760 01:55:14 1582 01:54:22 1814
828 Jerry Scriven Male 1808 M50+ 144 00:45:38 2540 01:30:48 2340 02:03:59 2269 01:59:26 2271
822 Tracey Cunningham Female 899 F35+ 144 00:48:44 3182 01:40:20 3217 02:20:01 3196 02:17:15 3328
4840 Lorraine Blundell Female 1097 F40+ 144 00:52:57 3642 01:46:06 3523 02:29:13 3532 02:20:54 3462
53 Kirsty Wiseman Female 1403 F45+ 144 01:01:19 3965 02:27:50 4014 03:37:46 4018 03:33:19 4015
1411 Stephen Edwards Male 220 MOPEN 145 00:33:57 258 01:07:27 220 01:29:39 231 01:29:14 230
345 Gary Mollard Male 951 M40+ 145 00:40:37 1356 01:21:31 1288 01:48:19 1089 01:46:33 1155
4326 Colin Connor Male 1214 M45+ 145 00:41:36 1589 01:23:38 1539 01:52:55 1421 01:51:40 1582
3681 Neci Arnasalam Female 248 FOPEN 145 00:41:55 1656 01:23:35 1530 01:55:15 1583 01:51:13 1549
1333 Garry Davenport Male 1813 M50+ 145 00:45:16 2445 01:28:40 2103 02:04:04 2276 01:57:41 2108
3801 Kerry Millhouse Female 904 F35+ 145 00:50:05 3375 01:41:58 3313 02:20:15 3204 02:14:02 3191
2365 Christine Ho Female 1111 F40+ 145 00:51:46 3532 01:45:37 3504 02:30:04 3557 02:23:03 3535
3438 Dave Philips Male 221 MOPEN 146 00:34:09 288 01:07:39 238 01:29:47 232 01:29:31 234
3893 Robbie Davies Male 953 M40+ 146 00:40:35 1342 01:21:10 1247 01:48:23 1093 01:46:37 1169
1953 John Ogorman Male 1230 M45+ 146 00:43:30 2027 01:25:53 1786 01:53:10 1442 01:50:44 1505
720 Charlotte Smith Female 250 FOPEN 146 DRONFIELD DIAMONDS 00:42:33 1808 01:25:00 1680 01:55:17 1587 01:52:19 1643
167 Mark Oneill Male 1815 M50+ 146 00:46:20 2711 01:32:03 2522 02:04:05 2278 01:58:56 2217
3238 Hayley- Rose Rooney Female 906 F35+ 146 00:47:05 2839 01:38:20 3088 02:20:17 3206 02:14:07 3196
3276 Laura Hukin Female 1115 F40+ 146 CHESTER ROAD RUNNERS 00:52:03 3558 01:46:06 3522 02:30:23 3564 02:22:38 3526
3441 Neil Toner Male 222 MOPEN 147 00:34:08 283 01:07:37 235 01:29:51 233 01:29:33 236
3557 Peter Smith Male 961 M40+ 147 00:39:05 1020 01:19:27 1059 01:48:32 1105 01:45:34 1079
3653 Dale Walker Male 1239 M45+ 147 00:40:16 1256 01:22:01 1352 01:53:17 1451 01:51:28 1573
3285 Sarah Woolcock Female 251 FOPEN 147 00:41:47 1626 01:25:12 1700 01:55:17 1589 01:53:04 1701
3143 Andrew Hunter Male 1816 M50+ 147 00:45:20 2459 01:30:07 2260 02:04:05 2279 01:58:48 2206
1763 Debbie Atkins Female 910 F35+ 147 00:46:04 2646 01:38:03 3071 02:20:25 3213 02:14:36 3220
4605 Andrea Peers Female 1133 F40+ 147 00:53:17 3657 01:48:18 3628 02:30:50 3588 02:23:37 3550
3437 Matthew Taylor Male 223 MOPEN 148 00:34:07 281 01:07:38 237 01:30:01 234 01:29:44 239
3702 George Papaspyridis Male 963 M40+ 148 00:39:50 1169 01:19:28 1061 01:48:33 1107 01:43:51 955
2768 Michael Sutton Male 1257 M45+ 148 PENNY LANE STRIDERS 00:41:20 1533 01:21:43 1309 01:53:38 1474 01:49:24 1399
2039 Leonie Glynn Female 254 FOPEN 148 PENNY LANE STRIDERS 00:42:01 1676 01:24:26 1617 01:55:24 1601 01:51:21 1564
3434 Dermot Ferguson Male 1828 M50+ 148 00:44:58 2354 01:32:08 2536 02:04:20 2307 02:01:43 2469
4279 Clair Tonks Female 917 F35+ 148 00:51:40 3522 01:42:28 3343 02:20:59 3228 02:14:33 3212
3615 Cara Bartlett Female 1136 F40+ 148 KNOWSLEY HARRIERS 00:53:55 3700 01:48:14 3623 02:31:03 3593 02:23:40 3552
2745 Calum Robertson Male 224 MOPEN 149 00:34:00 264 01:08:16 257 01:30:09 236 01:29:45 240
4977 Carl Davies Male 964 M40+ 149 KIRKBY MILERS 00:39:08 1034 01:18:32 969 01:48:34 1108 01:45:11 1053
1463 Umesh Mistry Male 1262 M45+ 149 00:41:08 1483 01:22:53 1455 01:53:40 1479 01:48:40 1344
4394 Hayley Kandt Female 255 FOPEN 149 EALING EAGLES RUNNING CLUB 00:43:00 1899 01:24:54 1669 01:55:24 1602 01:51:40 1580
10394 Mark Mcculloch Male 1832 M50+ 149 00:41:55 1657 01:26:51 1903 02:04:21 2311 02:00:04 2334
212 Amy Pritchard Roberts Female 921 F35+ 149 00:49:25 3293 01:40:42 3245 02:21:13 3236 02:15:03 3237
1390 Sarah Beaman Female 1144 F40+ 149 00:49:38 3322 01:37:39 3033 02:31:43 3608 02:10:11 3017
1357 David Daly Male 225 MOPEN 150 KIRKBY MILERS 00:33:27 221 01:07:51 244 01:30:10 237 01:30:01 244
2489 Paul Sauce Male 989 M40+ 150 00:40:10 1233 01:20:21 1159 01:49:01 1139 01:46:19 1127
3297 Silas Nicholls Male 1268 M45+ 150 00:42:45 1859 01:22:26 1402 01:53:47 1487 01:48:28 1325
2253 Lucinda Braithwaite Female 257 FOPEN 150 00:43:12 1950 01:26:16 1840 01:55:29 1609 01:52:51 1686
1028 David Pugh Male 1843 M50+ 150 00:46:05 2650 01:30:56 2361 02:04:30 2329 01:58:14 2164
4802 Bex Fieldmouse Female 936 F35+ 150 HATTON DARTS RC 00:51:59 3551 01:43:12 3384 02:21:39 3259 02:14:45 3227
2272 Christine Maffitt Female 1156 F40+ 150 LIVERPOOL RC 00:50:15 3403 01:46:04 3519 02:32:18 3626 02:26:15 3642
3311 Si Dean Male 226 MOPEN 151 00:33:23 218 01:07:29 223 01:30:13 238 01:29:58 243
1426 Marvin Clarke Male 993 M40+ 151 00:39:03 1015 01:19:16 1034 01:49:09 1147 01:45:49 1089
4940 Jonpaul Lowles Male 1270 M45+ 151 00:42:28 1792 01:24:56 1672 01:53:50 1492 01:51:08 1541
2677 Sara Hall Female 260 FOPEN 151 00:41:56 1660 01:24:20 1610 01:55:45 1625 01:53:44 1760
3058 David Reade Male 1849 M50+ 151 00:44:22 2207 01:29:56 2238 02:04:38 2338 02:00:55 2414
1959 Julie Edwards Female 957 F35+ 151 00:53:35 3675 01:44:12 3444 02:22:29 3288 02:15:38 3269
3628 Lisa Rose Female 1158 F40+ 151 00:52:10 3565 01:47:44 3610 02:32:29 3629 02:24:39 3588
2897 Jamie Ireland Male 229 MOPEN 152 00:34:00 263 01:08:04 250 01:30:44 242 01:30:11 248
4569 Adrian Shorthouse Male 994 M40+ 152 00:39:32 1107 01:20:25 1163 01:49:10 1148 01:48:17 1305
3351 Colin Molloy Male 1271 M45+ 152 00:40:49 1403 01:22:27 1405 01:53:51 1493 01:50:45 1506
2251 Vanessa Caba Female 261 FOPEN 152 00:40:49 1405 01:24:35 1634 01:55:45 1626 01:53:44 1761
20 Ray Bessant Male 1856 M50+ 152 WIDNES RUNNING CLUB 00:44:37 2266 01:31:03 2390 02:04:46 2349 02:01:17 2448
181 Catherine Roberts Female 962 F35+ 152 00:50:13 3395 01:40:39 3241 02:22:36 3298 02:15:09 3244
2948 Danielle Cross Female 1162 F40+ 152 00:55:00 3753 01:50:58 3699 02:32:43 3635 02:25:02 3604
2221 Pedro Rodriguez Male 231 MOPEN 153 DOCKSIDE RUNNERS 00:33:56 253 01:08:13 255 01:30:48 244 01:30:21 252
2246 Guy Richardson Male 995 M40+ 153 SALTAIRE STRIDERS 00:39:00 1006 01:20:09 1137 01:49:10 1150 01:47:01 1204
2297 Steven Westwood Male 1281 M45+ 153 00:37:57 809 01:23:07 1487 01:54:03 1507 01:52:59 1693
2674 Clair Davies Female 264 FOPEN 153 00:41:05 1467 01:25:21 1720 01:55:49 1633 01:53:20 1719
4966 John White Male 1870 M50+ 153 00:43:57 2129 01:30:01 2249 02:04:54 2371 02:01:10 2437
4466 Toni Vaughan Female 964 F35+ 153 00:50:42 3442 01:45:09 3486 02:22:47 3303 02:16:42 3305
2959 Patricia Oniell Female 1163 F40+ 153 00:54:59 3752 01:50:58 3697 02:32:43 3636 02:25:02 3605
4086 Jamie Pearson Male 233 MOPEN 154 YORKS 00:35:16 377 01:08:51 286 01:30:53 246 01:30:26 255
2226 Chris Lemaire Male 996 M40+ 154 00:40:55 1435 01:22:36 1423 01:49:11 1152 01:47:54 1272
4819 Graeme Openshaw Male 1284 M45+ 154 00:39:42 1137 01:20:57 1222 01:54:03 1510 01:50:01 1441
2936 Jen Rowlands Female 266 FOPEN 154 00:42:39 1838 01:24:13 1600 01:55:52 1637 01:51:23 1567
2621 Nigel Clarke Male 1912 M50+ 154 00:44:58 2355 01:33:10 2633 02:05:59 2439 02:03:37 2606
1690 Annabelle Bouhassoun Female 973 F35+ 154 00:49:27 3298 01:42:09 3326 02:23:10 3318 02:16:08 3288
3979 Joanne Sutherland Female 1164 F40+ 154 PENNY LANE STRIDERS 00:53:11 3651 01:48:49 3639 02:32:47 3637 02:26:06 3638
1302 Jonathan Saint Male 234 MOPEN 155 00:34:05 275 01:08:31 266 01:30:54 247 01:30:16 249
2269 Jim Salisbury Male 998 M40+ 155 00:40:04 1209 01:20:03 1115 01:49:17 1155 01:46:08 1112
3401 Stephen Smith Male 1287 M45+ 155 00:41:02 1447 01:22:39 1428 01:54:07 1514 01:49:00 1374
271 Catriona Early Female 267 FOPEN 155 00:43:10 1937 01:25:16 1711 01:55:54 1639 01:51:54 1610
99 Alan Twigg Male 1914 M50+ 155 00:44:27 2218 01:30:24 2282 02:06:03 2443 02:01:39 2462
4235 Lorna Harley Female 991 F35+ 155 00:50:40 3438 01:45:59 3514 02:24:03 3346 02:21:59 3505
4794 Helen Patterson Female 1166 F40+ 155 00:42:56 1892 01:27:51 2013 02:32:53 3639 02:27:33 3668
942 Martin Quick Male 235 MOPEN 156 00:33:09 200 01:07:02 206 01:30:57 249 01:30:21 251
4983 Steve Murphy Male 999 M40+ 156 00:39:58 1197 01:19:20 1048 01:49:17 1157 01:44:04 971
3080 Stuart Shimmin Male 1294 M45+ 156 00:36:34 556 01:19:14 1030 01:54:20 1523 01:53:56 1774
3155 Helen Booth Female 269 FOPEN 156 00:42:36 1823 01:25:33 1738 01:55:57 1641 01:53:22 1723
459 Paul Mcglashan Male 1926 M50+ 156 00:45:44 2572 01:32:54 2609 02:06:22 2463 02:02:55 2551
1213 Suzanne Caley Female 996 F35+ 156 ABBEY RUNNERS LEEDS 00:49:29 3302 01:42:17 3330 02:24:15 3356 02:17:52 3360
1291 Lynda Butchard Female 1170 F40+ 156 00:54:30 3729 01:52:03 3730 02:33:06 3645 02:27:40 3672
2847 Sam Walker Male 238 MOPEN 157 00:33:01 195 01:07:17 214 01:31:14 254 01:30:47 263
4967 James Templeton Male 1001 M40+ 157 00:40:21 1282 01:21:14 1254 01:49:18 1159 01:45:34 1078
2719 Paul Kelly Male 1296 M45+ 157 00:41:08 1482 01:23:19 1505 01:54:21 1525 01:49:50 1426
3365 Lucy Holt Female 274 FOPEN 157 00:42:04 1683 01:22:57 1461 01:56:03 1651 01:48:54 1368
3267 Michael Lockett Male 1937 M50+ 157 00:46:12 2675 01:34:05 2723 02:06:44 2483 02:04:25 2662
2078 Aly Broome Female 1022 F35+ 157 00:49:39 3326 01:43:06 3372 02:25:05 3396 02:18:04 3367
4956 Heather Toner Female 1173 F40+ 157 0 01:31:07 2398 02:33:34 3650 02:11:44 3089
1483 Peter Duffy Male 239 MOPEN 158 00:34:04 271 01:08:22 261 01:31:16 255 01:30:06 246
466 Rob Nichol Male 1007 M40+ 158 00:41:46 1621 01:21:49 1322 01:49:23 1165 01:47:48 1266
2166 Paul Wiswell Male 1323 M45+ 158 OLDHAM ROYTON HARRIERS AC 00:42:13 1714 01:24:06 1591 01:55:00 1564 01:50:48 1511
10372 Jennifer Hughes Female 276 FOPEN 158 00:38:57 999 01:21:09 1243 01:56:06 1658 01:51:32 1575
3091 Keith Thomson Male 1938 M50+ 158 00:41:50 1642 01:31:17 2416 02:06:49 2487 02:04:49 2681
1570 Melanie Givnan Female 1035 F35+ 158 LIVERPOOL RC 00:50:18 3408 01:43:48 3418 02:25:45 3421 02:19:45 3421
3989 Megan Gardner Female 1178 F40+ 158 RESOLUTION RUNNERS 00:55:33 3783 01:51:43 3719 02:33:47 3657 02:26:22 3646
419 Marcell Varga Male 240 MOPEN 159 00:35:00 345 01:09:07 296 01:31:18 256 01:30:49 265
1880 Glen Carden Male 1009 M40+ 159 00:40:20 1276 01:21:47 1318 01:49:26 1168 01:46:35 1162
1856 Stephen Mathieson Male 1326 M45+ 159 00:43:47 2095 01:25:45 1767 01:55:05 1570 01:51:09 1546
3199 Deborah Mcshane Female 277 FOPEN 159 00:42:07 1691 01:27:01 1921 01:56:07 1660 01:55:19 1896
1535 Thomas Tipping Male 1941 M50+ 159 00:49:09 3251 01:35:51 2892 02:06:53 2491 02:04:04 2637
10359 Catherine Usher Female 1038 F35+ 159 00:53:07 3648 01:45:12 3490 02:25:47 3424 02:20:09 3445
2006 Susan Pryce Female 1189 F40+ 159 00:55:13 3769 01:53:41 3789 02:34:50 3675 02:33:01 3769
3114 Graham Robson Male 242 MOPEN 160 00:33:57 256 01:08:17 258 01:31:21 258 01:30:40 259
2526 Eric Ireland Male 1029 M40+ 160 00:40:36 1347 01:21:20 1262 01:49:51 1192 01:48:20 1310
4553 Gary Summers Male 1331 M45+ 160 00:44:13 2181 01:26:38 1870 01:55:10 1575 01:52:09 1636
2012 Sarah Mrozek Female 278 FOPEN 160 00:42:43 1850 01:24:35 1636 01:56:11 1663 01:51:23 1566
4329 Anthony Costello Male 1968 M50+ 160 00:46:11 2672 01:31:14 2407 02:07:25 2529 02:00:32 2377
3856 Rachael Martin Female 1044 F35+ 160 00:51:24 3505 01:43:34 3402 02:26:11 3443 02:18:07 3369
75 Heather Cripps Female 1190 F40+ 160 CRYSTAL PALACE FUN RUNNERS 00:56:50 3858 01:52:25 3738 02:34:54 3678 02:26:47 3650
2385 Paul Bebb Male 243 MOPEN 161 00:33:56 254 01:08:33 269 01:31:22 259 01:30:58 270
1433 Paul Kelly Male 1040 M40+ 161 SPECTRUM STRIDERS RC 00:38:11 862 01:21:13 1253 01:50:00 1204 01:49:11 1385
4160 Peter Sandman Male 1333 M45+ 161 00:41:44 1613 01:22:31 1412 01:55:11 1577 01:49:23 1397
1772 Rachel Sanders Female 280 FOPEN 161 00:42:46 1863 01:26:00 1807 01:56:16 1667 01:53:40 1747
2990 Mustaq Mitha Male 1980 M50+ 161 00:45:18 2456 01:32:05 2527 02:07:54 2558 02:03:54 2621
4142 Michelle Green Female 1052 F35+ 161 00:51:24 3504 01:43:52 3421 02:26:38 3454 02:18:34 3383
2196 Sharon Howarth Female 1194 F40+ 161 00:50:20 3411 01:46:06 3521 02:35:38 3691 02:27:30 3666
4254 Ben Marshall Male 244 MOPEN 162 00:32:31 161 01:07:50 243 01:31:23 260 01:31:05 272
1545 Jonathan Potter Male 1041 M40+ 162 00:39:07 1032 01:18:38 978 01:50:00 1205 01:45:19 1060
1699 Paul Watts Male 1341 M45+ 162 00:42:04 1688 01:24:28 1621 01:55:20 1593 01:50:57 1526
3156 Rebecca Stringer Female 283 FOPEN 162 00:42:37 1825 01:25:34 1740 01:56:21 1678 01:53:47 1764
4125 Mark Stirrup Male 1988 M50+ 162 00:45:53 2612 01:32:28 2572 02:08:08 2571 02:02:18 2508
4567 Tricia Dodd Female 1053 F35+ 162 00:50:58 3462 01:47:16 3587 02:26:45 3456 02:18:15 3375
2126 Lynn Nolan Female 1198 F40+ 162 00:55:10 3762 01:50:56 3696 02:36:00 3700 02:27:58 3675
3105 Daniel Gilbody Male 245 MOPEN 163 LIVERPOOL PEMBROKE SEFTON HARR 00:31:57 135 01:08:27 263 01:31:26 262 01:31:24 286
2109 James Zacharias Male 1055 M40+ 163 00:40:54 1426 01:21:03 1234 01:50:18 1225 01:46:42 1176
4509 Stuart Peters Male 1348 M45+ 163 00:43:06 1921 01:25:09 1697 01:55:25 1603 01:50:39 1500
1614 Rebecca Walsh Female 284 FOPEN 163 00:43:28 2022 01:26:25 1850 01:56:22 1679 01:52:36 1665
1142 Seamus Ogrady Male 1997 M50+ 163 00:44:33 2242 01:32:25 2563 02:08:30 2588 02:05:53 2739
1711 Emma Raven Female 1058 F35+ 163 00:48:22 3106 01:43:22 3390 02:26:55 3462 02:20:20 3450
3845 Deborah Taylor Female 1203 F40+ 163 00:53:21 3659 01:51:05 3704 02:36:14 3706 02:29:14 3702
3220 David Pritchard Male 248 MOPEN 164 00:33:24 219 01:07:42 241 01:31:39 268 01:30:58 268
1606 Michael Rice Male 1060 M40+ 164 00:44:38 2269 01:22:24 1399 01:50:23 1232 01:45:58 1099
3638 Sean Loughlin Male 1350 M45+ 164 RED ROSE RRC 00:43:29 2025 01:25:47 1771 01:55:27 1606 01:53:34 1740
3052 Ellie Bailey Female 287 FOPEN 164 00:43:05 1919 01:25:55 1792 01:56:30 1685 01:53:19 1717
3825 Alan King Male 2013 M50+ 164 00:45:15 2439 01:31:47 2490 02:08:53 2618 02:03:33 2602
1455 Sharon Bingham Female 1059 F35+ 164 00:51:01 3470 01:44:11 3443 02:26:57 3464 02:19:49 3424
2937 Einir Randall Female 1217 F40+ 164 00:54:40 3737 01:52:01 3727 02:37:18 3737 02:29:59 3721
3515 Lloyd Stevens Male 251 MOPEN 165 00:34:47 326 01:09:50 313 01:31:46 271 01:31:07 275
4415 Steven Macdonald Male 1069 M40+ 165 00:39:16 1054 01:20:33 1179 01:50:36 1244 01:46:53 1191
3659 Christopher Lee Male 1361 M45+ 165 00:41:14 1504 01:22:41 1433 01:55:41 1620 01:50:06 1448
4679 Izabela Wanat Female 288 FOPEN 165 00:41:59 1670 01:25:26 1730 01:56:37 1690 01:53:57 1775
645 Gerald Moore Male 2014 M50+ 165 00:46:36 2760 01:32:13 2540 02:08:56 2619 02:00:46 2401
2244 Gail Corrigan Female 1066 F35+ 165 OLDHAM ROYTON HARRIERS AC 00:50:53 3451 01:48:51 3642 02:27:13 3474 02:22:23 3519
4265 Victorina Gonzalez-Diaz Female 1257 F40+ 165 00:51:45 3530 01:48:04 3619 02:41:41 3805 02:34:30 3791
1266 James Tinnelly Male 252 MOPEN 166 00:34:50 331 01:09:10 297 01:31:46 272 01:30:57 267
4879 Stephen Llewellyn Male 1072 M40+ 166 00:39:27 1084 01:20:58 1228 01:50:39 1247 01:49:38 1415
723 Garry Newman Male 1397 M45+ 166 00:42:25 1776 01:24:07 1593 01:56:25 1681 01:50:03 1445
875 Abby Hitchin Female 289 FOPEN 166 00:42:34 1813 01:25:08 1695 01:56:40 1696 01:52:05 1628
1908 Neil Kirkby Male 2018 M50+ 166 00:47:34 2948 01:33:17 2647 02:09:01 2625 02:01:05 2426
2829 Hayley Jones Female 1067 F35+ 166 00:50:56 3455 01:48:58 3648 02:27:13 3475 02:22:23 3518
2662 Carol Taylor Female 1261 F40+ 166 00:55:53 3795 01:56:37 3853 02:41:48 3809 02:37:07 3827
3760 Harry Little Male 253 MOPEN 167 00:35:12 368 01:10:07 327 01:31:47 273 01:31:11 277
3482 Robbie Henry Male 1074 M40+ 167 00:41:43 1610 01:21:58 1340 01:50:44 1249 01:47:24 1242
1128 Philip Otoole Male 1398 M45+ 167 TALLAGHT AC 00:42:51 1879 01:26:22 1847 01:56:26 1683 01:54:10 1793
4375 Emily Rex Female 293 FOPEN 167 00:44:34 2248 01:26:22 1848 01:56:49 1709 01:52:40 1669
3041 Paul Wildridge Male 2019 M50+ 167 00:42:12 1712 01:28:22 2062 02:09:02 2626 02:04:51 2684
4066 Cassandra Evans Female 1072 F35+ 167 00:51:11 3485 01:44:37 3460 02:27:23 3483 02:20:25 3452
2503 Karuna Karyampudi Female 1268 F40+ 167 00:53:55 3698 01:54:20 3801 02:42:29 3821 02:35:33 3810
4911 Matthew Mclay Male 254 MOPEN 168 PENNY LANE STRIDERS 00:34:17 298 01:08:48 282 01:31:48 274 01:31:37 295
842 Jamie Mcgivern Male 1091 M40+ 168 00:40:31 1322 01:22:00 1348 01:51:01 1271 01:49:16 1391
3489 Simon Wright Male 1415 M45+ 168 00:44:08 2166 01:27:58 2026 01:56:47 1707 01:54:56 1870
622 Felicity Highet Female 297 FOPEN 168 00:42:46 1862 01:26:19 1842 01:56:54 1718 01:55:07 1879
1305 Tony Oliver Male 2046 M50+ 168 00:45:26 2479 01:33:19 2656 02:10:21 2701 02:07:35 2846
1555 Annie Neeson Female 1073 F35+ 168 VEGAN RUNNERS 00:50:58 3463 01:45:35 3503 02:27:31 3486 02:21:56 3504
3831 Rachel Marshall Female 1272 F40+ 168 00:57:04 3868 01:57:20 3860 02:43:21 3828 02:35:09 3804
10357 Daniel S Male 255 MOPEN 169 00:34:53 332 01:10:09 331 01:31:48 275 01:31:25 287
353 Edward Sultana Male 1118 M40+ 169 00:41:04 1465 01:22:19 1387 01:51:23 1302 01:50:23 1473
3942 Andrew Ashcroft Male 1418 M45+ 169 00:42:30 1796 01:24:58 1677 01:56:49 1711 01:51:59 1621
2520 Louise Marsden Female 298 FOPEN 169 WALLASEY AC 00:42:26 1778 01:24:23 1612 01:56:56 1721 01:50:31 1484
2281 Alan Lindsay Male 2077 M50+ 169 00:47:28 2925 01:36:40 2956 02:11:21 2760 02:08:31 2912
1318 Harriet Winstanley Female 1106 F35+ 169 00:49:38 3323 01:37:24 3017 02:29:45 3548 02:08:13 2894
4227 Cecily Murray Female 1275 F40+ 169 00:56:49 3856 01:55:17 3830 02:43:30 3832 02:35:17 3806
1800 Richard Thorpe Male 258 MOPEN 170 PENNY LANE STRIDERS 00:34:22 302 01:08:47 279 01:31:54 279 01:31:08 276
1240 Jonathan Mackie Male 1119 M40+ 170 00:40:34 1334 01:21:05 1238 01:51:23 1303 01:46:31 1153
221 Peter Mcneilis Male 1421 M45+ 170 00:42:19 1743 01:26:04 1817 01:56:52 1716 01:55:52 1939
3627 Steph Price Female 304 FOPEN 170 00:43:10 1936 01:25:50 1777 01:57:12 1747 01:52:51 1687
2712 Tom Sloanes Male 2108 M50+ 170 SUNDERLAND STROLLERS 00:49:03 3230 01:38:48 3115 02:12:33 2828 02:10:18 3020
3227 Davina Ripton Female 1120 F35+ 170 00:49:59 3366 01:44:20 3451 02:30:33 3571 02:23:28 3543
1018 Beth Naughton Female 1284 F40+ 170 00:56:12 3820 01:56:48 3855 02:44:00 3845 02:37:00 3824
1863 Christophe Moeri Male 260 MOPEN 171 00:34:15 297 01:09:14 298 01:32:00 281 01:31:48 300
719 Neal Beresford Male 1129 M40+ 171 00:40:08 1227 01:21:28 1280 01:51:32 1314 01:48:25 1320
56 Philip Davies Male 1431 M45+ 171 00:42:40 1840 01:25:45 1768 01:57:02 1733 01:53:00 1695
432 Lara Edison Female 307 FOPEN 171 00:42:03 1679 01:26:11 1835 01:57:16 1754 01:54:34 1833
1092 Brian Newall Male 2128 M50+ 171 LITTLEWOODS LEGGERS 00:47:50 2991 01:36:59 2982 02:13:03 2858